<?xml version="1.0" encoding="UTF-8" standalone="no" ?>
<gpx xmlns="http://www.topografix.com/GPX/1/1" xmlns:xsi="http://www.w3.org/2001/XMLSchema-instance" xsi:schemaLocation="http://www.topografix.com/GPX/1/1 http://www.topografix.com/GPX/1/1/gpx.xsd" version="1.1" creator="VisuGPX - https://www.visugpx.com">
  <metadata>
    <name>Chuyer-Les Roches de Condrieu</name>
    <desc><![CDATA[Chuyer-Les Roches de Condrieu]]></desc>
  </metadata>
  <wpt lat="45.45709" lon="4.69354">
    <ele>464</ele>
  </wpt>
  <wpt lat="45.457" lon="4.69358">
    <ele>477</ele>
  </wpt>
  <trk>
    <name><![CDATA[Chuyer-Les Roches de Condrieu_1]]></name>
    <trkseg>
      <trkpt lat="45.45709" lon="4.69354">
        <ele>464</ele>
        <time>2010-08-18T12:05:21Z</time>
      </trkpt>
      <trkpt lat="45.457" lon="4.69352">
        <ele>470</ele>
        <time>2010-08-18T12:06:35Z</time>
      </trkpt>
      <trkpt lat="45.45708" lon="4.69355">
        <ele>489</ele>
        <time>2010-08-18T12:07:00Z</time>
      </trkpt>
      <trkpt lat="45.45713" lon="4.69367">
        <ele>489</ele>
        <time>2010-08-18T12:07:05Z</time>
      </trkpt>
      <trkpt lat="45.45719" lon="4.69378">
        <ele>478</ele>
        <time>2010-08-18T12:07:13Z</time>
      </trkpt>
      <trkpt lat="45.45724" lon="4.6939">
        <ele>470</ele>
        <time>2010-08-18T12:07:20Z</time>
      </trkpt>
      <trkpt lat="45.45731" lon="4.69401">
        <ele>460</ele>
        <time>2010-08-18T12:07:29Z</time>
      </trkpt>
      <trkpt lat="45.45738" lon="4.69412">
        <ele>460</ele>
        <time>2010-08-18T12:07:35Z</time>
      </trkpt>
      <trkpt lat="45.45746" lon="4.69421">
        <ele>460</ele>
        <time>2010-08-18T12:07:43Z</time>
      </trkpt>
      <trkpt lat="45.45753" lon="4.6943">
        <ele>460</ele>
        <time>2010-08-18T12:07:51Z</time>
      </trkpt>
      <trkpt lat="45.45762" lon="4.69438">
        <ele>466</ele>
        <time>2010-08-18T12:08:01Z</time>
      </trkpt>
      <trkpt lat="45.45769" lon="4.69446">
        <ele>482</ele>
        <time>2010-08-18T12:08:15Z</time>
      </trkpt>
      <trkpt lat="45.45778" lon="4.69453">
        <ele>482</ele>
        <time>2010-08-18T12:08:23Z</time>
      </trkpt>
      <trkpt lat="45.45786" lon="4.6946">
        <ele>482</ele>
        <time>2010-08-18T12:08:29Z</time>
      </trkpt>
      <trkpt lat="45.45794" lon="4.69466">
        <ele>475</ele>
        <time>2010-08-18T12:08:36Z</time>
      </trkpt>
      <trkpt lat="45.45803" lon="4.69473">
        <ele>475</ele>
        <time>2010-08-18T12:08:45Z</time>
      </trkpt>
      <trkpt lat="45.45812" lon="4.69478">
        <ele>466</ele>
        <time>2010-08-18T12:08:50Z</time>
      </trkpt>
      <trkpt lat="45.4582" lon="4.69488">
        <ele>466</ele>
        <time>2010-08-18T12:08:57Z</time>
      </trkpt>
      <trkpt lat="45.45828" lon="4.69496">
        <ele>454</ele>
        <time>2010-08-18T12:09:04Z</time>
      </trkpt>
      <trkpt lat="45.45836" lon="4.69507">
        <ele>454</ele>
        <time>2010-08-18T12:09:13Z</time>
      </trkpt>
      <trkpt lat="45.45845" lon="4.69514">
        <ele>454</ele>
        <time>2010-08-18T12:09:21Z</time>
      </trkpt>
      <trkpt lat="45.45849" lon="4.69526">
        <ele>454</ele>
        <time>2010-08-18T12:09:29Z</time>
      </trkpt>
      <trkpt lat="45.4586" lon="4.69532">
        <ele>454</ele>
        <time>2010-08-18T12:09:36Z</time>
      </trkpt>
      <trkpt lat="45.45868" lon="4.6954">
        <ele>454</ele>
        <time>2010-08-18T12:09:45Z</time>
      </trkpt>
      <trkpt lat="45.45878" lon="4.69542">
        <ele>460</ele>
        <time>2010-08-18T12:10:18Z</time>
      </trkpt>
      <trkpt lat="45.45868" lon="4.69542">
        <ele>460</ele>
        <time>2010-08-18T12:13:00Z</time>
      </trkpt>
      <trkpt lat="45.45873" lon="4.69554">
        <ele>452</ele>
        <time>2010-08-18T12:13:18Z</time>
      </trkpt>
      <trkpt lat="45.45874" lon="4.69568">
        <ele>452</ele>
        <time>2010-08-18T12:13:27Z</time>
      </trkpt>
      <trkpt lat="45.45875" lon="4.69583">
        <ele>452</ele>
        <time>2010-08-18T12:13:35Z</time>
      </trkpt>
      <trkpt lat="45.45877" lon="4.69597">
        <ele>452</ele>
        <time>2010-08-18T12:13:44Z</time>
      </trkpt>
      <trkpt lat="45.4588" lon="4.6961">
        <ele>452</ele>
        <time>2010-08-18T12:13:51Z</time>
      </trkpt>
      <trkpt lat="45.45884" lon="4.69622">
        <ele>452</ele>
        <time>2010-08-18T12:13:58Z</time>
      </trkpt>
      <trkpt lat="45.45887" lon="4.69635">
        <ele>452</ele>
        <time>2010-08-18T12:14:05Z</time>
      </trkpt>
      <trkpt lat="45.4589" lon="4.69648">
        <ele>457</ele>
        <time>2010-08-18T12:14:13Z</time>
      </trkpt>
      <trkpt lat="45.45895" lon="4.6966">
        <ele>457</ele>
        <time>2010-08-18T12:14:20Z</time>
      </trkpt>
      <trkpt lat="45.459" lon="4.69672">
        <ele>457</ele>
        <time>2010-08-18T12:14:26Z</time>
      </trkpt>
      <trkpt lat="45.45906" lon="4.69684">
        <ele>457</ele>
        <time>2010-08-18T12:14:34Z</time>
      </trkpt>
      <trkpt lat="45.45912" lon="4.69697">
        <ele>451</ele>
        <time>2010-08-18T12:14:42Z</time>
      </trkpt>
      <trkpt lat="45.45919" lon="4.69707">
        <ele>451</ele>
        <time>2010-08-18T12:14:49Z</time>
      </trkpt>
      <trkpt lat="45.45924" lon="4.69718">
        <ele>451</ele>
        <time>2010-08-18T12:14:56Z</time>
      </trkpt>
      <trkpt lat="45.4593" lon="4.69729">
        <ele>451</ele>
        <time>2010-08-18T12:15:03Z</time>
      </trkpt>
      <trkpt lat="45.45936" lon="4.6974">
        <ele>451</ele>
        <time>2010-08-18T12:15:10Z</time>
      </trkpt>
      <trkpt lat="45.45942" lon="4.6975">
        <ele>451</ele>
        <time>2010-08-18T12:15:17Z</time>
      </trkpt>
      <trkpt lat="45.45951" lon="4.69758">
        <ele>451</ele>
        <time>2010-08-18T12:15:24Z</time>
      </trkpt>
      <trkpt lat="45.45959" lon="4.69764">
        <ele>451</ele>
        <time>2010-08-18T12:15:31Z</time>
      </trkpt>
      <trkpt lat="45.45968" lon="4.6977">
        <ele>451</ele>
        <time>2010-08-18T12:15:38Z</time>
      </trkpt>
      <trkpt lat="45.45977" lon="4.69777">
        <ele>451</ele>
        <time>2010-08-18T12:15:46Z</time>
      </trkpt>
      <trkpt lat="45.45986" lon="4.69783">
        <ele>451</ele>
        <time>2010-08-18T12:15:53Z</time>
      </trkpt>
      <trkpt lat="45.45995" lon="4.69791">
        <ele>451</ele>
        <time>2010-08-18T12:16:02Z</time>
      </trkpt>
      <trkpt lat="45.46002" lon="4.69799">
        <ele>451</ele>
        <time>2010-08-18T12:16:10Z</time>
      </trkpt>
      <trkpt lat="45.4601" lon="4.69808">
        <ele>451</ele>
        <time>2010-08-18T12:16:18Z</time>
      </trkpt>
      <trkpt lat="45.46016" lon="4.6982">
        <ele>457</ele>
        <time>2010-08-18T12:16:27Z</time>
      </trkpt>
      <trkpt lat="45.46021" lon="4.69833">
        <ele>462</ele>
        <time>2010-08-18T12:16:37Z</time>
      </trkpt>
      <trkpt lat="45.46026" lon="4.69845">
        <ele>462</ele>
        <time>2010-08-18T12:16:43Z</time>
      </trkpt>
      <trkpt lat="45.46031" lon="4.69857">
        <ele>462</ele>
        <time>2010-08-18T12:16:50Z</time>
      </trkpt>
      <trkpt lat="45.46035" lon="4.6987">
        <ele>462</ele>
        <time>2010-08-18T12:16:59Z</time>
      </trkpt>
      <trkpt lat="45.46041" lon="4.69881">
        <ele>462</ele>
        <time>2010-08-18T12:17:08Z</time>
      </trkpt>
      <trkpt lat="45.46044" lon="4.69894">
        <ele>456</ele>
        <time>2010-08-18T12:17:27Z</time>
      </trkpt>
      <trkpt lat="45.46047" lon="4.69907">
        <ele>456</ele>
        <time>2010-08-18T12:17:35Z</time>
      </trkpt>
      <trkpt lat="45.46047" lon="4.6992">
        <ele>456</ele>
        <time>2010-08-18T12:17:42Z</time>
      </trkpt>
      <trkpt lat="45.46047" lon="4.69935">
        <ele>456</ele>
        <time>2010-08-18T12:17:51Z</time>
      </trkpt>
      <trkpt lat="45.46049" lon="4.69949">
        <ele>456</ele>
        <time>2010-08-18T12:17:59Z</time>
      </trkpt>
      <trkpt lat="45.4605" lon="4.69963">
        <ele>456</ele>
        <time>2010-08-18T12:18:07Z</time>
      </trkpt>
      <trkpt lat="45.46053" lon="4.69976">
        <ele>456</ele>
        <time>2010-08-18T12:18:14Z</time>
      </trkpt>
      <trkpt lat="45.46054" lon="4.69991">
        <ele>456</ele>
        <time>2010-08-18T12:18:21Z</time>
      </trkpt>
      <trkpt lat="45.46057" lon="4.70005">
        <ele>456</ele>
        <time>2010-08-18T12:18:29Z</time>
      </trkpt>
      <trkpt lat="45.46059" lon="4.7002">
        <ele>451</ele>
        <time>2010-08-18T12:18:37Z</time>
      </trkpt>
      <trkpt lat="45.46061" lon="4.70035">
        <ele>451</ele>
        <time>2010-08-18T12:18:45Z</time>
      </trkpt>
      <trkpt lat="45.46065" lon="4.70047">
        <ele>457</ele>
        <time>2010-08-18T12:18:52Z</time>
      </trkpt>
      <trkpt lat="45.46072" lon="4.70059">
        <ele>457</ele>
        <time>2010-08-18T12:19:00Z</time>
      </trkpt>
      <trkpt lat="45.46078" lon="4.7007">
        <ele>457</ele>
        <time>2010-08-18T12:19:07Z</time>
      </trkpt>
      <trkpt lat="45.46084" lon="4.70081">
        <ele>457</ele>
        <time>2010-08-18T12:19:14Z</time>
      </trkpt>
      <trkpt lat="45.46089" lon="4.70093">
        <ele>451</ele>
        <time>2010-08-18T12:19:21Z</time>
      </trkpt>
      <trkpt lat="45.46095" lon="4.70105">
        <ele>451</ele>
        <time>2010-08-18T12:19:28Z</time>
      </trkpt>
      <trkpt lat="45.46102" lon="4.70115">
        <ele>451</ele>
        <time>2010-08-18T12:19:36Z</time>
      </trkpt>
      <trkpt lat="45.46108" lon="4.70126">
        <ele>451</ele>
        <time>2010-08-18T12:19:43Z</time>
      </trkpt>
      <trkpt lat="45.46112" lon="4.70138">
        <ele>451</ele>
        <time>2010-08-18T12:19:50Z</time>
      </trkpt>
      <trkpt lat="45.46119" lon="4.7015">
        <ele>451</ele>
        <time>2010-08-18T12:19:58Z</time>
      </trkpt>
      <trkpt lat="45.46124" lon="4.70162">
        <ele>451</ele>
        <time>2010-08-18T12:20:05Z</time>
      </trkpt>
      <trkpt lat="45.46131" lon="4.70172">
        <ele>451</ele>
        <time>2010-08-18T12:20:12Z</time>
      </trkpt>
      <trkpt lat="45.46138" lon="4.70184">
        <ele>451</ele>
        <time>2010-08-18T12:20:20Z</time>
      </trkpt>
      <trkpt lat="45.46143" lon="4.70196">
        <ele>451</ele>
        <time>2010-08-18T12:20:28Z</time>
      </trkpt>
      <trkpt lat="45.4615" lon="4.70207">
        <ele>451</ele>
        <time>2010-08-18T12:20:35Z</time>
      </trkpt>
      <trkpt lat="45.46155" lon="4.70219">
        <ele>451</ele>
        <time>2010-08-18T12:20:42Z</time>
      </trkpt>
      <trkpt lat="45.4616" lon="4.70231">
        <ele>451</ele>
        <time>2010-08-18T12:20:50Z</time>
      </trkpt>
      <trkpt lat="45.46166" lon="4.70243">
        <ele>451</ele>
        <time>2010-08-18T12:20:58Z</time>
      </trkpt>
      <trkpt lat="45.46171" lon="4.70255">
        <ele>451</ele>
        <time>2010-08-18T12:21:06Z</time>
      </trkpt>
      <trkpt lat="45.46177" lon="4.70267">
        <ele>451</ele>
        <time>2010-08-18T12:21:13Z</time>
      </trkpt>
      <trkpt lat="45.46182" lon="4.70279">
        <ele>445</ele>
        <time>2010-08-18T12:21:21Z</time>
      </trkpt>
      <trkpt lat="45.46184" lon="4.70292">
        <ele>445</ele>
        <time>2010-08-18T12:21:28Z</time>
      </trkpt>
      <trkpt lat="45.46188" lon="4.70306">
        <ele>445</ele>
        <time>2010-08-18T12:21:34Z</time>
      </trkpt>
      <trkpt lat="45.46192" lon="4.70318">
        <ele>435</ele>
        <time>2010-08-18T12:22:04Z</time>
      </trkpt>
      <trkpt lat="45.46199" lon="4.70327">
        <ele>435</ele>
        <time>2010-08-18T12:22:28Z</time>
      </trkpt>
      <trkpt lat="45.462" lon="4.70342">
        <ele>435</ele>
        <time>2010-08-18T12:22:36Z</time>
      </trkpt>
      <trkpt lat="45.46203" lon="4.70356">
        <ele>440</ele>
        <time>2010-08-18T12:22:43Z</time>
      </trkpt>
      <trkpt lat="45.46205" lon="4.70369">
        <ele>440</ele>
        <time>2010-08-18T12:22:49Z</time>
      </trkpt>
      <trkpt lat="45.46208" lon="4.70381">
        <ele>440</ele>
        <time>2010-08-18T12:22:55Z</time>
      </trkpt>
      <trkpt lat="45.46212" lon="4.70394">
        <ele>440</ele>
        <time>2010-08-18T12:23:03Z</time>
      </trkpt>
      <trkpt lat="45.46215" lon="4.70407">
        <ele>440</ele>
        <time>2010-08-18T12:23:10Z</time>
      </trkpt>
      <trkpt lat="45.4622" lon="4.70421">
        <ele>445</ele>
        <time>2010-08-18T12:23:17Z</time>
      </trkpt>
      <trkpt lat="45.46226" lon="4.70433">
        <ele>445</ele>
        <time>2010-08-18T12:23:24Z</time>
      </trkpt>
      <trkpt lat="45.46231" lon="4.70446">
        <ele>445</ele>
        <time>2010-08-18T12:23:31Z</time>
      </trkpt>
      <trkpt lat="45.46238" lon="4.70458">
        <ele>445</ele>
        <time>2010-08-18T12:23:39Z</time>
      </trkpt>
      <trkpt lat="45.46243" lon="4.70468">
        <ele>445</ele>
        <time>2010-08-18T12:23:46Z</time>
      </trkpt>
      <trkpt lat="45.46248" lon="4.7048">
        <ele>438</ele>
        <time>2010-08-18T12:23:53Z</time>
      </trkpt>
      <trkpt lat="45.46253" lon="4.70492">
        <ele>438</ele>
        <time>2010-08-18T12:24:00Z</time>
      </trkpt>
      <trkpt lat="45.46258" lon="4.70505">
        <ele>438</ele>
        <time>2010-08-18T12:24:07Z</time>
      </trkpt>
      <trkpt lat="45.46259" lon="4.7052">
        <ele>438</ele>
        <time>2010-08-18T12:24:15Z</time>
      </trkpt>
      <trkpt lat="45.4626" lon="4.70534">
        <ele>438</ele>
        <time>2010-08-18T12:24:23Z</time>
      </trkpt>
      <trkpt lat="45.46262" lon="4.70548">
        <ele>438</ele>
        <time>2010-08-18T12:24:30Z</time>
      </trkpt>
      <trkpt lat="45.46263" lon="4.70562">
        <ele>438</ele>
        <time>2010-08-18T12:24:37Z</time>
      </trkpt>
      <trkpt lat="45.46265" lon="4.70576">
        <ele>438</ele>
        <time>2010-08-18T12:24:45Z</time>
      </trkpt>
      <trkpt lat="45.46266" lon="4.70591">
        <ele>438</ele>
        <time>2010-08-18T12:24:53Z</time>
      </trkpt>
      <trkpt lat="45.46267" lon="4.70605">
        <ele>438</ele>
        <time>2010-08-18T12:25:01Z</time>
      </trkpt>
      <trkpt lat="45.46269" lon="4.70619">
        <ele>438</ele>
        <time>2010-08-18T12:25:09Z</time>
      </trkpt>
      <trkpt lat="45.46271" lon="4.70632">
        <ele>438</ele>
        <time>2010-08-18T12:25:16Z</time>
      </trkpt>
      <trkpt lat="45.46274" lon="4.70644">
        <ele>438</ele>
        <time>2010-08-18T12:25:24Z</time>
      </trkpt>
      <trkpt lat="45.46276" lon="4.70658">
        <ele>438</ele>
        <time>2010-08-18T12:25:32Z</time>
      </trkpt>
      <trkpt lat="45.46279" lon="4.70671">
        <ele>438</ele>
        <time>2010-08-18T12:25:39Z</time>
      </trkpt>
      <trkpt lat="45.46282" lon="4.70684">
        <ele>438</ele>
        <time>2010-08-18T12:25:47Z</time>
      </trkpt>
      <trkpt lat="45.46286" lon="4.70697">
        <ele>438</ele>
        <time>2010-08-18T12:25:54Z</time>
      </trkpt>
      <trkpt lat="45.46288" lon="4.70711">
        <ele>438</ele>
        <time>2010-08-18T12:26:01Z</time>
      </trkpt>
      <trkpt lat="45.4629" lon="4.70725">
        <ele>438</ele>
        <time>2010-08-18T12:26:09Z</time>
      </trkpt>
      <trkpt lat="45.46291" lon="4.70739">
        <ele>438</ele>
        <time>2010-08-18T12:26:16Z</time>
      </trkpt>
      <trkpt lat="45.46291" lon="4.70753">
        <ele>438</ele>
        <time>2010-08-18T12:26:25Z</time>
      </trkpt>
      <trkpt lat="45.46291" lon="4.70767">
        <ele>438</ele>
        <time>2010-08-18T12:26:34Z</time>
      </trkpt>
      <trkpt lat="45.46292" lon="4.7078">
        <ele>431</ele>
        <time>2010-08-18T12:26:47Z</time>
      </trkpt>
      <trkpt lat="45.46291" lon="4.70795">
        <ele>431</ele>
        <time>2010-08-18T12:26:55Z</time>
      </trkpt>
      <trkpt lat="45.46292" lon="4.70809">
        <ele>437</ele>
        <time>2010-08-18T12:27:02Z</time>
      </trkpt>
      <trkpt lat="45.46292" lon="4.70822">
        <ele>437</ele>
        <time>2010-08-18T12:27:09Z</time>
      </trkpt>
      <trkpt lat="45.46294" lon="4.70836">
        <ele>437</ele>
        <time>2010-08-18T12:27:16Z</time>
      </trkpt>
      <trkpt lat="45.46294" lon="4.7085">
        <ele>430</ele>
        <time>2010-08-18T12:27:23Z</time>
      </trkpt>
      <trkpt lat="45.46297" lon="4.70863">
        <ele>430</ele>
        <time>2010-08-18T12:27:30Z</time>
      </trkpt>
      <trkpt lat="45.463" lon="4.70876">
        <ele>430</ele>
        <time>2010-08-18T12:27:39Z</time>
      </trkpt>
      <trkpt lat="45.46302" lon="4.70891">
        <ele>430</ele>
        <time>2010-08-18T12:27:48Z</time>
      </trkpt>
      <trkpt lat="45.46303" lon="4.70905">
        <ele>430</ele>
        <time>2010-08-18T12:27:55Z</time>
      </trkpt>
      <trkpt lat="45.46301" lon="4.70919">
        <ele>430</ele>
        <time>2010-08-18T12:28:03Z</time>
      </trkpt>
      <trkpt lat="45.46301" lon="4.70935">
        <ele>435</ele>
        <time>2010-08-18T12:28:11Z</time>
      </trkpt>
      <trkpt lat="45.46303" lon="4.70948">
        <ele>435</ele>
        <time>2010-08-18T12:28:17Z</time>
      </trkpt>
      <trkpt lat="45.46304" lon="4.70962">
        <ele>435</ele>
        <time>2010-08-18T12:28:24Z</time>
      </trkpt>
      <trkpt lat="45.46306" lon="4.70975">
        <ele>435</ele>
        <time>2010-08-18T12:28:30Z</time>
      </trkpt>
      <trkpt lat="45.46309" lon="4.70988">
        <ele>435</ele>
        <time>2010-08-18T12:28:36Z</time>
      </trkpt>
      <trkpt lat="45.4631" lon="4.71001">
        <ele>435</ele>
        <time>2010-08-18T12:28:43Z</time>
      </trkpt>
      <trkpt lat="45.4631" lon="4.71015">
        <ele>435</ele>
        <time>2010-08-18T12:28:50Z</time>
      </trkpt>
      <trkpt lat="45.46311" lon="4.71028">
        <ele>427</ele>
        <time>2010-08-18T12:28:57Z</time>
      </trkpt>
      <trkpt lat="45.46312" lon="4.71042">
        <ele>427</ele>
        <time>2010-08-18T12:29:04Z</time>
      </trkpt>
      <trkpt lat="45.46313" lon="4.71056">
        <ele>427</ele>
        <time>2010-08-18T12:29:11Z</time>
      </trkpt>
      <trkpt lat="45.46312" lon="4.71069">
        <ele>433</ele>
        <time>2010-08-18T12:29:18Z</time>
      </trkpt>
      <trkpt lat="45.4631" lon="4.71082">
        <ele>433</ele>
        <time>2010-08-18T12:29:25Z</time>
      </trkpt>
      <trkpt lat="45.46308" lon="4.71095">
        <ele>427</ele>
        <time>2010-08-18T12:29:32Z</time>
      </trkpt>
      <trkpt lat="45.46306" lon="4.7111">
        <ele>427</ele>
        <time>2010-08-18T12:29:40Z</time>
      </trkpt>
      <trkpt lat="45.46305" lon="4.71123">
        <ele>427</ele>
        <time>2010-08-18T12:29:47Z</time>
      </trkpt>
      <trkpt lat="45.46303" lon="4.71139">
        <ele>427</ele>
        <time>2010-08-18T12:29:54Z</time>
      </trkpt>
      <trkpt lat="45.46301" lon="4.71153">
        <ele>427</ele>
        <time>2010-08-18T12:30:02Z</time>
      </trkpt>
      <trkpt lat="45.46301" lon="4.71168">
        <ele>427</ele>
        <time>2010-08-18T12:30:09Z</time>
      </trkpt>
      <trkpt lat="45.46301" lon="4.71182">
        <ele>421</ele>
        <time>2010-08-18T12:30:16Z</time>
      </trkpt>
      <trkpt lat="45.46299" lon="4.71195">
        <ele>421</ele>
        <time>2010-08-18T12:30:23Z</time>
      </trkpt>
      <trkpt lat="45.46299" lon="4.71209">
        <ele>428</ele>
        <time>2010-08-18T12:30:30Z</time>
      </trkpt>
      <trkpt lat="45.46298" lon="4.71223">
        <ele>428</ele>
        <time>2010-08-18T12:30:37Z</time>
      </trkpt>
      <trkpt lat="45.46298" lon="4.71238">
        <ele>428</ele>
        <time>2010-08-18T12:30:45Z</time>
      </trkpt>
      <trkpt lat="45.46298" lon="4.71254">
        <ele>428</ele>
        <time>2010-08-18T12:30:52Z</time>
      </trkpt>
      <trkpt lat="45.46296" lon="4.71268">
        <ele>428</ele>
        <time>2010-08-18T12:31:00Z</time>
      </trkpt>
      <trkpt lat="45.46294" lon="4.71282">
        <ele>428</ele>
        <time>2010-08-18T12:31:07Z</time>
      </trkpt>
      <trkpt lat="45.46293" lon="4.71297">
        <ele>428</ele>
        <time>2010-08-18T12:31:15Z</time>
      </trkpt>
      <trkpt lat="45.46293" lon="4.71311">
        <ele>428</ele>
        <time>2010-08-18T12:31:22Z</time>
      </trkpt>
      <trkpt lat="45.46293" lon="4.71325">
        <ele>428</ele>
        <time>2010-08-18T12:31:29Z</time>
      </trkpt>
      <trkpt lat="45.46293" lon="4.71339">
        <ele>422</ele>
        <time>2010-08-18T12:31:36Z</time>
      </trkpt>
      <trkpt lat="45.46293" lon="4.71353">
        <ele>422</ele>
        <time>2010-08-18T12:31:43Z</time>
      </trkpt>
      <trkpt lat="45.46293" lon="4.71369">
        <ele>422</ele>
        <time>2010-08-18T12:31:51Z</time>
      </trkpt>
      <trkpt lat="45.46294" lon="4.71382">
        <ele>422</ele>
        <time>2010-08-18T12:31:58Z</time>
      </trkpt>
      <trkpt lat="45.46296" lon="4.71395">
        <ele>422</ele>
        <time>2010-08-18T12:32:05Z</time>
      </trkpt>
      <trkpt lat="45.46296" lon="4.71409">
        <ele>422</ele>
        <time>2010-08-18T12:32:12Z</time>
      </trkpt>
      <trkpt lat="45.46298" lon="4.71423">
        <ele>422</ele>
        <time>2010-08-18T12:32:19Z</time>
      </trkpt>
      <trkpt lat="45.46299" lon="4.71437">
        <ele>422</ele>
        <time>2010-08-18T12:32:26Z</time>
      </trkpt>
      <trkpt lat="45.463" lon="4.71452">
        <ele>422</ele>
        <time>2010-08-18T12:32:34Z</time>
      </trkpt>
      <trkpt lat="45.46303" lon="4.71466">
        <ele>422</ele>
        <time>2010-08-18T12:32:42Z</time>
      </trkpt>
      <trkpt lat="45.46306" lon="4.71479">
        <ele>422</ele>
        <time>2010-08-18T12:32:50Z</time>
      </trkpt>
      <trkpt lat="45.46306" lon="4.71493">
        <ele>422</ele>
        <time>2010-08-18T12:32:58Z</time>
      </trkpt>
      <trkpt lat="45.46307" lon="4.71507">
        <ele>422</ele>
        <time>2010-08-18T12:33:05Z</time>
      </trkpt>
      <trkpt lat="45.46308" lon="4.71521">
        <ele>416</ele>
        <time>2010-08-18T12:33:12Z</time>
      </trkpt>
      <trkpt lat="45.46307" lon="4.71536">
        <ele>416</ele>
        <time>2010-08-18T12:33:20Z</time>
      </trkpt>
      <trkpt lat="45.46306" lon="4.7155">
        <ele>416</ele>
        <time>2010-08-18T12:33:27Z</time>
      </trkpt>
      <trkpt lat="45.46304" lon="4.71563">
        <ele>416</ele>
        <time>2010-08-18T12:33:35Z</time>
      </trkpt>
      <trkpt lat="45.46302" lon="4.71577">
        <ele>416</ele>
        <time>2010-08-18T12:33:42Z</time>
      </trkpt>
      <trkpt lat="45.46301" lon="4.71592">
        <ele>416</ele>
        <time>2010-08-18T12:33:49Z</time>
      </trkpt>
      <trkpt lat="45.463" lon="4.71606">
        <ele>416</ele>
        <time>2010-08-18T12:33:56Z</time>
      </trkpt>
      <trkpt lat="45.463" lon="4.7162">
        <ele>416</ele>
        <time>2010-08-18T12:34:03Z</time>
      </trkpt>
      <trkpt lat="45.463" lon="4.71634">
        <ele>416</ele>
        <time>2010-08-18T12:34:11Z</time>
      </trkpt>
      <trkpt lat="45.463" lon="4.71649">
        <ele>423</ele>
        <time>2010-08-18T12:34:19Z</time>
      </trkpt>
      <trkpt lat="45.463" lon="4.71662">
        <ele>430</ele>
        <time>2010-08-18T12:34:27Z</time>
      </trkpt>
      <trkpt lat="45.46303" lon="4.71675">
        <ele>430</ele>
        <time>2010-08-18T12:34:34Z</time>
      </trkpt>
      <trkpt lat="45.46306" lon="4.71687">
        <ele>422</ele>
        <time>2010-08-18T12:34:40Z</time>
      </trkpt>
      <trkpt lat="45.46309" lon="4.71702">
        <ele>422</ele>
        <time>2010-08-18T12:34:48Z</time>
      </trkpt>
      <trkpt lat="45.46313" lon="4.71714">
        <ele>422</ele>
        <time>2010-08-18T12:34:57Z</time>
      </trkpt>
      <trkpt lat="45.46315" lon="4.71729">
        <ele>417</ele>
        <time>2010-08-18T12:35:05Z</time>
      </trkpt>
      <trkpt lat="45.46317" lon="4.71742">
        <ele>417</ele>
        <time>2010-08-18T12:35:12Z</time>
      </trkpt>
      <trkpt lat="45.46319" lon="4.71756">
        <ele>410</ele>
        <time>2010-08-18T12:35:19Z</time>
      </trkpt>
      <trkpt lat="45.46321" lon="4.7177">
        <ele>410</ele>
        <time>2010-08-18T12:35:27Z</time>
      </trkpt>
      <trkpt lat="45.46325" lon="4.71784">
        <ele>410</ele>
        <time>2010-08-18T12:35:34Z</time>
      </trkpt>
      <trkpt lat="45.46326" lon="4.71797">
        <ele>417</ele>
        <time>2010-08-18T12:35:41Z</time>
      </trkpt>
      <trkpt lat="45.46329" lon="4.7181">
        <ele>417</ele>
        <time>2010-08-18T12:35:48Z</time>
      </trkpt>
      <trkpt lat="45.46331" lon="4.71823">
        <ele>417</ele>
        <time>2010-08-18T12:35:55Z</time>
      </trkpt>
      <trkpt lat="45.46333" lon="4.71837">
        <ele>417</ele>
        <time>2010-08-18T12:36:03Z</time>
      </trkpt>
      <trkpt lat="45.46333" lon="4.71852">
        <ele>417</ele>
        <time>2010-08-18T12:36:11Z</time>
      </trkpt>
      <trkpt lat="45.46333" lon="4.71865">
        <ele>417</ele>
        <time>2010-08-18T12:36:19Z</time>
      </trkpt>
      <trkpt lat="45.46332" lon="4.7188">
        <ele>410</ele>
        <time>2010-08-18T12:36:28Z</time>
      </trkpt>
      <trkpt lat="45.46331" lon="4.71894">
        <ele>410</ele>
        <time>2010-08-18T12:36:35Z</time>
      </trkpt>
      <trkpt lat="45.46332" lon="4.71908">
        <ele>410</ele>
        <time>2010-08-18T12:36:43Z</time>
      </trkpt>
      <trkpt lat="45.46335" lon="4.71921">
        <ele>410</ele>
        <time>2010-08-18T12:36:52Z</time>
      </trkpt>
      <trkpt lat="45.46337" lon="4.71934">
        <ele>410</ele>
        <time>2010-08-18T12:37:00Z</time>
      </trkpt>
      <trkpt lat="45.46342" lon="4.71946">
        <ele>402</ele>
        <time>2010-08-18T12:38:12Z</time>
      </trkpt>
      <trkpt lat="45.4635" lon="4.71956">
        <ele>402</ele>
        <time>2010-08-18T12:38:21Z</time>
      </trkpt>
      <trkpt lat="45.46358" lon="4.71963">
        <ele>402</ele>
        <time>2010-08-18T12:38:29Z</time>
      </trkpt>
      <trkpt lat="45.46367" lon="4.71969">
        <ele>402</ele>
        <time>2010-08-18T12:38:37Z</time>
      </trkpt>
      <trkpt lat="45.46375" lon="4.71975">
        <ele>402</ele>
        <time>2010-08-18T12:38:44Z</time>
      </trkpt>
      <trkpt lat="45.46384" lon="4.71983">
        <ele>402</ele>
        <time>2010-08-18T12:38:52Z</time>
      </trkpt>
      <trkpt lat="45.46392" lon="4.71991">
        <ele>402</ele>
        <time>2010-08-18T12:38:59Z</time>
      </trkpt>
      <trkpt lat="45.46401" lon="4.71999">
        <ele>402</ele>
        <time>2010-08-18T12:39:07Z</time>
      </trkpt>
      <trkpt lat="45.46409" lon="4.72006">
        <ele>402</ele>
        <time>2010-08-18T12:39:14Z</time>
      </trkpt>
      <trkpt lat="45.46416" lon="4.72014">
        <ele>402</ele>
        <time>2010-08-18T12:39:21Z</time>
      </trkpt>
      <trkpt lat="45.46425" lon="4.72022">
        <ele>402</ele>
        <time>2010-08-18T12:39:29Z</time>
      </trkpt>
      <trkpt lat="45.46434" lon="4.7203">
        <ele>402</ele>
        <time>2010-08-18T12:39:37Z</time>
      </trkpt>
      <trkpt lat="45.46442" lon="4.72037">
        <ele>402</ele>
        <time>2010-08-18T12:39:45Z</time>
      </trkpt>
      <trkpt lat="45.46451" lon="4.72044">
        <ele>402</ele>
        <time>2010-08-18T12:39:53Z</time>
      </trkpt>
      <trkpt lat="45.46459" lon="4.7205">
        <ele>402</ele>
        <time>2010-08-18T12:40:01Z</time>
      </trkpt>
      <trkpt lat="45.46468" lon="4.72057">
        <ele>397</ele>
        <time>2010-08-18T12:40:09Z</time>
      </trkpt>
      <trkpt lat="45.46476" lon="4.72065">
        <ele>397</ele>
        <time>2010-08-18T12:40:17Z</time>
      </trkpt>
      <trkpt lat="45.46484" lon="4.72074">
        <ele>397</ele>
        <time>2010-08-18T12:40:25Z</time>
      </trkpt>
      <trkpt lat="45.46491" lon="4.72084">
        <ele>397</ele>
        <time>2010-08-18T12:40:33Z</time>
      </trkpt>
      <trkpt lat="45.46498" lon="4.72095">
        <ele>397</ele>
        <time>2010-08-18T12:40:41Z</time>
      </trkpt>
      <trkpt lat="45.46505" lon="4.72106">
        <ele>397</ele>
        <time>2010-08-18T12:40:49Z</time>
      </trkpt>
      <trkpt lat="45.46512" lon="4.72117">
        <ele>397</ele>
        <time>2010-08-18T12:40:56Z</time>
      </trkpt>
      <trkpt lat="45.46518" lon="4.72127">
        <ele>397</ele>
        <time>2010-08-18T12:41:03Z</time>
      </trkpt>
      <trkpt lat="45.46521" lon="4.72139">
        <ele>397</ele>
        <time>2010-08-18T12:41:12Z</time>
      </trkpt>
      <trkpt lat="45.46526" lon="4.72153">
        <ele>397</ele>
        <time>2010-08-18T12:41:21Z</time>
      </trkpt>
      <trkpt lat="45.46531" lon="4.72164">
        <ele>397</ele>
        <time>2010-08-18T12:41:28Z</time>
      </trkpt>
      <trkpt lat="45.46537" lon="4.72177">
        <ele>397</ele>
        <time>2010-08-18T12:41:36Z</time>
      </trkpt>
      <trkpt lat="45.46542" lon="4.72189">
        <ele>397</ele>
        <time>2010-08-18T12:41:43Z</time>
      </trkpt>
      <trkpt lat="45.46547" lon="4.72201">
        <ele>397</ele>
        <time>2010-08-18T12:41:51Z</time>
      </trkpt>
      <trkpt lat="45.46552" lon="4.72213">
        <ele>392</ele>
        <time>2010-08-18T12:41:58Z</time>
      </trkpt>
      <trkpt lat="45.46559" lon="4.72224">
        <ele>392</ele>
        <time>2010-08-18T12:42:06Z</time>
      </trkpt>
      <trkpt lat="45.46566" lon="4.72232">
        <ele>392</ele>
        <time>2010-08-18T12:42:13Z</time>
      </trkpt>
      <trkpt lat="45.46574" lon="4.72239">
        <ele>392</ele>
        <time>2010-08-18T12:42:21Z</time>
      </trkpt>
      <trkpt lat="45.46583" lon="4.72246">
        <ele>392</ele>
        <time>2010-08-18T12:42:29Z</time>
      </trkpt>
      <trkpt lat="45.46592" lon="4.72252">
        <ele>392</ele>
        <time>2010-08-18T12:42:36Z</time>
      </trkpt>
      <trkpt lat="45.466" lon="4.72259">
        <ele>392</ele>
        <time>2010-08-18T12:42:43Z</time>
      </trkpt>
      <trkpt lat="45.46608" lon="4.72266">
        <ele>392</ele>
        <time>2010-08-18T12:42:51Z</time>
      </trkpt>
      <trkpt lat="45.46616" lon="4.72274">
        <ele>392</ele>
        <time>2010-08-18T12:42:59Z</time>
      </trkpt>
      <trkpt lat="45.46624" lon="4.72283">
        <ele>392</ele>
        <time>2010-08-18T12:43:07Z</time>
      </trkpt>
      <trkpt lat="45.46632" lon="4.72291">
        <ele>387</ele>
        <time>2010-08-18T12:43:14Z</time>
      </trkpt>
      <trkpt lat="45.4664" lon="4.72301">
        <ele>387</ele>
        <time>2010-08-18T12:43:22Z</time>
      </trkpt>
      <trkpt lat="45.46647" lon="4.72311">
        <ele>387</ele>
        <time>2010-08-18T12:43:30Z</time>
      </trkpt>
      <trkpt lat="45.46651" lon="4.72323">
        <ele>387</ele>
        <time>2010-08-18T12:43:38Z</time>
      </trkpt>
      <trkpt lat="45.46655" lon="4.72335">
        <ele>387</ele>
        <time>2010-08-18T12:43:46Z</time>
      </trkpt>
      <trkpt lat="45.46656" lon="4.72349">
        <ele>387</ele>
        <time>2010-08-18T12:43:54Z</time>
      </trkpt>
      <trkpt lat="45.46658" lon="4.72363">
        <ele>387</ele>
        <time>2010-08-18T12:44:02Z</time>
      </trkpt>
      <trkpt lat="45.46661" lon="4.72376">
        <ele>387</ele>
        <time>2010-08-18T12:44:10Z</time>
      </trkpt>
      <trkpt lat="45.46664" lon="4.7239">
        <ele>387</ele>
        <time>2010-08-18T12:44:18Z</time>
      </trkpt>
      <trkpt lat="45.46667" lon="4.72403">
        <ele>387</ele>
        <time>2010-08-18T12:44:26Z</time>
      </trkpt>
      <trkpt lat="45.46669" lon="4.72417">
        <ele>387</ele>
        <time>2010-08-18T12:44:34Z</time>
      </trkpt>
      <trkpt lat="45.46672" lon="4.7243">
        <ele>381</ele>
        <time>2010-08-18T12:44:42Z</time>
      </trkpt>
      <trkpt lat="45.46675" lon="4.72444">
        <ele>381</ele>
        <time>2010-08-18T12:44:50Z</time>
      </trkpt>
      <trkpt lat="45.46679" lon="4.72457">
        <ele>381</ele>
        <time>2010-08-18T12:44:58Z</time>
      </trkpt>
      <trkpt lat="45.46683" lon="4.7247">
        <ele>381</ele>
        <time>2010-08-18T12:45:06Z</time>
      </trkpt>
      <trkpt lat="45.46687" lon="4.72482">
        <ele>381</ele>
        <time>2010-08-18T12:45:30Z</time>
      </trkpt>
      <trkpt lat="45.46694" lon="4.72492">
        <ele>375</ele>
        <time>2010-08-18T12:45:40Z</time>
      </trkpt>
      <trkpt lat="45.467" lon="4.72504">
        <ele>375</ele>
        <time>2010-08-18T12:45:48Z</time>
      </trkpt>
      <trkpt lat="45.46707" lon="4.72516">
        <ele>375</ele>
        <time>2010-08-18T12:45:56Z</time>
      </trkpt>
      <trkpt lat="45.46714" lon="4.72526">
        <ele>375</ele>
        <time>2010-08-18T12:46:04Z</time>
      </trkpt>
      <trkpt lat="45.4672" lon="4.72538">
        <ele>375</ele>
        <time>2010-08-18T12:46:13Z</time>
      </trkpt>
      <trkpt lat="45.46727" lon="4.72549">
        <ele>375</ele>
        <time>2010-08-18T12:46:22Z</time>
      </trkpt>
      <trkpt lat="45.46733" lon="4.72559">
        <ele>369</ele>
        <time>2010-08-18T12:46:30Z</time>
      </trkpt>
      <trkpt lat="45.46738" lon="4.7257">
        <ele>369</ele>
        <time>2010-08-18T12:46:39Z</time>
      </trkpt>
      <trkpt lat="45.46744" lon="4.72582">
        <ele>369</ele>
        <time>2010-08-18T12:46:47Z</time>
      </trkpt>
      <trkpt lat="45.4675" lon="4.72595">
        <ele>369</ele>
        <time>2010-08-18T12:46:56Z</time>
      </trkpt>
      <trkpt lat="45.46755" lon="4.72606">
        <ele>362</ele>
        <time>2010-08-18T12:47:06Z</time>
      </trkpt>
      <trkpt lat="45.4676" lon="4.72618">
        <ele>362</ele>
        <time>2010-08-18T12:47:15Z</time>
      </trkpt>
      <trkpt lat="45.46766" lon="4.72629">
        <ele>362</ele>
        <time>2010-08-18T12:47:27Z</time>
      </trkpt>
      <trkpt lat="45.46767" lon="4.72642">
        <ele>362</ele>
        <time>2010-08-18T12:47:35Z</time>
      </trkpt>
      <trkpt lat="45.46769" lon="4.72656">
        <ele>362</ele>
        <time>2010-08-18T12:47:43Z</time>
      </trkpt>
      <trkpt lat="45.46773" lon="4.72668">
        <ele>362</ele>
        <time>2010-08-18T12:47:50Z</time>
      </trkpt>
      <trkpt lat="45.46778" lon="4.7268">
        <ele>362</ele>
        <time>2010-08-18T12:47:58Z</time>
      </trkpt>
      <trkpt lat="45.46783" lon="4.72693">
        <ele>362</ele>
        <time>2010-08-18T12:48:06Z</time>
      </trkpt>
      <trkpt lat="45.46787" lon="4.72706">
        <ele>362</ele>
        <time>2010-08-18T12:48:15Z</time>
      </trkpt>
      <trkpt lat="45.46789" lon="4.7272">
        <ele>362</ele>
        <time>2010-08-18T12:48:24Z</time>
      </trkpt>
      <trkpt lat="45.46792" lon="4.72734">
        <ele>362</ele>
        <time>2010-08-18T12:48:30Z</time>
      </trkpt>
      <trkpt lat="45.46792" lon="4.72747">
        <ele>362</ele>
        <time>2010-08-18T12:48:38Z</time>
      </trkpt>
      <trkpt lat="45.46792" lon="4.72761">
        <ele>362</ele>
        <time>2010-08-18T12:48:46Z</time>
      </trkpt>
      <trkpt lat="45.46793" lon="4.72774">
        <ele>368</ele>
        <time>2010-08-18T12:48:53Z</time>
      </trkpt>
      <trkpt lat="45.46792" lon="4.72788">
        <ele>368</ele>
        <time>2010-08-18T12:49:01Z</time>
      </trkpt>
      <trkpt lat="45.46791" lon="4.72802">
        <ele>368</ele>
        <time>2010-08-18T12:49:09Z</time>
      </trkpt>
      <trkpt lat="45.46793" lon="4.72816">
        <ele>368</ele>
        <time>2010-08-18T12:49:17Z</time>
      </trkpt>
      <trkpt lat="45.46794" lon="4.72829">
        <ele>368</ele>
        <time>2010-08-18T12:49:25Z</time>
      </trkpt>
      <trkpt lat="45.46797" lon="4.72843">
        <ele>368</ele>
        <time>2010-08-18T12:49:33Z</time>
      </trkpt>
      <trkpt lat="45.468" lon="4.72855">
        <ele>368</ele>
        <time>2010-08-18T12:49:41Z</time>
      </trkpt>
      <trkpt lat="45.46804" lon="4.72868">
        <ele>368</ele>
        <time>2010-08-18T12:49:49Z</time>
      </trkpt>
      <trkpt lat="45.46809" lon="4.7288">
        <ele>368</ele>
        <time>2010-08-18T12:49:57Z</time>
      </trkpt>
      <trkpt lat="45.46812" lon="4.72893">
        <ele>368</ele>
        <time>2010-08-18T12:50:05Z</time>
      </trkpt>
      <trkpt lat="45.46817" lon="4.72906">
        <ele>368</ele>
        <time>2010-08-18T12:50:13Z</time>
      </trkpt>
      <trkpt lat="45.46821" lon="4.72919">
        <ele>368</ele>
        <time>2010-08-18T12:50:22Z</time>
      </trkpt>
      <trkpt lat="45.46825" lon="4.72933">
        <ele>368</ele>
        <time>2010-08-18T12:50:30Z</time>
      </trkpt>
      <trkpt lat="45.46827" lon="4.72945">
        <ele>368</ele>
        <time>2010-08-18T12:50:38Z</time>
      </trkpt>
      <trkpt lat="45.4683" lon="4.72958">
        <ele>368</ele>
        <time>2010-08-18T12:50:46Z</time>
      </trkpt>
      <trkpt lat="45.46834" lon="4.7297">
        <ele>368</ele>
        <time>2010-08-18T12:50:55Z</time>
      </trkpt>
      <trkpt lat="45.46838" lon="4.72983">
        <ele>368</ele>
        <time>2010-08-18T12:51:04Z</time>
      </trkpt>
      <trkpt lat="45.46842" lon="4.72996">
        <ele>368</ele>
        <time>2010-08-18T12:51:13Z</time>
      </trkpt>
      <trkpt lat="45.46844" lon="4.73011">
        <ele>368</ele>
        <time>2010-08-18T12:51:22Z</time>
      </trkpt>
      <trkpt lat="45.46846" lon="4.73024">
        <ele>377</ele>
        <time>2010-08-18T12:51:29Z</time>
      </trkpt>
      <trkpt lat="45.46848" lon="4.73038">
        <ele>372</ele>
        <time>2010-08-18T12:51:40Z</time>
      </trkpt>
      <trkpt lat="45.46849" lon="4.73052">
        <ele>372</ele>
        <time>2010-08-18T12:51:48Z</time>
      </trkpt>
      <trkpt lat="45.46853" lon="4.73065">
        <ele>372</ele>
        <time>2010-08-18T12:51:54Z</time>
      </trkpt>
      <trkpt lat="45.46854" lon="4.73079">
        <ele>372</ele>
        <time>2010-08-18T12:52:02Z</time>
      </trkpt>
      <trkpt lat="45.46854" lon="4.73092">
        <ele>372</ele>
        <time>2010-08-18T12:52:09Z</time>
      </trkpt>
      <trkpt lat="45.46856" lon="4.73106">
        <ele>372</ele>
        <time>2010-08-18T12:52:17Z</time>
      </trkpt>
      <trkpt lat="45.46858" lon="4.7312">
        <ele>372</ele>
        <time>2010-08-18T12:52:26Z</time>
      </trkpt>
      <trkpt lat="45.46861" lon="4.73133">
        <ele>372</ele>
        <time>2010-08-18T12:52:33Z</time>
      </trkpt>
      <trkpt lat="45.46862" lon="4.73146">
        <ele>372</ele>
        <time>2010-08-18T12:52:40Z</time>
      </trkpt>
      <trkpt lat="45.46863" lon="4.7316">
        <ele>372</ele>
        <time>2010-08-18T12:52:47Z</time>
      </trkpt>
      <trkpt lat="45.46865" lon="4.73173">
        <ele>372</ele>
        <time>2010-08-18T12:52:55Z</time>
      </trkpt>
      <trkpt lat="45.46868" lon="4.73186">
        <ele>372</ele>
        <time>2010-08-18T12:53:02Z</time>
      </trkpt>
      <trkpt lat="45.4687" lon="4.73199">
        <ele>372</ele>
        <time>2010-08-18T12:53:10Z</time>
      </trkpt>
      <trkpt lat="45.46873" lon="4.73212">
        <ele>372</ele>
        <time>2010-08-18T12:53:17Z</time>
      </trkpt>
      <trkpt lat="45.46875" lon="4.73225">
        <ele>372</ele>
        <time>2010-08-18T12:53:24Z</time>
      </trkpt>
      <trkpt lat="45.46877" lon="4.73239">
        <ele>372</ele>
        <time>2010-08-18T12:53:31Z</time>
      </trkpt>
      <trkpt lat="45.46878" lon="4.73252">
        <ele>372</ele>
        <time>2010-08-18T12:53:39Z</time>
      </trkpt>
      <trkpt lat="45.4688" lon="4.73266">
        <ele>366</ele>
        <time>2010-08-18T12:53:46Z</time>
      </trkpt>
      <trkpt lat="45.46885" lon="4.73278">
        <ele>366</ele>
        <time>2010-08-18T12:53:53Z</time>
      </trkpt>
      <trkpt lat="45.46888" lon="4.73291">
        <ele>366</ele>
        <time>2010-08-18T12:54:00Z</time>
      </trkpt>
      <trkpt lat="45.46891" lon="4.73305">
        <ele>366</ele>
        <time>2010-08-18T12:54:08Z</time>
      </trkpt>
      <trkpt lat="45.46894" lon="4.73318">
        <ele>366</ele>
        <time>2010-08-18T12:54:17Z</time>
      </trkpt>
      <trkpt lat="45.46896" lon="4.73331">
        <ele>366</ele>
        <time>2010-08-18T12:54:39Z</time>
      </trkpt>
      <trkpt lat="45.46899" lon="4.73344">
        <ele>366</ele>
        <time>2010-08-18T12:55:01Z</time>
      </trkpt>
      <trkpt lat="45.46899" lon="4.73357">
        <ele>366</ele>
        <time>2010-08-18T12:55:10Z</time>
      </trkpt>
      <trkpt lat="45.469" lon="4.73372">
        <ele>366</ele>
        <time>2010-08-18T12:55:20Z</time>
      </trkpt>
      <trkpt lat="45.46901" lon="4.73386">
        <ele>366</ele>
        <time>2010-08-18T12:55:28Z</time>
      </trkpt>
      <trkpt lat="45.46902" lon="4.734">
        <ele>366</ele>
        <time>2010-08-18T12:55:35Z</time>
      </trkpt>
      <trkpt lat="45.46903" lon="4.73413">
        <ele>366</ele>
        <time>2010-08-18T12:55:43Z</time>
      </trkpt>
      <trkpt lat="45.46901" lon="4.73427">
        <ele>366</ele>
        <time>2010-08-18T12:55:50Z</time>
      </trkpt>
      <trkpt lat="45.469" lon="4.73441">
        <ele>366</ele>
        <time>2010-08-18T12:55:57Z</time>
      </trkpt>
      <trkpt lat="45.46898" lon="4.73454">
        <ele>360</ele>
        <time>2010-08-18T12:56:04Z</time>
      </trkpt>
      <trkpt lat="45.46897" lon="4.73468">
        <ele>360</ele>
        <time>2010-08-18T12:56:11Z</time>
      </trkpt>
      <trkpt lat="45.46896" lon="4.73481">
        <ele>360</ele>
        <time>2010-08-18T12:56:18Z</time>
      </trkpt>
      <trkpt lat="45.46896" lon="4.73495">
        <ele>360</ele>
        <time>2010-08-18T12:56:25Z</time>
      </trkpt>
      <trkpt lat="45.46895" lon="4.73509">
        <ele>360</ele>
        <time>2010-08-18T12:56:32Z</time>
      </trkpt>
      <trkpt lat="45.46894" lon="4.73524">
        <ele>360</ele>
        <time>2010-08-18T12:56:40Z</time>
      </trkpt>
      <trkpt lat="45.46894" lon="4.73539">
        <ele>360</ele>
        <time>2010-08-18T12:56:47Z</time>
      </trkpt>
      <trkpt lat="45.46892" lon="4.73552">
        <ele>360</ele>
        <time>2010-08-18T12:56:55Z</time>
      </trkpt>
      <trkpt lat="45.46891" lon="4.73567">
        <ele>353</ele>
        <time>2010-08-18T12:57:03Z</time>
      </trkpt>
      <trkpt lat="45.46891" lon="4.73582">
        <ele>353</ele>
        <time>2010-08-18T12:57:12Z</time>
      </trkpt>
      <trkpt lat="45.4689" lon="4.73595">
        <ele>353</ele>
        <time>2010-08-18T12:57:19Z</time>
      </trkpt>
      <trkpt lat="45.4689" lon="4.7361">
        <ele>353</ele>
        <time>2010-08-18T12:57:27Z</time>
      </trkpt>
      <trkpt lat="45.4689" lon="4.73623">
        <ele>353</ele>
        <time>2010-08-18T12:57:36Z</time>
      </trkpt>
      <trkpt lat="45.46889" lon="4.73637">
        <ele>353</ele>
        <time>2010-08-18T12:57:44Z</time>
      </trkpt>
      <trkpt lat="45.46888" lon="4.7365">
        <ele>353</ele>
        <time>2010-08-18T12:57:52Z</time>
      </trkpt>
      <trkpt lat="45.46886" lon="4.73664">
        <ele>347</ele>
        <time>2010-08-18T12:57:59Z</time>
      </trkpt>
      <trkpt lat="45.46887" lon="4.73677">
        <ele>347</ele>
        <time>2010-08-18T12:58:06Z</time>
      </trkpt>
      <trkpt lat="45.46887" lon="4.73691">
        <ele>347</ele>
        <time>2010-08-18T12:58:13Z</time>
      </trkpt>
      <trkpt lat="45.46886" lon="4.73704">
        <ele>354</ele>
        <time>2010-08-18T12:58:22Z</time>
      </trkpt>
      <trkpt lat="45.46884" lon="4.73719">
        <ele>354</ele>
        <time>2010-08-18T12:58:31Z</time>
      </trkpt>
      <trkpt lat="45.4688" lon="4.73732">
        <ele>354</ele>
        <time>2010-08-18T12:58:37Z</time>
      </trkpt>
      <trkpt lat="45.46879" lon="4.73746">
        <ele>354</ele>
        <time>2010-08-18T12:58:45Z</time>
      </trkpt>
      <trkpt lat="45.46876" lon="4.73759">
        <ele>354</ele>
        <time>2010-08-18T12:58:54Z</time>
      </trkpt>
      <trkpt lat="45.46872" lon="4.73772">
        <ele>347</ele>
        <time>2010-08-18T12:59:01Z</time>
      </trkpt>
      <trkpt lat="45.46869" lon="4.73786">
        <ele>347</ele>
        <time>2010-08-18T12:59:09Z</time>
      </trkpt>
      <trkpt lat="45.46864" lon="4.73798">
        <ele>347</ele>
        <time>2010-08-18T12:59:16Z</time>
      </trkpt>
      <trkpt lat="45.46862" lon="4.73812">
        <ele>347</ele>
        <time>2010-08-18T12:59:24Z</time>
      </trkpt>
      <trkpt lat="45.46861" lon="4.73827">
        <ele>347</ele>
        <time>2010-08-18T12:59:31Z</time>
      </trkpt>
      <trkpt lat="45.46861" lon="4.73842">
        <ele>347</ele>
        <time>2010-08-18T12:59:39Z</time>
      </trkpt>
      <trkpt lat="45.46863" lon="4.73855">
        <ele>347</ele>
        <time>2010-08-18T12:59:47Z</time>
      </trkpt>
      <trkpt lat="45.46865" lon="4.7387">
        <ele>347</ele>
        <time>2010-08-18T12:59:54Z</time>
      </trkpt>
      <trkpt lat="45.46865" lon="4.73884">
        <ele>347</ele>
        <time>2010-08-18T13:00:03Z</time>
      </trkpt>
      <trkpt lat="45.46865" lon="4.73897">
        <ele>347</ele>
        <time>2010-08-18T13:00:10Z</time>
      </trkpt>
      <trkpt lat="45.46866" lon="4.73912">
        <ele>347</ele>
        <time>2010-08-18T13:00:16Z</time>
      </trkpt>
      <trkpt lat="45.46865" lon="4.73926">
        <ele>347</ele>
        <time>2010-08-18T13:00:29Z</time>
      </trkpt>
      <trkpt lat="45.46865" lon="4.7394">
        <ele>347</ele>
        <time>2010-08-18T13:00:36Z</time>
      </trkpt>
      <trkpt lat="45.46863" lon="4.73953">
        <ele>347</ele>
        <time>2010-08-18T13:00:43Z</time>
      </trkpt>
      <trkpt lat="45.46861" lon="4.73967">
        <ele>347</ele>
        <time>2010-08-18T13:00:50Z</time>
      </trkpt>
      <trkpt lat="45.46858" lon="4.7398">
        <ele>347</ele>
        <time>2010-08-18T13:00:58Z</time>
      </trkpt>
      <trkpt lat="45.46858" lon="4.73993">
        <ele>347</ele>
        <time>2010-08-18T13:01:06Z</time>
      </trkpt>
      <trkpt lat="45.46857" lon="4.74008">
        <ele>347</ele>
        <time>2010-08-18T13:01:15Z</time>
      </trkpt>
      <trkpt lat="45.46857" lon="4.74021">
        <ele>347</ele>
        <time>2010-08-18T13:01:23Z</time>
      </trkpt>
      <trkpt lat="45.46855" lon="4.74036">
        <ele>341</ele>
        <time>2010-08-18T13:01:37Z</time>
      </trkpt>
      <trkpt lat="45.46853" lon="4.7405">
        <ele>341</ele>
        <time>2010-08-18T13:01:45Z</time>
      </trkpt>
      <trkpt lat="45.46851" lon="4.74063">
        <ele>341</ele>
        <time>2010-08-18T13:01:53Z</time>
      </trkpt>
      <trkpt lat="45.46849" lon="4.74078">
        <ele>335</ele>
        <time>2010-08-18T13:02:02Z</time>
      </trkpt>
      <trkpt lat="45.46849" lon="4.74092">
        <ele>335</ele>
        <time>2010-08-18T13:02:09Z</time>
      </trkpt>
      <trkpt lat="45.46848" lon="4.74107">
        <ele>335</ele>
        <time>2010-08-18T13:02:17Z</time>
      </trkpt>
      <trkpt lat="45.46846" lon="4.7412">
        <ele>335</ele>
        <time>2010-08-18T13:02:24Z</time>
      </trkpt>
      <trkpt lat="45.46843" lon="4.74133">
        <ele>335</ele>
        <time>2010-08-18T13:02:32Z</time>
      </trkpt>
      <trkpt lat="45.46839" lon="4.74146">
        <ele>335</ele>
        <time>2010-08-18T13:02:39Z</time>
      </trkpt>
      <trkpt lat="45.46837" lon="4.74161">
        <ele>335</ele>
        <time>2010-08-18T13:02:48Z</time>
      </trkpt>
      <trkpt lat="45.46834" lon="4.74173">
        <ele>335</ele>
        <time>2010-08-18T13:02:55Z</time>
      </trkpt>
      <trkpt lat="45.4683" lon="4.74186">
        <ele>335</ele>
        <time>2010-08-18T13:03:01Z</time>
      </trkpt>
      <trkpt lat="45.46827" lon="4.74198">
        <ele>330</ele>
        <time>2010-08-18T13:03:08Z</time>
      </trkpt>
      <trkpt lat="45.46824" lon="4.74211">
        <ele>330</ele>
        <time>2010-08-18T13:03:15Z</time>
      </trkpt>
      <trkpt lat="45.46822" lon="4.74224">
        <ele>330</ele>
        <time>2010-08-18T13:03:22Z</time>
      </trkpt>
      <trkpt lat="45.46818" lon="4.74237">
        <ele>330</ele>
        <time>2010-08-18T13:03:29Z</time>
      </trkpt>
      <trkpt lat="45.46816" lon="4.7425">
        <ele>330</ele>
        <time>2010-08-18T13:03:36Z</time>
      </trkpt>
      <trkpt lat="45.46813" lon="4.74263">
        <ele>330</ele>
        <time>2010-08-18T13:03:44Z</time>
      </trkpt>
      <trkpt lat="45.4681" lon="4.74275">
        <ele>330</ele>
        <time>2010-08-18T13:03:52Z</time>
      </trkpt>
      <trkpt lat="45.46806" lon="4.74289">
        <ele>330</ele>
        <time>2010-08-18T13:04:00Z</time>
      </trkpt>
      <trkpt lat="45.46802" lon="4.74302">
        <ele>324</ele>
        <time>2010-08-18T13:04:08Z</time>
      </trkpt>
      <trkpt lat="45.46797" lon="4.74314">
        <ele>324</ele>
        <time>2010-08-18T13:04:15Z</time>
      </trkpt>
      <trkpt lat="45.46793" lon="4.74327">
        <ele>324</ele>
        <time>2010-08-18T13:04:22Z</time>
      </trkpt>
      <trkpt lat="45.46791" lon="4.74339">
        <ele>324</ele>
        <time>2010-08-18T13:04:29Z</time>
      </trkpt>
      <trkpt lat="45.46787" lon="4.74353">
        <ele>324</ele>
        <time>2010-08-18T13:04:37Z</time>
      </trkpt>
      <trkpt lat="45.46784" lon="4.74365">
        <ele>324</ele>
        <time>2010-08-18T13:04:43Z</time>
      </trkpt>
      <trkpt lat="45.46779" lon="4.74378">
        <ele>324</ele>
        <time>2010-08-18T13:04:49Z</time>
      </trkpt>
      <trkpt lat="45.46774" lon="4.74391">
        <ele>324</ele>
        <time>2010-08-18T13:04:57Z</time>
      </trkpt>
      <trkpt lat="45.46772" lon="4.74405">
        <ele>324</ele>
        <time>2010-08-18T13:05:03Z</time>
      </trkpt>
      <trkpt lat="45.4677" lon="4.74418">
        <ele>324</ele>
        <time>2010-08-18T13:05:10Z</time>
      </trkpt>
      <trkpt lat="45.46769" lon="4.74432">
        <ele>324</ele>
        <time>2010-08-18T13:05:18Z</time>
      </trkpt>
      <trkpt lat="45.46765" lon="4.74444">
        <ele>324</ele>
        <time>2010-08-18T13:05:25Z</time>
      </trkpt>
      <trkpt lat="45.46761" lon="4.74456">
        <ele>324</ele>
        <time>2010-08-18T13:05:31Z</time>
      </trkpt>
      <trkpt lat="45.46758" lon="4.7447">
        <ele>324</ele>
        <time>2010-08-18T13:05:39Z</time>
      </trkpt>
      <trkpt lat="45.46756" lon="4.74485">
        <ele>324</ele>
        <time>2010-08-18T13:05:46Z</time>
      </trkpt>
      <trkpt lat="45.46753" lon="4.74498">
        <ele>324</ele>
        <time>2010-08-18T13:05:53Z</time>
      </trkpt>
      <trkpt lat="45.46752" lon="4.74512">
        <ele>324</ele>
        <time>2010-08-18T13:06:00Z</time>
      </trkpt>
      <trkpt lat="45.46751" lon="4.74525">
        <ele>324</ele>
        <time>2010-08-18T13:06:09Z</time>
      </trkpt>
      <trkpt lat="45.4675" lon="4.74539">
        <ele>324</ele>
        <time>2010-08-18T13:06:16Z</time>
      </trkpt>
      <trkpt lat="45.46751" lon="4.74552">
        <ele>324</ele>
        <time>2010-08-18T13:06:23Z</time>
      </trkpt>
      <trkpt lat="45.46755" lon="4.74566">
        <ele>324</ele>
        <time>2010-08-18T13:06:30Z</time>
      </trkpt>
      <trkpt lat="45.46757" lon="4.7458">
        <ele>324</ele>
        <time>2010-08-18T13:06:37Z</time>
      </trkpt>
      <trkpt lat="45.46762" lon="4.74594">
        <ele>324</ele>
        <time>2010-08-18T13:06:44Z</time>
      </trkpt>
      <trkpt lat="45.46765" lon="4.74607">
        <ele>330</ele>
        <time>2010-08-18T13:06:53Z</time>
      </trkpt>
      <trkpt lat="45.46766" lon="4.7462">
        <ele>330</ele>
        <time>2010-08-18T13:07:00Z</time>
      </trkpt>
      <trkpt lat="45.46767" lon="4.74636">
        <ele>330</ele>
        <time>2010-08-18T13:07:07Z</time>
      </trkpt>
      <trkpt lat="45.46767" lon="4.74649">
        <ele>324</ele>
        <time>2010-08-18T13:07:14Z</time>
      </trkpt>
      <trkpt lat="45.46763" lon="4.74662">
        <ele>324</ele>
        <time>2010-08-18T13:07:21Z</time>
      </trkpt>
      <trkpt lat="45.46761" lon="4.74676">
        <ele>324</ele>
        <time>2010-08-18T13:07:28Z</time>
      </trkpt>
      <trkpt lat="45.46758" lon="4.74689">
        <ele>324</ele>
        <time>2010-08-18T13:07:37Z</time>
      </trkpt>
      <trkpt lat="45.46755" lon="4.74702">
        <ele>324</ele>
        <time>2010-08-18T13:07:46Z</time>
      </trkpt>
      <trkpt lat="45.46747" lon="4.74708">
        <ele>324</ele>
        <time>2010-08-18T13:07:53Z</time>
      </trkpt>
      <trkpt lat="45.46737" lon="4.74709">
        <ele>324</ele>
        <time>2010-08-18T13:08:02Z</time>
      </trkpt>
      <trkpt lat="45.46727" lon="4.74711">
        <ele>324</ele>
        <time>2010-08-18T13:08:11Z</time>
      </trkpt>
      <trkpt lat="45.46717" lon="4.74712">
        <ele>324</ele>
        <time>2010-08-18T13:08:17Z</time>
      </trkpt>
      <trkpt lat="45.46708" lon="4.74714">
        <ele>324</ele>
        <time>2010-08-18T13:08:24Z</time>
      </trkpt>
      <trkpt lat="45.46698" lon="4.74716">
        <ele>324</ele>
        <time>2010-08-18T13:08:32Z</time>
      </trkpt>
      <trkpt lat="45.46689" lon="4.74718">
        <ele>324</ele>
        <time>2010-08-18T13:08:41Z</time>
      </trkpt>
      <trkpt lat="45.46679" lon="4.7472">
        <ele>324</ele>
        <time>2010-08-18T13:08:48Z</time>
      </trkpt>
      <trkpt lat="45.46669" lon="4.74724">
        <ele>324</ele>
        <time>2010-08-18T13:08:56Z</time>
      </trkpt>
      <trkpt lat="45.4666" lon="4.7472">
        <ele>324</ele>
        <time>2010-08-18T13:09:07Z</time>
      </trkpt>
      <trkpt lat="45.46651" lon="4.74715">
        <ele>324</ele>
        <time>2010-08-18T13:09:15Z</time>
      </trkpt>
      <trkpt lat="45.46641" lon="4.74717">
        <ele>324</ele>
        <time>2010-08-18T13:09:24Z</time>
      </trkpt>
      <trkpt lat="45.46631" lon="4.7472">
        <ele>318</ele>
        <time>2010-08-18T13:09:40Z</time>
      </trkpt>
      <trkpt lat="45.46621" lon="4.74721">
        <ele>318</ele>
        <time>2010-08-18T13:10:25Z</time>
      </trkpt>
      <trkpt lat="45.46613" lon="4.74728">
        <ele>318</ele>
        <time>2010-08-18T13:10:34Z</time>
      </trkpt>
      <trkpt lat="45.46604" lon="4.74733">
        <ele>318</ele>
        <time>2010-08-18T13:10:43Z</time>
      </trkpt>
      <trkpt lat="45.46595" lon="4.74735">
        <ele>318</ele>
        <time>2010-08-18T13:10:51Z</time>
      </trkpt>
      <trkpt lat="45.46585" lon="4.74738">
        <ele>313</ele>
        <time>2010-08-18T13:10:58Z</time>
      </trkpt>
      <trkpt lat="45.46576" lon="4.74744">
        <ele>313</ele>
        <time>2010-08-18T13:11:07Z</time>
      </trkpt>
      <trkpt lat="45.46566" lon="4.74748">
        <ele>313</ele>
        <time>2010-08-18T13:11:17Z</time>
      </trkpt>
      <trkpt lat="45.46557" lon="4.74751">
        <ele>313</ele>
        <time>2010-08-18T13:11:26Z</time>
      </trkpt>
      <trkpt lat="45.46547" lon="4.74753">
        <ele>313</ele>
        <time>2010-08-18T13:11:33Z</time>
      </trkpt>
      <trkpt lat="45.46538" lon="4.74757">
        <ele>313</ele>
        <time>2010-08-18T13:11:42Z</time>
      </trkpt>
      <trkpt lat="45.4653" lon="4.74763">
        <ele>305</ele>
        <time>2010-08-18T13:12:39Z</time>
      </trkpt>
      <trkpt lat="45.46528" lon="4.74749">
        <ele>305</ele>
        <time>2010-08-18T13:12:56Z</time>
      </trkpt>
      <trkpt lat="45.46531" lon="4.74734">
        <ele>305</ele>
        <time>2010-08-18T13:13:08Z</time>
      </trkpt>
      <trkpt lat="45.46534" lon="4.74721">
        <ele>305</ele>
        <time>2010-08-18T13:13:17Z</time>
      </trkpt>
      <trkpt lat="45.46538" lon="4.74709">
        <ele>305</ele>
        <time>2010-08-18T13:13:48Z</time>
      </trkpt>
      <trkpt lat="45.46537" lon="4.74696">
        <ele>305</ele>
        <time>2010-08-18T13:13:56Z</time>
      </trkpt>
      <trkpt lat="45.46541" lon="4.74683">
        <ele>305</ele>
        <time>2010-08-18T13:14:08Z</time>
      </trkpt>
      <trkpt lat="45.46543" lon="4.7467">
        <ele>305</ele>
        <time>2010-08-18T13:14:17Z</time>
      </trkpt>
      <trkpt lat="45.46543" lon="4.74655">
        <ele>305</ele>
        <time>2010-08-18T13:14:26Z</time>
      </trkpt>
      <trkpt lat="45.46541" lon="4.74642">
        <ele>305</ele>
        <time>2010-08-18T13:14:34Z</time>
      </trkpt>
      <trkpt lat="45.46537" lon="4.74629">
        <ele>297</ele>
        <time>2010-08-18T13:14:51Z</time>
      </trkpt>
      <trkpt lat="45.46528" lon="4.74625">
        <ele>297</ele>
        <time>2010-08-18T13:14:59Z</time>
      </trkpt>
      <trkpt lat="45.46519" lon="4.74623">
        <ele>303</ele>
        <time>2010-08-18T13:16:05Z</time>
      </trkpt>
      <trkpt lat="45.4651" lon="4.74628">
        <ele>303</ele>
        <time>2010-08-18T13:16:16Z</time>
      </trkpt>
      <trkpt lat="45.46501" lon="4.74627">
        <ele>303</ele>
        <time>2010-08-18T13:16:25Z</time>
      </trkpt>
      <trkpt lat="45.46492" lon="4.7463">
        <ele>303</ele>
        <time>2010-08-18T13:16:33Z</time>
      </trkpt>
      <trkpt lat="45.46484" lon="4.74638">
        <ele>311</ele>
        <time>2010-08-18T13:16:43Z</time>
      </trkpt>
      <trkpt lat="45.46477" lon="4.74649">
        <ele>311</ele>
        <time>2010-08-18T13:16:51Z</time>
      </trkpt>
      <trkpt lat="45.46473" lon="4.74662">
        <ele>311</ele>
        <time>2010-08-18T13:17:01Z</time>
      </trkpt>
      <trkpt lat="45.46466" lon="4.74672">
        <ele>311</ele>
        <time>2010-08-18T13:17:08Z</time>
      </trkpt>
      <trkpt lat="45.46458" lon="4.74681">
        <ele>311</ele>
        <time>2010-08-18T13:17:16Z</time>
      </trkpt>
      <trkpt lat="45.46449" lon="4.74689">
        <ele>311</ele>
        <time>2010-08-18T13:17:25Z</time>
      </trkpt>
      <trkpt lat="45.4644" lon="4.74696">
        <ele>311</ele>
        <time>2010-08-18T13:17:32Z</time>
      </trkpt>
      <trkpt lat="45.46432" lon="4.74702">
        <ele>311</ele>
        <time>2010-08-18T13:17:38Z</time>
      </trkpt>
      <trkpt lat="45.46423" lon="4.74708">
        <ele>311</ele>
        <time>2010-08-18T13:17:46Z</time>
      </trkpt>
      <trkpt lat="45.46414" lon="4.74715">
        <ele>311</ele>
        <time>2010-08-18T13:17:54Z</time>
      </trkpt>
      <trkpt lat="45.46404" lon="4.7472">
        <ele>311</ele>
        <time>2010-08-18T13:18:02Z</time>
      </trkpt>
      <trkpt lat="45.46396" lon="4.74725">
        <ele>311</ele>
        <time>2010-08-18T13:18:09Z</time>
      </trkpt>
      <trkpt lat="45.46386" lon="4.7473">
        <ele>311</ele>
        <time>2010-08-18T13:18:17Z</time>
      </trkpt>
      <trkpt lat="45.46377" lon="4.74735">
        <ele>311</ele>
        <time>2010-08-18T13:18:26Z</time>
      </trkpt>
      <trkpt lat="45.46369" lon="4.74744">
        <ele>311</ele>
        <time>2010-08-18T13:18:34Z</time>
      </trkpt>
      <trkpt lat="45.46361" lon="4.74752">
        <ele>311</ele>
        <time>2010-08-18T13:18:41Z</time>
      </trkpt>
      <trkpt lat="45.46354" lon="4.74761">
        <ele>311</ele>
        <time>2010-08-18T13:18:48Z</time>
      </trkpt>
      <trkpt lat="45.46345" lon="4.7477">
        <ele>311</ele>
        <time>2010-08-18T13:18:58Z</time>
      </trkpt>
      <trkpt lat="45.46337" lon="4.74779">
        <ele>311</ele>
        <time>2010-08-18T13:19:06Z</time>
      </trkpt>
      <trkpt lat="45.46329" lon="4.74788">
        <ele>311</ele>
        <time>2010-08-18T13:19:14Z</time>
      </trkpt>
      <trkpt lat="45.4632" lon="4.74793">
        <ele>311</ele>
        <time>2010-08-18T13:19:19Z</time>
      </trkpt>
      <trkpt lat="45.46312" lon="4.74803">
        <ele>311</ele>
        <time>2010-08-18T13:19:29Z</time>
      </trkpt>
      <trkpt lat="45.46304" lon="4.7481">
        <ele>311</ele>
        <time>2010-08-18T13:19:39Z</time>
      </trkpt>
      <trkpt lat="45.46296" lon="4.74819">
        <ele>316</ele>
        <time>2010-08-18T13:19:45Z</time>
      </trkpt>
      <trkpt lat="45.46289" lon="4.74827">
        <ele>316</ele>
        <time>2010-08-18T13:19:51Z</time>
      </trkpt>
      <trkpt lat="45.46283" lon="4.74838">
        <ele>316</ele>
        <time>2010-08-18T13:19:59Z</time>
      </trkpt>
      <trkpt lat="45.46279" lon="4.7485">
        <ele>316</ele>
        <time>2010-08-18T13:20:06Z</time>
      </trkpt>
      <trkpt lat="45.46274" lon="4.74861">
        <ele>316</ele>
        <time>2010-08-18T13:20:12Z</time>
      </trkpt>
      <trkpt lat="45.46267" lon="4.74871">
        <ele>316</ele>
        <time>2010-08-18T13:20:18Z</time>
      </trkpt>
      <trkpt lat="45.46257" lon="4.74872">
        <ele>309</ele>
        <time>2010-08-18T13:20:32Z</time>
      </trkpt>
      <trkpt lat="45.46248" lon="4.74871">
        <ele>309</ele>
        <time>2010-08-18T13:21:07Z</time>
      </trkpt>
      <trkpt lat="45.4624" lon="4.74879">
        <ele>309</ele>
        <time>2010-08-18T13:21:54Z</time>
      </trkpt>
      <trkpt lat="45.46238" lon="4.74893">
        <ele>309</ele>
        <time>2010-08-18T13:22:02Z</time>
      </trkpt>
      <trkpt lat="45.46233" lon="4.74906">
        <ele>309</ele>
        <time>2010-08-18T13:22:11Z</time>
      </trkpt>
      <trkpt lat="45.46227" lon="4.74918">
        <ele>309</ele>
        <time>2010-08-18T13:22:18Z</time>
      </trkpt>
      <trkpt lat="45.46223" lon="4.74931">
        <ele>309</ele>
        <time>2010-08-18T13:22:26Z</time>
      </trkpt>
      <trkpt lat="45.46218" lon="4.74944">
        <ele>300</ele>
        <time>2010-08-18T13:22:35Z</time>
      </trkpt>
      <trkpt lat="45.46213" lon="4.74956">
        <ele>300</ele>
        <time>2010-08-18T13:22:57Z</time>
      </trkpt>
      <trkpt lat="45.46208" lon="4.74968">
        <ele>300</ele>
        <time>2010-08-18T13:23:05Z</time>
      </trkpt>
      <trkpt lat="45.46203" lon="4.7498">
        <ele>300</ele>
        <time>2010-08-18T13:23:13Z</time>
      </trkpt>
      <trkpt lat="45.46196" lon="4.74991">
        <ele>300</ele>
        <time>2010-08-18T13:23:21Z</time>
      </trkpt>
      <trkpt lat="45.46189" lon="4.75001">
        <ele>294</ele>
        <time>2010-08-18T13:23:31Z</time>
      </trkpt>
      <trkpt lat="45.46183" lon="4.75011">
        <ele>294</ele>
        <time>2010-08-18T13:23:39Z</time>
      </trkpt>
      <trkpt lat="45.46183" lon="4.75025">
        <ele>287</ele>
        <time>2010-08-18T13:24:40Z</time>
      </trkpt>
      <trkpt lat="45.46174" lon="4.75029">
        <ele>287</ele>
        <time>2010-08-18T13:24:55Z</time>
      </trkpt>
      <trkpt lat="45.46165" lon="4.75036">
        <ele>287</ele>
        <time>2010-08-18T13:25:03Z</time>
      </trkpt>
      <trkpt lat="45.46156" lon="4.75038">
        <ele>275</ele>
        <time>2010-08-18T13:25:44Z</time>
      </trkpt>
      <trkpt lat="45.4615" lon="4.75049">
        <ele>275</ele>
        <time>2010-08-18T13:26:08Z</time>
      </trkpt>
      <trkpt lat="45.46143" lon="4.7506">
        <ele>275</ele>
        <time>2010-08-18T13:26:19Z</time>
      </trkpt>
      <trkpt lat="45.46136" lon="4.75068">
        <ele>275</ele>
        <time>2010-08-18T13:26:30Z</time>
      </trkpt>
      <trkpt lat="45.46129" lon="4.75077">
        <ele>282</ele>
        <time>2010-08-18T13:27:04Z</time>
      </trkpt>
      <trkpt lat="45.46125" lon="4.75089">
        <ele>282</ele>
        <time>2010-08-18T13:27:23Z</time>
      </trkpt>
      <trkpt lat="45.46129" lon="4.75102">
        <ele>282</ele>
        <time>2010-08-18T13:27:40Z</time>
      </trkpt>
      <trkpt lat="45.46129" lon="4.75115">
        <ele>273</ele>
        <time>2010-08-18T13:27:51Z</time>
      </trkpt>
      <trkpt lat="45.46133" lon="4.75128">
        <ele>278</ele>
        <time>2010-08-18T13:28:00Z</time>
      </trkpt>
      <trkpt lat="45.46134" lon="4.75142">
        <ele>278</ele>
        <time>2010-08-18T13:28:09Z</time>
      </trkpt>
      <trkpt lat="45.46136" lon="4.75156">
        <ele>278</ele>
        <time>2010-08-18T13:28:17Z</time>
      </trkpt>
      <trkpt lat="45.46138" lon="4.75169">
        <ele>278</ele>
        <time>2010-08-18T13:28:26Z</time>
      </trkpt>
      <trkpt lat="45.46137" lon="4.75183">
        <ele>269</ele>
        <time>2010-08-18T13:28:48Z</time>
      </trkpt>
      <trkpt lat="45.46138" lon="4.75197">
        <ele>269</ele>
        <time>2010-08-18T13:29:10Z</time>
      </trkpt>
      <trkpt lat="45.46136" lon="4.75212">
        <ele>269</ele>
        <time>2010-08-18T13:29:25Z</time>
      </trkpt>
      <trkpt lat="45.46134" lon="4.75224">
        <ele>276</ele>
        <time>2010-08-18T13:29:32Z</time>
      </trkpt>
      <trkpt lat="45.4613" lon="4.75238">
        <ele>276</ele>
        <time>2010-08-18T13:29:42Z</time>
      </trkpt>
      <trkpt lat="45.46126" lon="4.7525">
        <ele>276</ele>
        <time>2010-08-18T13:29:53Z</time>
      </trkpt>
      <trkpt lat="45.46119" lon="4.75259">
        <ele>269</ele>
        <time>2010-08-18T13:30:01Z</time>
      </trkpt>
      <trkpt lat="45.46115" lon="4.75272">
        <ele>269</ele>
        <time>2010-08-18T13:30:09Z</time>
      </trkpt>
      <trkpt lat="45.4611" lon="4.75283">
        <ele>269</ele>
        <time>2010-08-18T13:30:23Z</time>
      </trkpt>
      <trkpt lat="45.46107" lon="4.75296">
        <ele>262</ele>
        <time>2010-08-18T13:31:01Z</time>
      </trkpt>
      <trkpt lat="45.46105" lon="4.75309">
        <ele>262</ele>
        <time>2010-08-18T13:31:12Z</time>
      </trkpt>
      <trkpt lat="45.46104" lon="4.75323">
        <ele>262</ele>
        <time>2010-08-18T13:31:23Z</time>
      </trkpt>
      <trkpt lat="45.46101" lon="4.75337">
        <ele>262</ele>
        <time>2010-08-18T13:31:35Z</time>
      </trkpt>
      <trkpt lat="45.46095" lon="4.75348">
        <ele>262</ele>
        <time>2010-08-18T13:31:44Z</time>
      </trkpt>
      <trkpt lat="45.46091" lon="4.75361">
        <ele>262</ele>
        <time>2010-08-18T13:31:52Z</time>
      </trkpt>
      <trkpt lat="45.46086" lon="4.75373">
        <ele>262</ele>
        <time>2010-08-18T13:32:01Z</time>
      </trkpt>
      <trkpt lat="45.46077" lon="4.75379">
        <ele>257</ele>
        <time>2010-08-18T13:32:12Z</time>
      </trkpt>
      <trkpt lat="45.46073" lon="4.7539">
        <ele>257</ele>
        <time>2010-08-18T13:32:20Z</time>
      </trkpt>
      <trkpt lat="45.46066" lon="4.754">
        <ele>248</ele>
        <time>2010-08-18T13:32:33Z</time>
      </trkpt>
      <trkpt lat="45.46057" lon="4.7541">
        <ele>248</ele>
        <time>2010-08-18T13:32:45Z</time>
      </trkpt>
      <trkpt lat="45.46051" lon="4.75422">
        <ele>248</ele>
        <time>2010-08-18T13:32:54Z</time>
      </trkpt>
      <trkpt lat="45.46049" lon="4.75435">
        <ele>255</ele>
        <time>2010-08-18T13:33:01Z</time>
      </trkpt>
      <trkpt lat="45.46045" lon="4.75448">
        <ele>255</ele>
        <time>2010-08-18T13:33:08Z</time>
      </trkpt>
      <trkpt lat="45.46042" lon="4.7546">
        <ele>246</ele>
        <time>2010-08-18T13:33:17Z</time>
      </trkpt>
      <trkpt lat="45.4604" lon="4.75474">
        <ele>246</ele>
        <time>2010-08-18T13:33:27Z</time>
      </trkpt>
      <trkpt lat="45.4604" lon="4.75487">
        <ele>246</ele>
        <time>2010-08-18T13:33:36Z</time>
      </trkpt>
      <trkpt lat="45.46039" lon="4.75501">
        <ele>246</ele>
        <time>2010-08-18T13:33:46Z</time>
      </trkpt>
      <trkpt lat="45.46037" lon="4.75515">
        <ele>246</ele>
        <time>2010-08-18T13:33:53Z</time>
      </trkpt>
      <trkpt lat="45.46035" lon="4.75528">
        <ele>241</ele>
        <time>2010-08-18T13:34:01Z</time>
      </trkpt>
      <trkpt lat="45.46033" lon="4.75541">
        <ele>241</ele>
        <time>2010-08-18T13:34:10Z</time>
      </trkpt>
      <trkpt lat="45.46034" lon="4.75556">
        <ele>241</ele>
        <time>2010-08-18T13:34:20Z</time>
      </trkpt>
      <trkpt lat="45.46031" lon="4.75568">
        <ele>241</ele>
        <time>2010-08-18T13:34:28Z</time>
      </trkpt>
      <trkpt lat="45.46037" lon="4.7558">
        <ele>241</ele>
        <time>2010-08-18T13:34:38Z</time>
      </trkpt>
      <trkpt lat="45.46037" lon="4.75593">
        <ele>236</ele>
        <time>2010-08-18T13:34:50Z</time>
      </trkpt>
      <trkpt lat="45.46035" lon="4.75607">
        <ele>227</ele>
        <time>2010-08-18T13:35:00Z</time>
      </trkpt>
      <trkpt lat="45.4603" lon="4.75618">
        <ele>227</ele>
        <time>2010-08-18T13:35:12Z</time>
      </trkpt>
      <trkpt lat="45.46032" lon="4.75631">
        <ele>219</ele>
        <time>2010-08-18T13:35:46Z</time>
      </trkpt>
      <trkpt lat="45.4603" lon="4.75645">
        <ele>219</ele>
        <time>2010-08-18T13:36:00Z</time>
      </trkpt>
      <trkpt lat="45.46031" lon="4.7566">
        <ele>225</ele>
        <time>2010-08-18T13:36:13Z</time>
      </trkpt>
      <trkpt lat="45.46031" lon="4.75673">
        <ele>214</ele>
        <time>2010-08-18T13:36:19Z</time>
      </trkpt>
      <trkpt lat="45.46034" lon="4.75686">
        <ele>214</ele>
        <time>2010-08-18T13:36:26Z</time>
      </trkpt>
      <trkpt lat="45.46035" lon="4.75699">
        <ele>214</ele>
        <time>2010-08-18T13:36:44Z</time>
      </trkpt>
      <trkpt lat="45.46042" lon="4.7571">
        <ele>214</ele>
        <time>2010-08-18T13:36:57Z</time>
      </trkpt>
      <trkpt lat="45.4605" lon="4.75717">
        <ele>221</ele>
        <time>2010-08-18T13:37:06Z</time>
      </trkpt>
      <trkpt lat="45.46055" lon="4.7573">
        <ele>221</ele>
        <time>2010-08-18T13:37:19Z</time>
      </trkpt>
      <trkpt lat="45.46059" lon="4.75742">
        <ele>221</ele>
        <time>2010-08-18T13:37:29Z</time>
      </trkpt>
      <trkpt lat="45.46062" lon="4.75757">
        <ele>197</ele>
        <time>2010-08-18T13:38:07Z</time>
      </trkpt>
      <trkpt lat="45.46062" lon="4.7577">
        <ele>205</ele>
        <time>2010-08-18T13:38:21Z</time>
      </trkpt>
      <trkpt lat="45.46067" lon="4.75758">
        <ele>196</ele>
        <time>2010-08-18T13:38:57Z</time>
      </trkpt>
      <trkpt lat="45.46068" lon="4.75744">
        <ele>196</ele>
        <time>2010-08-18T13:39:14Z</time>
      </trkpt>
      <trkpt lat="45.46066" lon="4.75732">
        <ele>196</ele>
        <time>2010-08-18T13:39:23Z</time>
      </trkpt>
      <trkpt lat="45.46064" lon="4.75718">
        <ele>206</ele>
        <time>2010-08-18T13:39:35Z</time>
      </trkpt>
      <trkpt lat="45.46067" lon="4.75706">
        <ele>214</ele>
        <time>2010-08-18T13:39:43Z</time>
      </trkpt>
      <trkpt lat="45.46074" lon="4.75694">
        <ele>214</ele>
        <time>2010-08-18T13:39:49Z</time>
      </trkpt>
      <trkpt lat="45.46071" lon="4.7568">
        <ele>214</ele>
        <time>2010-08-18T13:39:59Z</time>
      </trkpt>
      <trkpt lat="45.46064" lon="4.75669">
        <ele>200</ele>
        <time>2010-08-18T13:40:20Z</time>
      </trkpt>
      <trkpt lat="45.46062" lon="4.75683">
        <ele>193</ele>
        <time>2010-08-18T13:40:44Z</time>
      </trkpt>
      <trkpt lat="45.46064" lon="4.75697">
        <ele>193</ele>
        <time>2010-08-18T13:40:59Z</time>
      </trkpt>
      <trkpt lat="45.46071" lon="4.75707">
        <ele>193</ele>
        <time>2010-08-18T13:41:08Z</time>
      </trkpt>
      <trkpt lat="45.4608" lon="4.75715">
        <ele>193</ele>
        <time>2010-08-18T13:41:16Z</time>
      </trkpt>
      <trkpt lat="45.46086" lon="4.75724">
        <ele>193</ele>
        <time>2010-08-18T13:41:24Z</time>
      </trkpt>
      <trkpt lat="45.46092" lon="4.75736">
        <ele>193</ele>
        <time>2010-08-18T13:41:32Z</time>
      </trkpt>
      <trkpt lat="45.46095" lon="4.7575">
        <ele>181</ele>
        <time>2010-08-18T13:41:43Z</time>
      </trkpt>
      <trkpt lat="45.46096" lon="4.75764">
        <ele>181</ele>
        <time>2010-08-18T13:41:55Z</time>
      </trkpt>
      <trkpt lat="45.46093" lon="4.75779">
        <ele>175</ele>
        <time>2010-08-18T13:42:06Z</time>
      </trkpt>
      <trkpt lat="45.46095" lon="4.75793">
        <ele>175</ele>
        <time>2010-08-18T13:42:15Z</time>
      </trkpt>
      <trkpt lat="45.46102" lon="4.75804">
        <ele>175</ele>
        <time>2010-08-18T13:42:26Z</time>
      </trkpt>
      <trkpt lat="45.46096" lon="4.75815">
        <ele>175</ele>
        <time>2010-08-18T13:42:33Z</time>
      </trkpt>
      <trkpt lat="45.46095" lon="4.75829">
        <ele>184</ele>
        <time>2010-08-18T13:42:48Z</time>
      </trkpt>
      <trkpt lat="45.46093" lon="4.75842">
        <ele>184</ele>
        <time>2010-08-18T13:42:59Z</time>
      </trkpt>
      <trkpt lat="45.4609" lon="4.75857">
        <ele>184</ele>
        <time>2010-08-18T13:43:09Z</time>
      </trkpt>
      <trkpt lat="45.46093" lon="4.75869">
        <ele>173</ele>
        <time>2010-08-18T13:43:22Z</time>
      </trkpt>
      <trkpt lat="45.46093" lon="4.75883">
        <ele>173</ele>
        <time>2010-08-18T13:43:28Z</time>
      </trkpt>
      <trkpt lat="45.46085" lon="4.75893">
        <ele>173</ele>
        <time>2010-08-18T13:43:41Z</time>
      </trkpt>
      <trkpt lat="45.46078" lon="4.75902">
        <ele>180</ele>
        <time>2010-08-18T13:43:49Z</time>
      </trkpt>
      <trkpt lat="45.46069" lon="4.7591">
        <ele>180</ele>
        <time>2010-08-18T13:43:57Z</time>
      </trkpt>
      <trkpt lat="45.4606" lon="4.7591">
        <ele>180</ele>
        <time>2010-08-18T13:44:05Z</time>
      </trkpt>
      <trkpt lat="45.4605" lon="4.75909">
        <ele>180</ele>
        <time>2010-08-18T13:44:12Z</time>
      </trkpt>
      <trkpt lat="45.46039" lon="4.75909">
        <ele>187</ele>
        <time>2010-08-18T13:44:21Z</time>
      </trkpt>
      <trkpt lat="45.4603" lon="4.75915">
        <ele>178</ele>
        <time>2010-08-18T13:44:31Z</time>
      </trkpt>
      <trkpt lat="45.46023" lon="4.75923">
        <ele>178</ele>
        <time>2010-08-18T13:44:40Z</time>
      </trkpt>
      <trkpt lat="45.46015" lon="4.75932">
        <ele>170</ele>
        <time>2010-08-18T13:44:48Z</time>
      </trkpt>
      <trkpt lat="45.46006" lon="4.75936">
        <ele>160</ele>
        <time>2010-08-18T13:45:01Z</time>
      </trkpt>
      <trkpt lat="45.45996" lon="4.7594">
        <ele>160</ele>
        <time>2010-08-18T13:45:25Z</time>
      </trkpt>
      <trkpt lat="45.4599" lon="4.75951">
        <ele>153</ele>
        <time>2010-08-18T13:45:34Z</time>
      </trkpt>
      <trkpt lat="45.4598" lon="4.75955">
        <ele>153</ele>
        <time>2010-08-18T13:45:41Z</time>
      </trkpt>
      <trkpt lat="45.45969" lon="4.75955">
        <ele>163</ele>
        <time>2010-08-18T13:45:55Z</time>
      </trkpt>
      <trkpt lat="45.45961" lon="4.75945">
        <ele>163</ele>
        <time>2010-08-18T13:46:05Z</time>
      </trkpt>
      <trkpt lat="45.45952" lon="4.75939">
        <ele>169</ele>
        <time>2010-08-18T13:46:11Z</time>
      </trkpt>
      <trkpt lat="45.45946" lon="4.75927">
        <ele>161</ele>
        <time>2010-08-18T13:46:17Z</time>
      </trkpt>
      <trkpt lat="45.45938" lon="4.7592">
        <ele>161</ele>
        <time>2010-08-18T13:46:22Z</time>
      </trkpt>
      <trkpt lat="45.4593" lon="4.75914">
        <ele>154</ele>
        <time>2010-08-18T13:46:29Z</time>
      </trkpt>
      <trkpt lat="45.45921" lon="4.75908">
        <ele>154</ele>
        <time>2010-08-18T13:46:37Z</time>
      </trkpt>
      <trkpt lat="45.45913" lon="4.75901">
        <ele>154</ele>
        <time>2010-08-18T13:46:42Z</time>
      </trkpt>
      <trkpt lat="45.45904" lon="4.75894">
        <ele>154</ele>
        <time>2010-08-18T13:46:50Z</time>
      </trkpt>
      <trkpt lat="45.45895" lon="4.75895">
        <ele>154</ele>
        <time>2010-08-18T13:47:01Z</time>
      </trkpt>
      <trkpt lat="45.45885" lon="4.75899">
        <ele>154</ele>
        <time>2010-08-18T13:47:09Z</time>
      </trkpt>
      <trkpt lat="45.45874" lon="4.75892">
        <ele>154</ele>
        <time>2010-08-18T13:47:16Z</time>
      </trkpt>
      <trkpt lat="45.45868" lon="4.75901">
        <ele>147</ele>
        <time>2010-08-18T13:47:25Z</time>
      </trkpt>
      <trkpt lat="45.45861" lon="4.75911">
        <ele>147</ele>
        <time>2010-08-18T13:47:35Z</time>
      </trkpt>
      <trkpt lat="45.45855" lon="4.75921">
        <ele>147</ele>
        <time>2010-08-18T13:47:43Z</time>
      </trkpt>
      <trkpt lat="45.45849" lon="4.75933">
        <ele>147</ele>
        <time>2010-08-18T13:47:51Z</time>
      </trkpt>
      <trkpt lat="45.45842" lon="4.75945">
        <ele>147</ele>
        <time>2010-08-18T13:48:00Z</time>
      </trkpt>
      <trkpt lat="45.45836" lon="4.75957">
        <ele>147</ele>
        <time>2010-08-18T13:48:08Z</time>
      </trkpt>
      <trkpt lat="45.4583" lon="4.75968">
        <ele>147</ele>
        <time>2010-08-18T13:48:24Z</time>
      </trkpt>
      <trkpt lat="45.45824" lon="4.7598">
        <ele>147</ele>
        <time>2010-08-18T13:48:33Z</time>
      </trkpt>
      <trkpt lat="45.45813" lon="4.7598">
        <ele>156</ele>
        <time>2010-08-18T13:48:49Z</time>
      </trkpt>
      <trkpt lat="45.45805" lon="4.75987">
        <ele>156</ele>
        <time>2010-08-18T13:48:59Z</time>
      </trkpt>
      <trkpt lat="45.45792" lon="4.75983">
        <ele>171</ele>
        <time>2010-08-18T13:49:09Z</time>
      </trkpt>
      <trkpt lat="45.45786" lon="4.75972">
        <ele>178</ele>
        <time>2010-08-18T13:49:15Z</time>
      </trkpt>
      <trkpt lat="45.45774" lon="4.75972">
        <ele>178</ele>
        <time>2010-08-18T13:49:21Z</time>
      </trkpt>
      <trkpt lat="45.45763" lon="4.75971">
        <ele>178</ele>
        <time>2010-08-18T13:49:26Z</time>
      </trkpt>
      <trkpt lat="45.45755" lon="4.75962">
        <ele>178</ele>
        <time>2010-08-18T13:49:39Z</time>
      </trkpt>
      <trkpt lat="45.45746" lon="4.75963">
        <ele>168</ele>
        <time>2010-08-18T13:49:44Z</time>
      </trkpt>
      <trkpt lat="45.45736" lon="4.75968">
        <ele>156</ele>
        <time>2010-08-18T13:49:49Z</time>
      </trkpt>
      <trkpt lat="45.45728" lon="4.75962">
        <ele>147</ele>
        <time>2010-08-18T13:49:54Z</time>
      </trkpt>
      <trkpt lat="45.45723" lon="4.7595">
        <ele>142</ele>
        <time>2010-08-18T13:50:03Z</time>
      </trkpt>
      <trkpt lat="45.45715" lon="4.7594">
        <ele>147</ele>
        <time>2010-08-18T13:50:21Z</time>
      </trkpt>
      <trkpt lat="45.45708" lon="4.75929">
        <ele>147</ele>
        <time>2010-08-18T13:50:34Z</time>
      </trkpt>
      <trkpt lat="45.4571" lon="4.75916">
        <ele>147</ele>
        <time>2010-08-18T13:50:45Z</time>
      </trkpt>
      <trkpt lat="45.45705" lon="4.75904">
        <ele>163</ele>
        <time>2010-08-18T13:50:56Z</time>
      </trkpt>
      <trkpt lat="45.4571" lon="4.75892">
        <ele>163</ele>
        <time>2010-08-18T13:51:01Z</time>
      </trkpt>
      <trkpt lat="45.45719" lon="4.75888">
        <ele>163</ele>
        <time>2010-08-18T13:51:05Z</time>
      </trkpt>
      <trkpt lat="45.45713" lon="4.75877">
        <ele>163</ele>
        <time>2010-08-18T13:51:26Z</time>
      </trkpt>
      <trkpt lat="45.45712" lon="4.75864">
        <ele>157</ele>
        <time>2010-08-18T13:51:32Z</time>
      </trkpt>
      <trkpt lat="45.45707" lon="4.75852">
        <ele>157</ele>
        <time>2010-08-18T13:51:38Z</time>
      </trkpt>
      <trkpt lat="45.45704" lon="4.75839">
        <ele>150</ele>
        <time>2010-08-18T13:51:44Z</time>
      </trkpt>
      <trkpt lat="45.45697" lon="4.75828">
        <ele>150</ele>
        <time>2010-08-18T13:51:51Z</time>
      </trkpt>
      <trkpt lat="45.45699" lon="4.75814">
        <ele>150</ele>
        <time>2010-08-18T13:51:59Z</time>
      </trkpt>
      <trkpt lat="45.45695" lon="4.75802">
        <ele>150</ele>
        <time>2010-08-18T13:52:08Z</time>
      </trkpt>
      <trkpt lat="45.45694" lon="4.75786">
        <ele>150</ele>
        <time>2010-08-18T13:52:16Z</time>
      </trkpt>
      <trkpt lat="45.4569" lon="4.75773">
        <ele>150</ele>
        <time>2010-08-18T13:52:24Z</time>
      </trkpt>
      <trkpt lat="45.45687" lon="4.7576">
        <ele>150</ele>
        <time>2010-08-18T13:52:32Z</time>
      </trkpt>
      <trkpt lat="45.45681" lon="4.75749">
        <ele>150</ele>
        <time>2010-08-18T13:52:39Z</time>
      </trkpt>
      <trkpt lat="45.45674" lon="4.75736">
        <ele>150</ele>
        <time>2010-08-18T13:52:46Z</time>
      </trkpt>
      <trkpt lat="45.4567" lon="4.75723">
        <ele>150</ele>
        <time>2010-08-18T13:52:54Z</time>
      </trkpt>
      <trkpt lat="45.45665" lon="4.75711">
        <ele>150</ele>
        <time>2010-08-18T13:53:01Z</time>
      </trkpt>
      <trkpt lat="45.4566" lon="4.75699">
        <ele>150</ele>
        <time>2010-08-18T13:53:10Z</time>
      </trkpt>
      <trkpt lat="45.45655" lon="4.75688">
        <ele>150</ele>
        <time>2010-08-18T13:53:18Z</time>
      </trkpt>
      <trkpt lat="45.45649" lon="4.75676">
        <ele>150</ele>
        <time>2010-08-18T13:53:26Z</time>
      </trkpt>
      <trkpt lat="45.45648" lon="4.75662">
        <ele>150</ele>
        <time>2010-08-18T13:53:36Z</time>
      </trkpt>
      <trkpt lat="45.45641" lon="4.75652">
        <ele>150</ele>
        <time>2010-08-18T13:53:46Z</time>
      </trkpt>
      <trkpt lat="45.45634" lon="4.75643">
        <ele>150</ele>
        <time>2010-08-18T13:53:54Z</time>
      </trkpt>
      <trkpt lat="45.45631" lon="4.7563">
        <ele>150</ele>
        <time>2010-08-18T13:54:01Z</time>
      </trkpt>
      <trkpt lat="45.45626" lon="4.75618">
        <ele>150</ele>
        <time>2010-08-18T13:54:08Z</time>
      </trkpt>
      <trkpt lat="45.45622" lon="4.75605">
        <ele>150</ele>
        <time>2010-08-18T13:54:16Z</time>
      </trkpt>
      <trkpt lat="45.45617" lon="4.75593">
        <ele>150</ele>
        <time>2010-08-18T13:54:23Z</time>
      </trkpt>
      <trkpt lat="45.45612" lon="4.75581">
        <ele>145</ele>
        <time>2010-08-18T13:54:30Z</time>
      </trkpt>
      <trkpt lat="45.4561" lon="4.75568">
        <ele>152</ele>
        <time>2010-08-18T13:54:39Z</time>
      </trkpt>
      <trkpt lat="45.45606" lon="4.75556">
        <ele>152</ele>
        <time>2010-08-18T13:54:47Z</time>
      </trkpt>
      <trkpt lat="45.456" lon="4.75546">
        <ele>152</ele>
        <time>2010-08-18T13:54:53Z</time>
      </trkpt>
      <trkpt lat="45.45594" lon="4.75533">
        <ele>152</ele>
        <time>2010-08-18T13:55:00Z</time>
      </trkpt>
      <trkpt lat="45.45588" lon="4.75521">
        <ele>152</ele>
        <time>2010-08-18T13:55:09Z</time>
      </trkpt>
      <trkpt lat="45.4558" lon="4.75514">
        <ele>158</ele>
        <time>2010-08-18T13:55:19Z</time>
      </trkpt>
      <trkpt lat="45.4557" lon="4.75506">
        <ele>158</ele>
        <time>2010-08-18T13:55:26Z</time>
      </trkpt>
      <trkpt lat="45.45563" lon="4.75497">
        <ele>158</ele>
        <time>2010-08-18T13:55:32Z</time>
      </trkpt>
      <trkpt lat="45.45555" lon="4.75491">
        <ele>153</ele>
        <time>2010-08-18T13:55:38Z</time>
      </trkpt>
      <trkpt lat="45.45549" lon="4.75479">
        <ele>153</ele>
        <time>2010-08-18T13:55:47Z</time>
      </trkpt>
      <trkpt lat="45.4554" lon="4.75473">
        <ele>153</ele>
        <time>2010-08-18T13:55:54Z</time>
      </trkpt>
      <trkpt lat="45.45535" lon="4.75461">
        <ele>147</ele>
        <time>2010-08-18T13:56:39Z</time>
      </trkpt>
      <trkpt lat="45.45535" lon="4.75448">
        <ele>147</ele>
        <time>2010-08-18T13:56:46Z</time>
      </trkpt>
      <trkpt lat="45.45536" lon="4.75434">
        <ele>147</ele>
        <time>2010-08-18T13:57:02Z</time>
      </trkpt>
      <trkpt lat="45.45539" lon="4.7542">
        <ele>147</ele>
        <time>2010-08-18T13:57:09Z</time>
      </trkpt>
      <trkpt lat="45.45535" lon="4.75407">
        <ele>147</ele>
        <time>2010-08-18T13:57:19Z</time>
      </trkpt>
      <trkpt lat="45.45535" lon="4.75394">
        <ele>165</ele>
        <time>2010-08-18T13:57:30Z</time>
      </trkpt>
      <trkpt lat="45.45525" lon="4.75388">
        <ele>165</ele>
        <time>2010-08-18T13:57:39Z</time>
      </trkpt>
      <trkpt lat="45.45519" lon="4.75378">
        <ele>165</ele>
        <time>2010-08-18T13:57:45Z</time>
      </trkpt>
      <trkpt lat="45.45509" lon="4.75371">
        <ele>165</ele>
        <time>2010-08-18T13:57:51Z</time>
      </trkpt>
      <trkpt lat="45.45505" lon="4.75357">
        <ele>157</ele>
        <time>2010-08-18T13:57:58Z</time>
      </trkpt>
      <trkpt lat="45.45507" lon="4.75344">
        <ele>157</ele>
        <time>2010-08-18T13:58:04Z</time>
      </trkpt>
      <trkpt lat="45.45499" lon="4.75335">
        <ele>151</ele>
        <time>2010-08-18T13:58:10Z</time>
      </trkpt>
      <trkpt lat="45.45491" lon="4.75329">
        <ele>151</ele>
        <time>2010-08-18T13:58:15Z</time>
      </trkpt>
      <trkpt lat="45.45483" lon="4.75321">
        <ele>156</ele>
        <time>2010-08-18T13:58:23Z</time>
      </trkpt>
      <trkpt lat="45.45476" lon="4.75313">
        <ele>166</ele>
        <time>2010-08-18T13:58:30Z</time>
      </trkpt>
      <trkpt lat="45.45466" lon="4.75309">
        <ele>172</ele>
        <time>2010-08-18T13:58:38Z</time>
      </trkpt>
      <trkpt lat="45.45457" lon="4.75308">
        <ele>172</ele>
        <time>2010-08-18T13:58:44Z</time>
      </trkpt>
      <trkpt lat="45.45447" lon="4.75309">
        <ele>178</ele>
        <time>2010-08-18T13:58:53Z</time>
      </trkpt>
      <trkpt lat="45.45438" lon="4.75317">
        <ele>178</ele>
        <time>2010-08-18T13:59:02Z</time>
      </trkpt>
      <trkpt lat="45.45426" lon="4.75319">
        <ele>178</ele>
        <time>2010-08-18T13:59:11Z</time>
      </trkpt>
      <trkpt lat="45.45418" lon="4.75323">
        <ele>178</ele>
        <time>2010-08-18T13:59:15Z</time>
      </trkpt>
      <trkpt lat="45.45408" lon="4.75325">
        <ele>163</ele>
        <time>2010-08-18T13:59:21Z</time>
      </trkpt>
      <trkpt lat="45.45397" lon="4.75327">
        <ele>156</ele>
        <time>2010-08-18T13:59:37Z</time>
      </trkpt>
      <trkpt lat="45.45388" lon="4.75333">
        <ele>156</ele>
        <time>2010-08-18T13:59:44Z</time>
      </trkpt>
      <trkpt lat="45.45382" lon="4.75344">
        <ele>156</ele>
        <time>2010-08-18T13:59:54Z</time>
      </trkpt>
      <trkpt lat="45.45383" lon="4.7533">
        <ele>161</ele>
        <time>2010-08-18T14:00:48Z</time>
      </trkpt>
      <trkpt lat="45.45378" lon="4.75341">
        <ele>161</ele>
        <time>2010-08-18T14:01:00Z</time>
      </trkpt>
      <trkpt lat="45.45368" lon="4.75337">
        <ele>156</ele>
        <time>2010-08-18T14:01:12Z</time>
      </trkpt>
      <trkpt lat="45.45366" lon="4.75324">
        <ele>156</ele>
        <time>2010-08-18T14:01:21Z</time>
      </trkpt>
      <trkpt lat="45.45359" lon="4.75312">
        <ele>156</ele>
        <time>2010-08-18T14:01:29Z</time>
      </trkpt>
      <trkpt lat="45.45357" lon="4.753">
        <ele>164</ele>
        <time>2010-08-18T14:01:40Z</time>
      </trkpt>
      <trkpt lat="45.45352" lon="4.75287">
        <ele>164</ele>
        <time>2010-08-18T14:01:55Z</time>
      </trkpt>
      <trkpt lat="45.45343" lon="4.75288">
        <ele>155</ele>
        <time>2010-08-18T14:02:07Z</time>
      </trkpt>
      <trkpt lat="45.45339" lon="4.75276">
        <ele>155</ele>
        <time>2010-08-18T14:02:22Z</time>
      </trkpt>
      <trkpt lat="45.45346" lon="4.75266">
        <ele>155</ele>
        <time>2010-08-18T14:02:30Z</time>
      </trkpt>
      <trkpt lat="45.45339" lon="4.75255">
        <ele>155</ele>
        <time>2010-08-18T14:02:36Z</time>
      </trkpt>
      <trkpt lat="45.45329" lon="4.75253">
        <ele>166</ele>
        <time>2010-08-18T14:02:52Z</time>
      </trkpt>
      <trkpt lat="45.45337" lon="4.75239">
        <ele>166</ele>
        <time>2010-08-18T14:03:19Z</time>
      </trkpt>
      <trkpt lat="45.4533" lon="4.7525">
        <ele>166</ele>
        <time>2010-08-18T14:03:25Z</time>
      </trkpt>
      <trkpt lat="45.45321" lon="4.75258">
        <ele>166</ele>
        <time>2010-08-18T14:03:29Z</time>
      </trkpt>
      <trkpt lat="45.4532" lon="4.75245">
        <ele>166</ele>
        <time>2010-08-18T14:03:36Z</time>
      </trkpt>
      <trkpt lat="45.45319" lon="4.75229">
        <ele>166</ele>
        <time>2010-08-18T14:03:46Z</time>
      </trkpt>
      <trkpt lat="45.4532" lon="4.75215">
        <ele>158</ele>
        <time>2010-08-18T14:03:52Z</time>
      </trkpt>
      <trkpt lat="45.45323" lon="4.75203">
        <ele>158</ele>
        <time>2010-08-18T14:04:08Z</time>
      </trkpt>
      <trkpt lat="45.45313" lon="4.75204">
        <ele>166</ele>
        <time>2010-08-18T14:04:32Z</time>
      </trkpt>
      <trkpt lat="45.45303" lon="4.7521">
        <ele>185</ele>
        <time>2010-08-18T14:04:49Z</time>
      </trkpt>
      <trkpt lat="45.45296" lon="4.75221">
        <ele>185</ele>
        <time>2010-08-18T14:05:01Z</time>
      </trkpt>
      <trkpt lat="45.45289" lon="4.7523">
        <ele>185</ele>
        <time>2010-08-18T14:05:16Z</time>
      </trkpt>
      <trkpt lat="45.45278" lon="4.75232">
        <ele>178</ele>
        <time>2010-08-18T14:05:24Z</time>
      </trkpt>
      <trkpt lat="45.45269" lon="4.75227">
        <ele>169</ele>
        <time>2010-08-18T14:05:29Z</time>
      </trkpt>
      <trkpt lat="45.45263" lon="4.75217">
        <ele>163</ele>
        <time>2010-08-18T14:05:39Z</time>
      </trkpt>
      <trkpt lat="45.45265" lon="4.75204">
        <ele>163</ele>
        <time>2010-08-18T14:05:53Z</time>
      </trkpt>
      <trkpt lat="45.45268" lon="4.75192">
        <ele>172</ele>
        <time>2010-08-18T14:06:05Z</time>
      </trkpt>
      <trkpt lat="45.45269" lon="4.75178">
        <ele>178</ele>
        <time>2010-08-18T14:06:15Z</time>
      </trkpt>
      <trkpt lat="45.45263" lon="4.75168">
        <ele>173</ele>
        <time>2010-08-18T14:06:23Z</time>
      </trkpt>
      <trkpt lat="45.45257" lon="4.75158">
        <ele>173</ele>
        <time>2010-08-18T14:06:34Z</time>
      </trkpt>
      <trkpt lat="45.45247" lon="4.75148">
        <ele>193</ele>
        <time>2010-08-18T14:07:02Z</time>
      </trkpt>
      <trkpt lat="45.45237" lon="4.7515">
        <ele>193</ele>
        <time>2010-08-18T14:07:15Z</time>
      </trkpt>
      <trkpt lat="45.45227" lon="4.75152">
        <ele>185</ele>
        <time>2010-08-18T14:07:23Z</time>
      </trkpt>
      <trkpt lat="45.45225" lon="4.75166">
        <ele>212</ele>
        <time>2010-08-18T14:07:49Z</time>
      </trkpt>
      <trkpt lat="45.45217" lon="4.75174">
        <ele>212</ele>
        <time>2010-08-18T14:08:00Z</time>
      </trkpt>
      <trkpt lat="45.45211" lon="4.75185">
        <ele>228</ele>
        <time>2010-08-18T14:08:31Z</time>
      </trkpt>
      <trkpt lat="45.452" lon="4.75185">
        <ele>221</ele>
        <time>2010-08-18T14:08:41Z</time>
      </trkpt>
      <trkpt lat="45.4519" lon="4.75184">
        <ele>221</ele>
        <time>2010-08-18T14:08:46Z</time>
      </trkpt>
      <trkpt lat="45.4518" lon="4.75191">
        <ele>210</ele>
        <time>2010-08-18T14:08:59Z</time>
      </trkpt>
      <trkpt lat="45.45172" lon="4.75197">
        <ele>210</ele>
        <time>2010-08-18T14:09:11Z</time>
      </trkpt>
      <trkpt lat="45.45161" lon="4.75196">
        <ele>217</ele>
        <time>2010-08-18T14:09:24Z</time>
      </trkpt>
      <trkpt lat="45.45151" lon="4.75195">
        <ele>212</ele>
        <time>2010-08-18T14:09:29Z</time>
      </trkpt>
      <trkpt lat="45.45158" lon="4.75183">
        <ele>226</ele>
        <time>2010-08-18T14:09:58Z</time>
      </trkpt>
      <trkpt lat="45.45156" lon="4.75169">
        <ele>226</ele>
        <time>2010-08-18T14:10:15Z</time>
      </trkpt>
      <trkpt lat="45.45163" lon="4.7516">
        <ele>226</ele>
        <time>2010-08-18T14:10:26Z</time>
      </trkpt>
      <trkpt lat="45.45172" lon="4.75157">
        <ele>226</ele>
        <time>2010-08-18T14:10:43Z</time>
      </trkpt>
      <trkpt lat="45.45182" lon="4.75156">
        <ele>226</ele>
        <time>2010-08-18T14:10:47Z</time>
      </trkpt>
      <trkpt lat="45.45191" lon="4.75151">
        <ele>226</ele>
        <time>2010-08-18T14:10:56Z</time>
      </trkpt>
      <trkpt lat="45.45191" lon="4.75137">
        <ele>226</ele>
        <time>2010-08-18T14:11:12Z</time>
      </trkpt>
      <trkpt lat="45.45197" lon="4.75125">
        <ele>244</ele>
        <time>2010-08-18T14:11:27Z</time>
      </trkpt>
      <trkpt lat="45.45201" lon="4.75114">
        <ele>244</ele>
        <time>2010-08-18T14:11:38Z</time>
      </trkpt>
      <trkpt lat="45.45208" lon="4.75103">
        <ele>254</ele>
        <time>2010-08-18T14:11:46Z</time>
      </trkpt>
      <trkpt lat="45.45202" lon="4.75093">
        <ele>248</ele>
        <time>2010-08-18T14:11:55Z</time>
      </trkpt>
      <trkpt lat="45.45199" lon="4.7508">
        <ele>242</ele>
        <time>2010-08-18T14:12:04Z</time>
      </trkpt>
      <trkpt lat="45.45197" lon="4.75067">
        <ele>242</ele>
        <time>2010-08-18T14:12:19Z</time>
      </trkpt>
      <trkpt lat="45.45201" lon="4.75054">
        <ele>252</ele>
        <time>2010-08-18T14:12:31Z</time>
      </trkpt>
      <trkpt lat="45.452" lon="4.75041">
        <ele>252</ele>
        <time>2010-08-18T14:13:06Z</time>
      </trkpt>
      <trkpt lat="45.45202" lon="4.75027">
        <ele>252</ele>
        <time>2010-08-18T14:13:17Z</time>
      </trkpt>
      <trkpt lat="45.45204" lon="4.75014">
        <ele>260</ele>
        <time>2010-08-18T14:13:26Z</time>
      </trkpt>
      <trkpt lat="45.45199" lon="4.75002">
        <ele>260</ele>
        <time>2010-08-18T14:13:34Z</time>
      </trkpt>
      <trkpt lat="45.45192" lon="4.74993">
        <ele>254</ele>
        <time>2010-08-18T14:13:41Z</time>
      </trkpt>
      <trkpt lat="45.45183" lon="4.74985">
        <ele>247</ele>
        <time>2010-08-18T14:13:47Z</time>
      </trkpt>
      <trkpt lat="45.45177" lon="4.74975">
        <ele>260</ele>
        <time>2010-08-18T14:14:09Z</time>
      </trkpt>
      <trkpt lat="45.45168" lon="4.74969">
        <ele>260</ele>
        <time>2010-08-18T14:14:21Z</time>
      </trkpt>
      <trkpt lat="45.45161" lon="4.74959">
        <ele>260</ele>
        <time>2010-08-18T14:14:30Z</time>
      </trkpt>
      <trkpt lat="45.45161" lon="4.74946">
        <ele>260</ele>
        <time>2010-08-18T14:14:42Z</time>
      </trkpt>
      <trkpt lat="45.45159" lon="4.74932">
        <ele>260</ele>
        <time>2010-08-18T14:15:08Z</time>
      </trkpt>
      <trkpt lat="45.45165" lon="4.74921">
        <ele>260</ele>
        <time>2010-08-18T14:15:25Z</time>
      </trkpt>
      <trkpt lat="45.45172" lon="4.74911">
        <ele>260</ele>
        <time>2010-08-18T14:15:38Z</time>
      </trkpt>
      <trkpt lat="45.45179" lon="4.74902">
        <ele>260</ele>
        <time>2010-08-18T14:15:47Z</time>
      </trkpt>
      <trkpt lat="45.45187" lon="4.74894">
        <ele>260</ele>
        <time>2010-08-18T14:16:03Z</time>
      </trkpt>
      <trkpt lat="45.45191" lon="4.74881">
        <ele>270</ele>
        <time>2010-08-18T14:16:11Z</time>
      </trkpt>
      <trkpt lat="45.45185" lon="4.7487">
        <ele>276</ele>
        <time>2010-08-18T14:16:23Z</time>
      </trkpt>
      <trkpt lat="45.45185" lon="4.74856">
        <ele>276</ele>
        <time>2010-08-18T14:16:30Z</time>
      </trkpt>
      <trkpt lat="45.45183" lon="4.74842">
        <ele>276</ele>
        <time>2010-08-18T14:16:38Z</time>
      </trkpt>
      <trkpt lat="45.45184" lon="4.74829">
        <ele>276</ele>
        <time>2010-08-18T14:16:45Z</time>
      </trkpt>
      <trkpt lat="45.45181" lon="4.74814">
        <ele>276</ele>
        <time>2010-08-18T14:16:55Z</time>
      </trkpt>
      <trkpt lat="45.45184" lon="4.74802">
        <ele>276</ele>
        <time>2010-08-18T14:17:02Z</time>
      </trkpt>
      <trkpt lat="45.45184" lon="4.74787">
        <ele>283</ele>
        <time>2010-08-18T14:17:12Z</time>
      </trkpt>
      <trkpt lat="45.45181" lon="4.74772">
        <ele>283</ele>
        <time>2010-08-18T14:17:21Z</time>
      </trkpt>
      <trkpt lat="45.45177" lon="4.7476">
        <ele>283</ele>
        <time>2010-08-18T14:17:30Z</time>
      </trkpt>
      <trkpt lat="45.45175" lon="4.74746">
        <ele>283</ele>
        <time>2010-08-18T14:17:38Z</time>
      </trkpt>
      <trkpt lat="45.45179" lon="4.74733">
        <ele>283</ele>
        <time>2010-08-18T14:17:45Z</time>
      </trkpt>
      <trkpt lat="45.45181" lon="4.7472">
        <ele>283</ele>
        <time>2010-08-18T14:17:55Z</time>
      </trkpt>
      <trkpt lat="45.45177" lon="4.74707">
        <ele>277</ele>
        <time>2010-08-18T14:18:07Z</time>
      </trkpt>
      <trkpt lat="45.45176" lon="4.74693">
        <ele>277</ele>
        <time>2010-08-18T14:18:14Z</time>
      </trkpt>
      <trkpt lat="45.45178" lon="4.74679">
        <ele>270</ele>
        <time>2010-08-18T14:18:24Z</time>
      </trkpt>
      <trkpt lat="45.45183" lon="4.74667">
        <ele>278</ele>
        <time>2010-08-18T14:18:37Z</time>
      </trkpt>
      <trkpt lat="45.45186" lon="4.74653">
        <ele>278</ele>
        <time>2010-08-18T14:18:47Z</time>
      </trkpt>
      <trkpt lat="45.45184" lon="4.74639">
        <ele>278</ele>
        <time>2010-08-18T14:18:56Z</time>
      </trkpt>
      <trkpt lat="45.45186" lon="4.74626">
        <ele>291</ele>
        <time>2010-08-18T14:19:11Z</time>
      </trkpt>
      <trkpt lat="45.45184" lon="4.74612">
        <ele>291</ele>
        <time>2010-08-18T14:19:21Z</time>
      </trkpt>
      <trkpt lat="45.45179" lon="4.746">
        <ele>291</ele>
        <time>2010-08-18T14:19:29Z</time>
      </trkpt>
      <trkpt lat="45.45172" lon="4.7459">
        <ele>291</ele>
        <time>2010-08-18T14:19:37Z</time>
      </trkpt>
      <trkpt lat="45.45167" lon="4.74577">
        <ele>291</ele>
        <time>2010-08-18T14:19:42Z</time>
      </trkpt>
      <trkpt lat="45.45168" lon="4.74563">
        <ele>278</ele>
        <time>2010-08-18T14:19:48Z</time>
      </trkpt>
      <trkpt lat="45.45169" lon="4.74549">
        <ele>278</ele>
        <time>2010-08-18T14:19:58Z</time>
      </trkpt>
      <trkpt lat="45.45175" lon="4.74538">
        <ele>289</ele>
        <time>2010-08-18T14:20:07Z</time>
      </trkpt>
      <trkpt lat="45.45171" lon="4.74523">
        <ele>289</ele>
        <time>2010-08-18T14:20:16Z</time>
      </trkpt>
      <trkpt lat="45.45179" lon="4.74515">
        <ele>289</ele>
        <time>2010-08-18T14:20:27Z</time>
      </trkpt>
      <trkpt lat="45.45185" lon="4.74505">
        <ele>289</ele>
        <time>2010-08-18T14:20:44Z</time>
      </trkpt>
      <trkpt lat="45.45175" lon="4.74503">
        <ele>289</ele>
        <time>2010-08-18T14:21:16Z</time>
      </trkpt>
      <trkpt lat="45.45166" lon="4.74498">
        <ele>289</ele>
        <time>2010-08-18T14:21:27Z</time>
      </trkpt>
      <trkpt lat="45.4516" lon="4.74488">
        <ele>298</ele>
        <time>2010-08-18T14:21:37Z</time>
      </trkpt>
      <trkpt lat="45.45154" lon="4.74478">
        <ele>298</ele>
        <time>2010-08-18T14:21:42Z</time>
      </trkpt>
      <trkpt lat="45.45146" lon="4.74469">
        <ele>292</ele>
        <time>2010-08-18T14:21:49Z</time>
      </trkpt>
      <trkpt lat="45.45139" lon="4.74461">
        <ele>292</ele>
        <time>2010-08-18T14:21:56Z</time>
      </trkpt>
      <trkpt lat="45.45137" lon="4.74446">
        <ele>292</ele>
        <time>2010-08-18T14:22:05Z</time>
      </trkpt>
      <trkpt lat="45.45132" lon="4.74434">
        <ele>300</ele>
        <time>2010-08-18T14:22:15Z</time>
      </trkpt>
      <trkpt lat="45.45125" lon="4.74426">
        <ele>300</ele>
        <time>2010-08-18T14:22:28Z</time>
      </trkpt>
      <trkpt lat="45.45127" lon="4.74413">
        <ele>300</ele>
        <time>2010-08-18T14:22:33Z</time>
      </trkpt>
      <trkpt lat="45.45124" lon="4.744">
        <ele>300</ele>
        <time>2010-08-18T14:22:39Z</time>
      </trkpt>
      <trkpt lat="45.45123" lon="4.74386">
        <ele>292</ele>
        <time>2010-08-18T14:22:46Z</time>
      </trkpt>
      <trkpt lat="45.45114" lon="4.74379">
        <ele>292</ele>
        <time>2010-08-18T14:23:02Z</time>
      </trkpt>
      <trkpt lat="45.45122" lon="4.74371">
        <ele>292</ele>
        <time>2010-08-18T14:23:36Z</time>
      </trkpt>
      <trkpt lat="45.4513" lon="4.74379">
        <ele>292</ele>
        <time>2010-08-18T14:23:56Z</time>
      </trkpt>
      <trkpt lat="45.45129" lon="4.74364">
        <ele>310</ele>
        <time>2010-08-18T14:24:32Z</time>
      </trkpt>
      <trkpt lat="45.45133" lon="4.74353">
        <ele>310</ele>
        <time>2010-08-18T14:24:41Z</time>
      </trkpt>
      <trkpt lat="45.45141" lon="4.74342">
        <ele>303</ele>
        <time>2010-08-18T14:24:51Z</time>
      </trkpt>
      <trkpt lat="45.45143" lon="4.74329">
        <ele>303</ele>
        <time>2010-08-18T14:25:05Z</time>
      </trkpt>
      <trkpt lat="45.45139" lon="4.74315">
        <ele>303</ele>
        <time>2010-08-18T14:25:12Z</time>
      </trkpt>
      <trkpt lat="45.45138" lon="4.74301">
        <ele>303</ele>
        <time>2010-08-18T14:25:21Z</time>
      </trkpt>
      <trkpt lat="45.45139" lon="4.74287">
        <ele>303</ele>
        <time>2010-08-18T14:25:30Z</time>
      </trkpt>
      <trkpt lat="45.45137" lon="4.74274">
        <ele>303</ele>
        <time>2010-08-18T14:25:38Z</time>
      </trkpt>
      <trkpt lat="45.4514" lon="4.74261">
        <ele>303</ele>
        <time>2010-08-18T14:25:46Z</time>
      </trkpt>
      <trkpt lat="45.45141" lon="4.74248">
        <ele>303</ele>
        <time>2010-08-18T14:25:59Z</time>
      </trkpt>
      <trkpt lat="45.45143" lon="4.74234">
        <ele>303</ele>
        <time>2010-08-18T14:26:09Z</time>
      </trkpt>
      <trkpt lat="45.45145" lon="4.74222">
        <ele>303</ele>
        <time>2010-08-18T14:26:47Z</time>
      </trkpt>
      <trkpt lat="45.45139" lon="4.7421">
        <ele>303</ele>
        <time>2010-08-18T14:27:42Z</time>
      </trkpt>
      <trkpt lat="45.45132" lon="4.74199">
        <ele>310</ele>
        <time>2010-08-18T14:27:54Z</time>
      </trkpt>
      <trkpt lat="45.45124" lon="4.74191">
        <ele>310</ele>
        <time>2010-08-18T14:28:05Z</time>
      </trkpt>
      <trkpt lat="45.45117" lon="4.74183">
        <ele>310</ele>
        <time>2010-08-18T14:28:18Z</time>
      </trkpt>
      <trkpt lat="45.4511" lon="4.74174">
        <ele>310</ele>
        <time>2010-08-18T14:29:07Z</time>
      </trkpt>
      <trkpt lat="45.45101" lon="4.74167">
        <ele>310</ele>
        <time>2010-08-18T14:29:16Z</time>
      </trkpt>
      <trkpt lat="45.45095" lon="4.74157">
        <ele>319</ele>
        <time>2010-08-18T14:29:31Z</time>
      </trkpt>
      <trkpt lat="45.45087" lon="4.74146">
        <ele>319</ele>
        <time>2010-08-18T14:29:41Z</time>
      </trkpt>
      <trkpt lat="45.45079" lon="4.74138">
        <ele>319</ele>
        <time>2010-08-18T14:29:51Z</time>
      </trkpt>
      <trkpt lat="45.4507" lon="4.74133">
        <ele>319</ele>
        <time>2010-08-18T14:30:02Z</time>
      </trkpt>
      <trkpt lat="45.45062" lon="4.74124">
        <ele>319</ele>
        <time>2010-08-18T14:30:13Z</time>
      </trkpt>
      <trkpt lat="45.4506" lon="4.74111">
        <ele>319</ele>
        <time>2010-08-18T14:30:22Z</time>
      </trkpt>
      <trkpt lat="45.45059" lon="4.74098">
        <ele>319</ele>
        <time>2010-08-18T14:30:30Z</time>
      </trkpt>
      <trkpt lat="45.45058" lon="4.74082">
        <ele>319</ele>
        <time>2010-08-18T14:30:38Z</time>
      </trkpt>
      <trkpt lat="45.45058" lon="4.74068">
        <ele>319</ele>
        <time>2010-08-18T14:30:46Z</time>
      </trkpt>
      <trkpt lat="45.45058" lon="4.74055">
        <ele>319</ele>
        <time>2010-08-18T14:30:53Z</time>
      </trkpt>
      <trkpt lat="45.45057" lon="4.7404">
        <ele>319</ele>
        <time>2010-08-18T14:31:01Z</time>
      </trkpt>
      <trkpt lat="45.45057" lon="4.74027">
        <ele>319</ele>
        <time>2010-08-18T14:31:08Z</time>
      </trkpt>
      <trkpt lat="45.45057" lon="4.74012">
        <ele>319</ele>
        <time>2010-08-18T14:31:16Z</time>
      </trkpt>
      <trkpt lat="45.45056" lon="4.73998">
        <ele>319</ele>
        <time>2010-08-18T14:31:24Z</time>
      </trkpt>
      <trkpt lat="45.45057" lon="4.73984">
        <ele>319</ele>
        <time>2010-08-18T14:31:35Z</time>
      </trkpt>
      <trkpt lat="45.45052" lon="4.73973">
        <ele>319</ele>
        <time>2010-08-18T14:31:42Z</time>
      </trkpt>
      <trkpt lat="45.4505" lon="4.73959">
        <ele>319</ele>
        <time>2010-08-18T14:31:50Z</time>
      </trkpt>
      <trkpt lat="45.45049" lon="4.73946">
        <ele>319</ele>
        <time>2010-08-18T14:31:58Z</time>
      </trkpt>
      <trkpt lat="45.45046" lon="4.73932">
        <ele>319</ele>
        <time>2010-08-18T14:32:06Z</time>
      </trkpt>
      <trkpt lat="45.45045" lon="4.73918">
        <ele>319</ele>
        <time>2010-08-18T14:32:14Z</time>
      </trkpt>
      <trkpt lat="45.45041" lon="4.73904">
        <ele>324</ele>
        <time>2010-08-18T14:32:23Z</time>
      </trkpt>
      <trkpt lat="45.45041" lon="4.73891">
        <ele>324</ele>
        <time>2010-08-18T14:32:32Z</time>
      </trkpt>
      <trkpt lat="45.4504" lon="4.73877">
        <ele>324</ele>
        <time>2010-08-18T14:32:40Z</time>
      </trkpt>
      <trkpt lat="45.45042" lon="4.73862">
        <ele>324</ele>
        <time>2010-08-18T14:32:48Z</time>
      </trkpt>
      <trkpt lat="45.45042" lon="4.73848">
        <ele>324</ele>
        <time>2010-08-18T14:32:57Z</time>
      </trkpt>
      <trkpt lat="45.45041" lon="4.73834">
        <ele>329</ele>
        <time>2010-08-18T14:33:05Z</time>
      </trkpt>
      <trkpt lat="45.45041" lon="4.7382">
        <ele>329</ele>
        <time>2010-08-18T14:33:13Z</time>
      </trkpt>
      <trkpt lat="45.4504" lon="4.73807">
        <ele>329</ele>
        <time>2010-08-18T14:33:21Z</time>
      </trkpt>
      <trkpt lat="45.45039" lon="4.73792">
        <ele>329</ele>
        <time>2010-08-18T14:33:29Z</time>
      </trkpt>
      <trkpt lat="45.45039" lon="4.73779">
        <ele>329</ele>
        <time>2010-08-18T14:33:38Z</time>
      </trkpt>
      <trkpt lat="45.45037" lon="4.73766">
        <ele>329</ele>
        <time>2010-08-18T14:34:33Z</time>
      </trkpt>
      <trkpt lat="45.45028" lon="4.73759">
        <ele>334</ele>
        <time>2010-08-18T14:34:45Z</time>
      </trkpt>
      <trkpt lat="45.45022" lon="4.73748">
        <ele>334</ele>
        <time>2010-08-18T14:34:54Z</time>
      </trkpt>
      <trkpt lat="45.45016" lon="4.73737">
        <ele>334</ele>
        <time>2010-08-18T14:35:03Z</time>
      </trkpt>
      <trkpt lat="45.4501" lon="4.73726">
        <ele>334</ele>
        <time>2010-08-18T14:35:12Z</time>
      </trkpt>
      <trkpt lat="45.45002" lon="4.73717">
        <ele>334</ele>
        <time>2010-08-18T14:35:20Z</time>
      </trkpt>
      <trkpt lat="45.44995" lon="4.73705">
        <ele>334</ele>
        <time>2010-08-18T14:35:29Z</time>
      </trkpt>
      <trkpt lat="45.44988" lon="4.73695">
        <ele>334</ele>
        <time>2010-08-18T14:35:37Z</time>
      </trkpt>
      <trkpt lat="45.44983" lon="4.73683">
        <ele>334</ele>
        <time>2010-08-18T14:35:46Z</time>
      </trkpt>
      <trkpt lat="45.44976" lon="4.73674">
        <ele>334</ele>
        <time>2010-08-18T14:35:54Z</time>
      </trkpt>
      <trkpt lat="45.4497" lon="4.73662">
        <ele>334</ele>
        <time>2010-08-18T14:36:02Z</time>
      </trkpt>
      <trkpt lat="45.44964" lon="4.73649">
        <ele>334</ele>
        <time>2010-08-18T14:36:11Z</time>
      </trkpt>
      <trkpt lat="45.44959" lon="4.73638">
        <ele>334</ele>
        <time>2010-08-18T14:36:19Z</time>
      </trkpt>
      <trkpt lat="45.44956" lon="4.73625">
        <ele>334</ele>
        <time>2010-08-18T14:36:42Z</time>
      </trkpt>
      <trkpt lat="45.4495" lon="4.73614">
        <ele>334</ele>
        <time>2010-08-18T14:36:51Z</time>
      </trkpt>
      <trkpt lat="45.44945" lon="4.73604">
        <ele>334</ele>
        <time>2010-08-18T14:37:00Z</time>
      </trkpt>
      <trkpt lat="45.44938" lon="4.73594">
        <ele>334</ele>
        <time>2010-08-18T14:37:06Z</time>
      </trkpt>
      <trkpt lat="45.44933" lon="4.73583">
        <ele>334</ele>
        <time>2010-08-18T14:37:12Z</time>
      </trkpt>
      <trkpt lat="45.44929" lon="4.7357">
        <ele>334</ele>
        <time>2010-08-18T14:37:20Z</time>
      </trkpt>
      <trkpt lat="45.44925" lon="4.73558">
        <ele>334</ele>
        <time>2010-08-18T14:37:28Z</time>
      </trkpt>
      <trkpt lat="45.44919" lon="4.73545">
        <ele>334</ele>
        <time>2010-08-18T14:37:35Z</time>
      </trkpt>
      <trkpt lat="45.44913" lon="4.73533">
        <ele>334</ele>
        <time>2010-08-18T14:37:42Z</time>
      </trkpt>
      <trkpt lat="45.44908" lon="4.73521">
        <ele>334</ele>
        <time>2010-08-18T14:37:49Z</time>
      </trkpt>
      <trkpt lat="45.44904" lon="4.73507">
        <ele>334</ele>
        <time>2010-08-18T14:37:57Z</time>
      </trkpt>
      <trkpt lat="45.44899" lon="4.73494">
        <ele>334</ele>
        <time>2010-08-18T14:38:05Z</time>
      </trkpt>
      <trkpt lat="45.44894" lon="4.7348">
        <ele>334</ele>
        <time>2010-08-18T14:38:12Z</time>
      </trkpt>
      <trkpt lat="45.4489" lon="4.73468">
        <ele>334</ele>
        <time>2010-08-18T14:38:19Z</time>
      </trkpt>
      <trkpt lat="45.44888" lon="4.73454">
        <ele>334</ele>
        <time>2010-08-18T14:38:26Z</time>
      </trkpt>
      <trkpt lat="45.44885" lon="4.73442">
        <ele>334</ele>
        <time>2010-08-18T14:38:33Z</time>
      </trkpt>
      <trkpt lat="45.44881" lon="4.73429">
        <ele>334</ele>
        <time>2010-08-18T14:38:40Z</time>
      </trkpt>
      <trkpt lat="45.44878" lon="4.73416">
        <ele>329</ele>
        <time>2010-08-18T14:38:47Z</time>
      </trkpt>
      <trkpt lat="45.44875" lon="4.73402">
        <ele>329</ele>
        <time>2010-08-18T14:38:54Z</time>
      </trkpt>
      <trkpt lat="45.44873" lon="4.7339">
        <ele>329</ele>
        <time>2010-08-18T14:39:01Z</time>
      </trkpt>
      <trkpt lat="45.4487" lon="4.73377">
        <ele>329</ele>
        <time>2010-08-18T14:39:08Z</time>
      </trkpt>
      <trkpt lat="45.4487" lon="4.73364">
        <ele>329</ele>
        <time>2010-08-18T14:39:15Z</time>
      </trkpt>
      <trkpt lat="45.44869" lon="4.7335">
        <ele>329</ele>
        <time>2010-08-18T14:39:22Z</time>
      </trkpt>
      <trkpt lat="45.44868" lon="4.73335">
        <ele>329</ele>
        <time>2010-08-18T14:39:29Z</time>
      </trkpt>
      <trkpt lat="45.44869" lon="4.73321">
        <ele>329</ele>
        <time>2010-08-18T14:39:39Z</time>
      </trkpt>
      <trkpt lat="45.44867" lon="4.73308">
        <ele>329</ele>
        <time>2010-08-18T14:39:46Z</time>
      </trkpt>
      <trkpt lat="45.44864" lon="4.73295">
        <ele>329</ele>
        <time>2010-08-18T14:39:53Z</time>
      </trkpt>
      <trkpt lat="45.44864" lon="4.73281">
        <ele>329</ele>
        <time>2010-08-18T14:40:01Z</time>
      </trkpt>
      <trkpt lat="45.44861" lon="4.73268">
        <ele>329</ele>
        <time>2010-08-18T14:40:11Z</time>
      </trkpt>
      <trkpt lat="45.44859" lon="4.73255">
        <ele>329</ele>
        <time>2010-08-18T14:40:19Z</time>
      </trkpt>
      <trkpt lat="45.44861" lon="4.73241">
        <ele>329</ele>
        <time>2010-08-18T14:40:28Z</time>
      </trkpt>
      <trkpt lat="45.44861" lon="4.73227">
        <ele>329</ele>
        <time>2010-08-18T14:40:36Z</time>
      </trkpt>
      <trkpt lat="45.44862" lon="4.73214">
        <ele>329</ele>
        <time>2010-08-18T14:40:44Z</time>
      </trkpt>
      <trkpt lat="45.44862" lon="4.73199">
        <ele>329</ele>
        <time>2010-08-18T14:41:03Z</time>
      </trkpt>
      <trkpt lat="45.44864" lon="4.73185">
        <ele>329</ele>
        <time>2010-08-18T14:41:11Z</time>
      </trkpt>
      <trkpt lat="45.44866" lon="4.73171">
        <ele>329</ele>
        <time>2010-08-18T14:41:19Z</time>
      </trkpt>
      <trkpt lat="45.44868" lon="4.73156">
        <ele>329</ele>
        <time>2010-08-18T14:41:26Z</time>
      </trkpt>
      <trkpt lat="45.44869" lon="4.73143">
        <ele>329</ele>
        <time>2010-08-18T14:41:33Z</time>
      </trkpt>
      <trkpt lat="45.44871" lon="4.73128">
        <ele>329</ele>
        <time>2010-08-18T14:41:41Z</time>
      </trkpt>
      <trkpt lat="45.44873" lon="4.73114">
        <ele>329</ele>
        <time>2010-08-18T14:42:14Z</time>
      </trkpt>
      <trkpt lat="45.44874" lon="4.731">
        <ele>329</ele>
        <time>2010-08-18T14:42:27Z</time>
      </trkpt>
      <trkpt lat="45.44876" lon="4.73087">
        <ele>329</ele>
        <time>2010-08-18T14:42:36Z</time>
      </trkpt>
      <trkpt lat="45.44878" lon="4.73073">
        <ele>329</ele>
        <time>2010-08-18T14:42:45Z</time>
      </trkpt>
      <trkpt lat="45.44883" lon="4.7306">
        <ele>329</ele>
        <time>2010-08-18T14:42:54Z</time>
      </trkpt>
      <trkpt lat="45.44888" lon="4.73047">
        <ele>329</ele>
        <time>2010-08-18T14:43:03Z</time>
      </trkpt>
      <trkpt lat="45.44894" lon="4.73037">
        <ele>329</ele>
        <time>2010-08-18T14:43:11Z</time>
      </trkpt>
      <trkpt lat="45.449" lon="4.73025">
        <ele>329</ele>
        <time>2010-08-18T14:43:19Z</time>
      </trkpt>
      <trkpt lat="45.44905" lon="4.73013">
        <ele>329</ele>
        <time>2010-08-18T14:43:26Z</time>
      </trkpt>
      <trkpt lat="45.44911" lon="4.73003">
        <ele>329</ele>
        <time>2010-08-18T14:43:34Z</time>
      </trkpt>
      <trkpt lat="45.44918" lon="4.72994">
        <ele>329</ele>
        <time>2010-08-18T14:43:43Z</time>
      </trkpt>
      <trkpt lat="45.44928" lon="4.72991">
        <ele>329</ele>
        <time>2010-08-18T14:43:50Z</time>
      </trkpt>
      <trkpt lat="45.44937" lon="4.72988">
        <ele>329</ele>
        <time>2010-08-18T14:43:58Z</time>
      </trkpt>
      <trkpt lat="45.44947" lon="4.72986">
        <ele>329</ele>
        <time>2010-08-18T14:44:07Z</time>
      </trkpt>
      <trkpt lat="45.44957" lon="4.72986">
        <ele>329</ele>
        <time>2010-08-18T14:44:15Z</time>
      </trkpt>
      <trkpt lat="45.44965" lon="4.72978">
        <ele>329</ele>
        <time>2010-08-18T14:44:23Z</time>
      </trkpt>
      <trkpt lat="45.44972" lon="4.72969">
        <ele>329</ele>
        <time>2010-08-18T14:44:30Z</time>
      </trkpt>
      <trkpt lat="45.44978" lon="4.72958">
        <ele>329</ele>
        <time>2010-08-18T14:44:38Z</time>
      </trkpt>
      <trkpt lat="45.44982" lon="4.72944">
        <ele>329</ele>
        <time>2010-08-18T14:44:47Z</time>
      </trkpt>
      <trkpt lat="45.44981" lon="4.72931">
        <ele>329</ele>
        <time>2010-08-18T14:44:55Z</time>
      </trkpt>
      <trkpt lat="45.44978" lon="4.72917">
        <ele>329</ele>
        <time>2010-08-18T14:45:04Z</time>
      </trkpt>
      <trkpt lat="45.44975" lon="4.72905">
        <ele>336</ele>
        <time>2010-08-18T14:45:14Z</time>
      </trkpt>
      <trkpt lat="45.44967" lon="4.72895">
        <ele>336</ele>
        <time>2010-08-18T14:45:21Z</time>
      </trkpt>
      <trkpt lat="45.44964" lon="4.72882">
        <ele>336</ele>
        <time>2010-08-18T14:45:32Z</time>
      </trkpt>
      <trkpt lat="45.44962" lon="4.72869">
        <ele>336</ele>
        <time>2010-08-18T14:45:42Z</time>
      </trkpt>
      <trkpt lat="45.44959" lon="4.72856">
        <ele>343</ele>
        <time>2010-08-18T14:45:54Z</time>
      </trkpt>
      <trkpt lat="45.44955" lon="4.72844">
        <ele>343</ele>
        <time>2010-08-18T14:46:04Z</time>
      </trkpt>
      <trkpt lat="45.44951" lon="4.7283">
        <ele>343</ele>
        <time>2010-08-18T14:46:13Z</time>
      </trkpt>
      <trkpt lat="45.44947" lon="4.72817">
        <ele>343</ele>
        <time>2010-08-18T14:46:21Z</time>
      </trkpt>
      <trkpt lat="45.44942" lon="4.72805">
        <ele>343</ele>
        <time>2010-08-18T14:46:29Z</time>
      </trkpt>
      <trkpt lat="45.44942" lon="4.72791">
        <ele>349</ele>
        <time>2010-08-18T14:46:39Z</time>
      </trkpt>
      <trkpt lat="45.44941" lon="4.72778">
        <ele>349</ele>
        <time>2010-08-18T14:46:49Z</time>
      </trkpt>
      <trkpt lat="45.44937" lon="4.72765">
        <ele>349</ele>
        <time>2010-08-18T14:47:02Z</time>
      </trkpt>
      <trkpt lat="45.44932" lon="4.72754">
        <ele>349</ele>
        <time>2010-08-18T14:47:12Z</time>
      </trkpt>
      <trkpt lat="45.44925" lon="4.72744">
        <ele>355</ele>
        <time>2010-08-18T14:48:03Z</time>
      </trkpt>
      <trkpt lat="45.44919" lon="4.72733">
        <ele>355</ele>
        <time>2010-08-18T14:48:15Z</time>
      </trkpt>
      <trkpt lat="45.44914" lon="4.72722">
        <ele>355</ele>
        <time>2010-08-18T14:48:26Z</time>
      </trkpt>
      <trkpt lat="45.44906" lon="4.72714">
        <ele>355</ele>
        <time>2010-08-18T14:48:38Z</time>
      </trkpt>
      <trkpt lat="45.44898" lon="4.72706">
        <ele>355</ele>
        <time>2010-08-18T14:48:47Z</time>
      </trkpt>
      <trkpt lat="45.44893" lon="4.72694">
        <ele>355</ele>
        <time>2010-08-18T14:48:56Z</time>
      </trkpt>
      <trkpt lat="45.44888" lon="4.72682">
        <ele>355</ele>
        <time>2010-08-18T14:49:05Z</time>
      </trkpt>
      <trkpt lat="45.44881" lon="4.72672">
        <ele>355</ele>
        <time>2010-08-18T14:49:13Z</time>
      </trkpt>
      <trkpt lat="45.44875" lon="4.72661">
        <ele>355</ele>
        <time>2010-08-18T14:49:23Z</time>
      </trkpt>
      <trkpt lat="45.44869" lon="4.72651">
        <ele>355</ele>
        <time>2010-08-18T14:49:32Z</time>
      </trkpt>
      <trkpt lat="45.44863" lon="4.7264">
        <ele>360</ele>
        <time>2010-08-18T14:49:42Z</time>
      </trkpt>
      <trkpt lat="45.44857" lon="4.72628">
        <ele>360</ele>
        <time>2010-08-18T14:49:51Z</time>
      </trkpt>
      <trkpt lat="45.44852" lon="4.72615">
        <ele>360</ele>
        <time>2010-08-18T14:50:00Z</time>
      </trkpt>
      <trkpt lat="45.44846" lon="4.72604">
        <ele>360</ele>
        <time>2010-08-18T14:50:08Z</time>
      </trkpt>
      <trkpt lat="45.44841" lon="4.72591">
        <ele>360</ele>
        <time>2010-08-18T14:50:16Z</time>
      </trkpt>
      <trkpt lat="45.4484" lon="4.72578">
        <ele>360</ele>
        <time>2010-08-18T14:50:24Z</time>
      </trkpt>
      <trkpt lat="45.44836" lon="4.72565">
        <ele>360</ele>
        <time>2010-08-18T14:50:31Z</time>
      </trkpt>
      <trkpt lat="45.44834" lon="4.72552">
        <ele>360</ele>
        <time>2010-08-18T14:50:41Z</time>
      </trkpt>
      <trkpt lat="45.44826" lon="4.72543">
        <ele>360</ele>
        <time>2010-08-18T14:50:48Z</time>
      </trkpt>
      <trkpt lat="45.44817" lon="4.72545">
        <ele>360</ele>
        <time>2010-08-18T14:50:58Z</time>
      </trkpt>
      <trkpt lat="45.44807" lon="4.72548">
        <ele>367</ele>
        <time>2010-08-18T14:51:07Z</time>
      </trkpt>
      <trkpt lat="45.44798" lon="4.72552">
        <ele>367</ele>
        <time>2010-08-18T14:51:17Z</time>
      </trkpt>
      <trkpt lat="45.44788" lon="4.72553">
        <ele>367</ele>
        <time>2010-08-18T14:51:24Z</time>
      </trkpt>
      <trkpt lat="45.44778" lon="4.72553">
        <ele>367</ele>
        <time>2010-08-18T14:51:32Z</time>
      </trkpt>
      <trkpt lat="45.44769" lon="4.7255">
        <ele>367</ele>
        <time>2010-08-18T14:51:42Z</time>
      </trkpt>
      <trkpt lat="45.44763" lon="4.7254">
        <ele>367</ele>
        <time>2010-08-18T14:51:50Z</time>
      </trkpt>
      <trkpt lat="45.44757" lon="4.72529">
        <ele>367</ele>
        <time>2010-08-18T14:51:57Z</time>
      </trkpt>
      <trkpt lat="45.44751" lon="4.72517">
        <ele>367</ele>
        <time>2010-08-18T14:52:05Z</time>
      </trkpt>
      <trkpt lat="45.44746" lon="4.72506">
        <ele>367</ele>
        <time>2010-08-18T14:52:13Z</time>
      </trkpt>
      <trkpt lat="45.44741" lon="4.72493">
        <ele>367</ele>
        <time>2010-08-18T14:52:22Z</time>
      </trkpt>
      <trkpt lat="45.44736" lon="4.72482">
        <ele>367</ele>
        <time>2010-08-18T14:52:30Z</time>
      </trkpt>
      <trkpt lat="45.4473" lon="4.7247">
        <ele>367</ele>
        <time>2010-08-18T14:52:38Z</time>
      </trkpt>
      <trkpt lat="45.44725" lon="4.72458">
        <ele>367</ele>
        <time>2010-08-18T14:52:46Z</time>
      </trkpt>
      <trkpt lat="45.44721" lon="4.72447">
        <ele>367</ele>
        <time>2010-08-18T14:52:54Z</time>
      </trkpt>
      <trkpt lat="45.44716" lon="4.72435">
        <ele>367</ele>
        <time>2010-08-18T14:53:03Z</time>
      </trkpt>
      <trkpt lat="45.44709" lon="4.72424">
        <ele>372</ele>
        <time>2010-08-18T14:53:11Z</time>
      </trkpt>
      <trkpt lat="45.44701" lon="4.72415">
        <ele>372</ele>
        <time>2010-08-18T14:53:19Z</time>
      </trkpt>
      <trkpt lat="45.44694" lon="4.72407">
        <ele>372</ele>
        <time>2010-08-18T14:53:26Z</time>
      </trkpt>
      <trkpt lat="45.44687" lon="4.72397">
        <ele>372</ele>
        <time>2010-08-18T14:53:34Z</time>
      </trkpt>
      <trkpt lat="45.44679" lon="4.72387">
        <ele>372</ele>
        <time>2010-08-18T14:53:43Z</time>
      </trkpt>
      <trkpt lat="45.44672" lon="4.72378">
        <ele>372</ele>
        <time>2010-08-18T14:54:12Z</time>
      </trkpt>
      <trkpt lat="45.44675" lon="4.72366">
        <ele>372</ele>
        <time>2010-08-18T14:55:57Z</time>
      </trkpt>
      <trkpt lat="45.4468" lon="4.72355">
        <ele>372</ele>
        <time>2010-08-18T14:56:05Z</time>
      </trkpt>
      <trkpt lat="45.44685" lon="4.72342">
        <ele>372</ele>
        <time>2010-08-18T14:56:13Z</time>
      </trkpt>
      <trkpt lat="45.44687" lon="4.72329">
        <ele>372</ele>
        <time>2010-08-18T14:56:22Z</time>
      </trkpt>
      <trkpt lat="45.44692" lon="4.72317">
        <ele>372</ele>
        <time>2010-08-18T14:56:30Z</time>
      </trkpt>
      <trkpt lat="45.44696" lon="4.72305">
        <ele>372</ele>
        <time>2010-08-18T14:56:38Z</time>
      </trkpt>
      <trkpt lat="45.44696" lon="4.72291">
        <ele>372</ele>
        <time>2010-08-18T14:56:47Z</time>
      </trkpt>
      <trkpt lat="45.44689" lon="4.72283">
        <ele>372</ele>
        <time>2010-08-18T14:56:55Z</time>
      </trkpt>
      <trkpt lat="45.44681" lon="4.72274">
        <ele>372</ele>
        <time>2010-08-18T14:57:04Z</time>
      </trkpt>
      <trkpt lat="45.44672" lon="4.72266">
        <ele>379</ele>
        <time>2010-08-18T14:57:13Z</time>
      </trkpt>
      <trkpt lat="45.44665" lon="4.72257">
        <ele>379</ele>
        <time>2010-08-18T14:57:21Z</time>
      </trkpt>
      <trkpt lat="45.44658" lon="4.72248">
        <ele>379</ele>
        <time>2010-08-18T14:57:29Z</time>
      </trkpt>
      <trkpt lat="45.44651" lon="4.72239">
        <ele>379</ele>
        <time>2010-08-18T14:57:37Z</time>
      </trkpt>
      <trkpt lat="45.44644" lon="4.7223">
        <ele>379</ele>
        <time>2010-08-18T14:57:46Z</time>
      </trkpt>
      <trkpt lat="45.44636" lon="4.72222">
        <ele>379</ele>
        <time>2010-08-18T14:57:52Z</time>
      </trkpt>
      <trkpt lat="45.44632" lon="4.72209">
        <ele>379</ele>
        <time>2010-08-18T14:58:01Z</time>
      </trkpt>
      <trkpt lat="45.44626" lon="4.72197">
        <ele>384</ele>
        <time>2010-08-18T14:58:09Z</time>
      </trkpt>
      <trkpt lat="45.4462" lon="4.72186">
        <ele>384</ele>
        <time>2010-08-18T14:58:16Z</time>
      </trkpt>
      <trkpt lat="45.44616" lon="4.72173">
        <ele>384</ele>
        <time>2010-08-18T14:58:26Z</time>
      </trkpt>
      <trkpt lat="45.44611" lon="4.72162">
        <ele>384</ele>
        <time>2010-08-18T14:58:33Z</time>
      </trkpt>
      <trkpt lat="45.44608" lon="4.72149">
        <ele>384</ele>
        <time>2010-08-18T14:58:41Z</time>
      </trkpt>
      <trkpt lat="45.44605" lon="4.72136">
        <ele>384</ele>
        <time>2010-08-18T14:58:50Z</time>
      </trkpt>
      <trkpt lat="45.44602" lon="4.72121">
        <ele>384</ele>
        <time>2010-08-18T14:58:58Z</time>
      </trkpt>
      <trkpt lat="45.44601" lon="4.72107">
        <ele>384</ele>
        <time>2010-08-18T14:59:06Z</time>
      </trkpt>
      <trkpt lat="45.44599" lon="4.72093">
        <ele>384</ele>
        <time>2010-08-18T14:59:13Z</time>
      </trkpt>
      <trkpt lat="45.44598" lon="4.72079">
        <ele>384</ele>
        <time>2010-08-18T14:59:22Z</time>
      </trkpt>
      <trkpt lat="45.44597" lon="4.72066">
        <ele>384</ele>
        <time>2010-08-18T14:59:29Z</time>
      </trkpt>
      <trkpt lat="45.44596" lon="4.72052">
        <ele>384</ele>
        <time>2010-08-18T14:59:37Z</time>
      </trkpt>
      <trkpt lat="45.44594" lon="4.72038">
        <ele>389</ele>
        <time>2010-08-18T14:59:45Z</time>
      </trkpt>
      <trkpt lat="45.44592" lon="4.72024">
        <ele>389</ele>
        <time>2010-08-18T14:59:53Z</time>
      </trkpt>
      <trkpt lat="45.44591" lon="4.72011">
        <ele>389</ele>
        <time>2010-08-18T15:00:02Z</time>
      </trkpt>
      <trkpt lat="45.44586" lon="4.71996">
        <ele>394</ele>
        <time>2010-08-18T15:00:12Z</time>
      </trkpt>
      <trkpt lat="45.44582" lon="4.71985">
        <ele>394</ele>
        <time>2010-08-18T15:00:20Z</time>
      </trkpt>
      <trkpt lat="45.44575" lon="4.71974">
        <ele>394</ele>
        <time>2010-08-18T15:00:29Z</time>
      </trkpt>
      <trkpt lat="45.44573" lon="4.71961">
        <ele>400</ele>
        <time>2010-08-18T15:00:38Z</time>
      </trkpt>
      <trkpt lat="45.44568" lon="4.71949">
        <ele>400</ele>
        <time>2010-08-18T15:00:48Z</time>
      </trkpt>
      <trkpt lat="45.44563" lon="4.71937">
        <ele>400</ele>
        <time>2010-08-18T15:00:57Z</time>
      </trkpt>
      <trkpt lat="45.44558" lon="4.71926">
        <ele>400</ele>
        <time>2010-08-18T15:01:05Z</time>
      </trkpt>
      <trkpt lat="45.44553" lon="4.71915">
        <ele>400</ele>
        <time>2010-08-18T15:01:15Z</time>
      </trkpt>
      <trkpt lat="45.44547" lon="4.71904">
        <ele>400</ele>
        <time>2010-08-18T15:01:24Z</time>
      </trkpt>
      <trkpt lat="45.44544" lon="4.71891">
        <ele>400</ele>
        <time>2010-08-18T15:01:34Z</time>
      </trkpt>
      <trkpt lat="45.44538" lon="4.71879">
        <ele>400</ele>
        <time>2010-08-18T15:01:43Z</time>
      </trkpt>
      <trkpt lat="45.44532" lon="4.71868">
        <ele>405</ele>
        <time>2010-08-18T15:01:52Z</time>
      </trkpt>
      <trkpt lat="45.44528" lon="4.71855">
        <ele>405</ele>
        <time>2010-08-18T15:02:02Z</time>
      </trkpt>
      <trkpt lat="45.44529" lon="4.7184">
        <ele>405</ele>
        <time>2010-08-18T15:02:12Z</time>
      </trkpt>
      <trkpt lat="45.44524" lon="4.71828">
        <ele>405</ele>
        <time>2010-08-18T15:02:20Z</time>
      </trkpt>
      <trkpt lat="45.44518" lon="4.71817">
        <ele>405</ele>
        <time>2010-08-18T15:02:27Z</time>
      </trkpt>
      <trkpt lat="45.44515" lon="4.71804">
        <ele>405</ele>
        <time>2010-08-18T15:02:37Z</time>
      </trkpt>
      <trkpt lat="45.4451" lon="4.71792">
        <ele>411</ele>
        <time>2010-08-18T15:02:47Z</time>
      </trkpt>
      <trkpt lat="45.44505" lon="4.71779">
        <ele>411</ele>
        <time>2010-08-18T15:02:56Z</time>
      </trkpt>
      <trkpt lat="45.44499" lon="4.71769">
        <ele>411</ele>
        <time>2010-08-18T15:03:04Z</time>
      </trkpt>
      <trkpt lat="45.4449" lon="4.71763">
        <ele>411</ele>
        <time>2010-08-18T15:03:11Z</time>
      </trkpt>
      <trkpt lat="45.44481" lon="4.71758">
        <ele>411</ele>
        <time>2010-08-18T15:03:19Z</time>
      </trkpt>
      <trkpt lat="45.44471" lon="4.71752">
        <ele>411</ele>
        <time>2010-08-18T15:03:27Z</time>
      </trkpt>
      <trkpt lat="45.44462" lon="4.71748">
        <ele>411</ele>
        <time>2010-08-18T15:03:35Z</time>
      </trkpt>
      <trkpt lat="45.44453" lon="4.71741">
        <ele>411</ele>
        <time>2010-08-18T15:03:42Z</time>
      </trkpt>
      <trkpt lat="45.44445" lon="4.71733">
        <ele>411</ele>
        <time>2010-08-18T15:03:49Z</time>
      </trkpt>
      <trkpt lat="45.44438" lon="4.71724">
        <ele>411</ele>
        <time>2010-08-18T15:03:58Z</time>
      </trkpt>
      <trkpt lat="45.4443" lon="4.71715">
        <ele>411</ele>
        <time>2010-08-18T15:04:06Z</time>
      </trkpt>
      <trkpt lat="45.44424" lon="4.71704">
        <ele>411</ele>
        <time>2010-08-18T15:04:15Z</time>
      </trkpt>
      <trkpt lat="45.44418" lon="4.71691">
        <ele>411</ele>
        <time>2010-08-18T15:04:23Z</time>
      </trkpt>
      <trkpt lat="45.44412" lon="4.7168">
        <ele>411</ele>
        <time>2010-08-18T15:04:30Z</time>
      </trkpt>
      <trkpt lat="45.44406" lon="4.71669">
        <ele>411</ele>
        <time>2010-08-18T15:04:37Z</time>
      </trkpt>
      <trkpt lat="45.444" lon="4.71658">
        <ele>411</ele>
        <time>2010-08-18T15:04:44Z</time>
      </trkpt>
      <trkpt lat="45.44394" lon="4.71647">
        <ele>411</ele>
        <time>2010-08-18T15:04:52Z</time>
      </trkpt>
      <trkpt lat="45.44386" lon="4.71638">
        <ele>417</ele>
        <time>2010-08-18T15:05:01Z</time>
      </trkpt>
      <trkpt lat="45.44378" lon="4.71628">
        <ele>417</ele>
        <time>2010-08-18T15:05:09Z</time>
      </trkpt>
      <trkpt lat="45.44372" lon="4.71617">
        <ele>417</ele>
        <time>2010-08-18T15:05:18Z</time>
      </trkpt>
      <trkpt lat="45.44364" lon="4.71608">
        <ele>417</ele>
        <time>2010-08-18T15:05:26Z</time>
      </trkpt>
      <trkpt lat="45.44357" lon="4.71599">
        <ele>417</ele>
        <time>2010-08-18T15:05:35Z</time>
      </trkpt>
      <trkpt lat="45.4435" lon="4.71589">
        <ele>417</ele>
        <time>2010-08-18T15:06:11Z</time>
      </trkpt>
      <trkpt lat="45.44353" lon="4.71576">
        <ele>417</ele>
        <time>2010-08-18T15:06:20Z</time>
      </trkpt>
      <trkpt lat="45.44354" lon="4.71563">
        <ele>417</ele>
        <time>2010-08-18T15:06:28Z</time>
      </trkpt>
      <trkpt lat="45.44356" lon="4.71549">
        <ele>417</ele>
        <time>2010-08-18T15:06:37Z</time>
      </trkpt>
      <trkpt lat="45.44357" lon="4.71536">
        <ele>423</ele>
        <time>2010-08-18T15:06:44Z</time>
      </trkpt>
      <trkpt lat="45.44356" lon="4.71521">
        <ele>423</ele>
        <time>2010-08-18T15:06:52Z</time>
      </trkpt>
      <trkpt lat="45.4436" lon="4.71508">
        <ele>423</ele>
        <time>2010-08-18T15:06:59Z</time>
      </trkpt>
      <trkpt lat="45.4436" lon="4.71494">
        <ele>423</ele>
        <time>2010-08-18T15:07:07Z</time>
      </trkpt>
      <trkpt lat="45.44361" lon="4.7148">
        <ele>423</ele>
        <time>2010-08-18T15:07:15Z</time>
      </trkpt>
      <trkpt lat="45.44362" lon="4.71466">
        <ele>423</ele>
        <time>2010-08-18T15:07:23Z</time>
      </trkpt>
      <trkpt lat="45.44364" lon="4.71452">
        <ele>423</ele>
        <time>2010-08-18T15:07:31Z</time>
      </trkpt>
      <trkpt lat="45.44365" lon="4.71439">
        <ele>423</ele>
        <time>2010-08-18T15:07:38Z</time>
      </trkpt>
      <trkpt lat="45.44365" lon="4.71425">
        <ele>423</ele>
        <time>2010-08-18T15:07:47Z</time>
      </trkpt>
      <trkpt lat="45.44364" lon="4.71411">
        <ele>423</ele>
        <time>2010-08-18T15:07:56Z</time>
      </trkpt>
      <trkpt lat="45.44364" lon="4.71397">
        <ele>423</ele>
        <time>2010-08-18T15:08:02Z</time>
      </trkpt>
      <trkpt lat="45.44362" lon="4.71383">
        <ele>423</ele>
        <time>2010-08-18T15:08:09Z</time>
      </trkpt>
      <trkpt lat="45.44364" lon="4.71369">
        <ele>423</ele>
        <time>2010-08-18T15:08:16Z</time>
      </trkpt>
      <trkpt lat="45.44361" lon="4.71357">
        <ele>423</ele>
        <time>2010-08-18T15:08:25Z</time>
      </trkpt>
      <trkpt lat="45.44357" lon="4.71345">
        <ele>429</ele>
        <time>2010-08-18T15:08:33Z</time>
      </trkpt>
      <trkpt lat="45.44352" lon="4.71333">
        <ele>429</ele>
        <time>2010-08-18T15:08:41Z</time>
      </trkpt>
      <trkpt lat="45.44348" lon="4.7132">
        <ele>435</ele>
        <time>2010-08-18T15:08:49Z</time>
      </trkpt>
      <trkpt lat="45.44343" lon="4.71308">
        <ele>435</ele>
        <time>2010-08-18T15:08:58Z</time>
      </trkpt>
      <trkpt lat="45.4434" lon="4.71296">
        <ele>435</ele>
        <time>2010-08-18T15:09:05Z</time>
      </trkpt>
      <trkpt lat="45.44337" lon="4.71282">
        <ele>435</ele>
        <time>2010-08-18T15:09:13Z</time>
      </trkpt>
      <trkpt lat="45.44333" lon="4.71269">
        <ele>435</ele>
        <time>2010-08-18T15:09:20Z</time>
      </trkpt>
      <trkpt lat="45.44331" lon="4.71254">
        <ele>435</ele>
        <time>2010-08-18T15:09:27Z</time>
      </trkpt>
      <trkpt lat="45.44328" lon="4.71242">
        <ele>435</ele>
        <time>2010-08-18T15:09:35Z</time>
      </trkpt>
      <trkpt lat="45.44326" lon="4.71228">
        <ele>435</ele>
        <time>2010-08-18T15:09:43Z</time>
      </trkpt>
      <trkpt lat="45.44323" lon="4.71215">
        <ele>435</ele>
        <time>2010-08-18T15:09:51Z</time>
      </trkpt>
      <trkpt lat="45.44322" lon="4.71201">
        <ele>440</ele>
        <time>2010-08-18T15:09:59Z</time>
      </trkpt>
      <trkpt lat="45.44321" lon="4.71188">
        <ele>440</ele>
        <time>2010-08-18T15:10:07Z</time>
      </trkpt>
      <trkpt lat="45.44322" lon="4.71175">
        <ele>440</ele>
        <time>2010-08-18T15:10:14Z</time>
      </trkpt>
      <trkpt lat="45.44322" lon="4.71161">
        <ele>440</ele>
        <time>2010-08-18T15:10:22Z</time>
      </trkpt>
      <trkpt lat="45.44321" lon="4.71148">
        <ele>440</ele>
        <time>2010-08-18T15:10:31Z</time>
      </trkpt>
      <trkpt lat="45.44321" lon="4.71132">
        <ele>440</ele>
        <time>2010-08-18T15:10:42Z</time>
      </trkpt>
      <trkpt lat="45.4432" lon="4.71117">
        <ele>440</ele>
        <time>2010-08-18T15:10:51Z</time>
      </trkpt>
      <trkpt lat="45.44318" lon="4.71103">
        <ele>440</ele>
        <time>2010-08-18T15:11:00Z</time>
      </trkpt>
      <trkpt lat="45.44317" lon="4.71089">
        <ele>440</ele>
        <time>2010-08-18T15:11:08Z</time>
      </trkpt>
      <trkpt lat="45.44313" lon="4.71076">
        <ele>440</ele>
        <time>2010-08-18T15:11:16Z</time>
      </trkpt>
      <trkpt lat="45.44309" lon="4.71063">
        <ele>446</ele>
        <time>2010-08-18T15:11:25Z</time>
      </trkpt>
      <trkpt lat="45.4431" lon="4.71049">
        <ele>446</ele>
        <time>2010-08-18T15:11:35Z</time>
      </trkpt>
      <trkpt lat="45.44307" lon="4.71035">
        <ele>446</ele>
        <time>2010-08-18T15:11:45Z</time>
      </trkpt>
      <trkpt lat="45.44303" lon="4.71024">
        <ele>455</ele>
        <time>2010-08-18T15:11:53Z</time>
      </trkpt>
      <trkpt lat="45.44295" lon="4.71015">
        <ele>455</ele>
        <time>2010-08-18T15:12:00Z</time>
      </trkpt>
      <trkpt lat="45.44288" lon="4.71005">
        <ele>455</ele>
        <time>2010-08-18T15:12:07Z</time>
      </trkpt>
      <trkpt lat="45.4428" lon="4.70995">
        <ele>455</ele>
        <time>2010-08-18T15:12:16Z</time>
      </trkpt>
      <trkpt lat="45.44272" lon="4.70985">
        <ele>455</ele>
        <time>2010-08-18T15:12:23Z</time>
      </trkpt>
      <trkpt lat="45.44266" lon="4.70972">
        <ele>455</ele>
        <time>2010-08-18T15:12:31Z</time>
      </trkpt>
      <trkpt lat="45.44261" lon="4.70959">
        <ele>449</ele>
        <time>2010-08-18T15:12:40Z</time>
      </trkpt>
      <trkpt lat="45.44255" lon="4.70949">
        <ele>449</ele>
        <time>2010-08-18T15:12:46Z</time>
      </trkpt>
      <trkpt lat="45.4425" lon="4.70936">
        <ele>449</ele>
        <time>2010-08-18T15:12:54Z</time>
      </trkpt>
      <trkpt lat="45.44245" lon="4.70924">
        <ele>449</ele>
        <time>2010-08-18T15:13:02Z</time>
      </trkpt>
      <trkpt lat="45.44241" lon="4.7091">
        <ele>449</ele>
        <time>2010-08-18T15:13:12Z</time>
      </trkpt>
      <trkpt lat="45.44237" lon="4.70899">
        <ele>449</ele>
        <time>2010-08-18T15:13:19Z</time>
      </trkpt>
      <trkpt lat="45.44231" lon="4.70887">
        <ele>449</ele>
        <time>2010-08-18T15:13:25Z</time>
      </trkpt>
      <trkpt lat="45.44229" lon="4.70873">
        <ele>449</ele>
        <time>2010-08-18T15:13:36Z</time>
      </trkpt>
      <trkpt lat="45.44223" lon="4.70861">
        <ele>449</ele>
        <time>2010-08-18T15:13:42Z</time>
      </trkpt>
      <trkpt lat="45.44217" lon="4.7085">
        <ele>449</ele>
        <time>2010-08-18T15:13:48Z</time>
      </trkpt>
      <trkpt lat="45.44212" lon="4.70839">
        <ele>449</ele>
        <time>2010-08-18T15:13:55Z</time>
      </trkpt>
      <trkpt lat="45.44209" lon="4.70826">
        <ele>449</ele>
        <time>2010-08-18T15:14:03Z</time>
      </trkpt>
      <trkpt lat="45.44207" lon="4.70812">
        <ele>449</ele>
        <time>2010-08-18T15:14:11Z</time>
      </trkpt>
      <trkpt lat="45.44204" lon="4.70798">
        <ele>449</ele>
        <time>2010-08-18T15:14:19Z</time>
      </trkpt>
      <trkpt lat="45.44202" lon="4.70784">
        <ele>449</ele>
        <time>2010-08-18T15:14:27Z</time>
      </trkpt>
      <trkpt lat="45.442" lon="4.7077">
        <ele>449</ele>
        <time>2010-08-18T15:14:35Z</time>
      </trkpt>
      <trkpt lat="45.44197" lon="4.70758">
        <ele>449</ele>
        <time>2010-08-18T15:14:42Z</time>
      </trkpt>
      <trkpt lat="45.44195" lon="4.70745">
        <ele>449</ele>
        <time>2010-08-18T15:14:49Z</time>
      </trkpt>
      <trkpt lat="45.44192" lon="4.70732">
        <ele>449</ele>
        <time>2010-08-18T15:14:57Z</time>
      </trkpt>
      <trkpt lat="45.44189" lon="4.70718">
        <ele>449</ele>
        <time>2010-08-18T15:15:05Z</time>
      </trkpt>
      <trkpt lat="45.44188" lon="4.70705">
        <ele>449</ele>
        <time>2010-08-18T15:15:13Z</time>
      </trkpt>
      <trkpt lat="45.44187" lon="4.7069">
        <ele>449</ele>
        <time>2010-08-18T15:15:21Z</time>
      </trkpt>
      <trkpt lat="45.44184" lon="4.70678">
        <ele>449</ele>
        <time>2010-08-18T15:15:28Z</time>
      </trkpt>
      <trkpt lat="45.4418" lon="4.70665">
        <ele>449</ele>
        <time>2010-08-18T15:15:37Z</time>
      </trkpt>
      <trkpt lat="45.44177" lon="4.70653">
        <ele>449</ele>
        <time>2010-08-18T15:16:29Z</time>
      </trkpt>
      <trkpt lat="45.44175" lon="4.70637">
        <ele>449</ele>
        <time>2010-08-18T15:16:41Z</time>
      </trkpt>
      <trkpt lat="45.44171" lon="4.70626">
        <ele>449</ele>
        <time>2010-08-18T15:16:49Z</time>
      </trkpt>
      <trkpt lat="45.44167" lon="4.70613">
        <ele>449</ele>
        <time>2010-08-18T15:16:56Z</time>
      </trkpt>
      <trkpt lat="45.44161" lon="4.70603">
        <ele>449</ele>
        <time>2010-08-18T15:17:03Z</time>
      </trkpt>
      <trkpt lat="45.44158" lon="4.7059">
        <ele>449</ele>
        <time>2010-08-18T15:17:10Z</time>
      </trkpt>
      <trkpt lat="45.44154" lon="4.70577">
        <ele>449</ele>
        <time>2010-08-18T15:17:17Z</time>
      </trkpt>
      <trkpt lat="45.4415" lon="4.70563">
        <ele>449</ele>
        <time>2010-08-18T15:17:25Z</time>
      </trkpt>
      <trkpt lat="45.44147" lon="4.70549">
        <ele>449</ele>
        <time>2010-08-18T15:17:33Z</time>
      </trkpt>
      <trkpt lat="45.4414" lon="4.70539">
        <ele>449</ele>
        <time>2010-08-18T15:17:40Z</time>
      </trkpt>
      <trkpt lat="45.44135" lon="4.70528">
        <ele>440</ele>
        <time>2010-08-18T15:17:48Z</time>
      </trkpt>
      <trkpt lat="45.4413" lon="4.70516">
        <ele>440</ele>
        <time>2010-08-18T15:17:55Z</time>
      </trkpt>
      <trkpt lat="45.44126" lon="4.70503">
        <ele>440</ele>
        <time>2010-08-18T15:18:02Z</time>
      </trkpt>
      <trkpt lat="45.44121" lon="4.70492">
        <ele>440</ele>
        <time>2010-08-18T15:18:09Z</time>
      </trkpt>
      <trkpt lat="45.44116" lon="4.7048">
        <ele>440</ele>
        <time>2010-08-18T15:18:16Z</time>
      </trkpt>
      <trkpt lat="45.44112" lon="4.70467">
        <ele>440</ele>
        <time>2010-08-18T15:18:24Z</time>
      </trkpt>
      <trkpt lat="45.44107" lon="4.70455">
        <ele>440</ele>
        <time>2010-08-18T15:18:31Z</time>
      </trkpt>
      <trkpt lat="45.44104" lon="4.70442">
        <ele>440</ele>
        <time>2010-08-18T15:18:39Z</time>
      </trkpt>
      <trkpt lat="45.44101" lon="4.7043">
        <ele>440</ele>
        <time>2010-08-18T15:18:46Z</time>
      </trkpt>
      <trkpt lat="45.44098" lon="4.70416">
        <ele>440</ele>
        <time>2010-08-18T15:18:54Z</time>
      </trkpt>
      <trkpt lat="45.44093" lon="4.70405">
        <ele>440</ele>
        <time>2010-08-18T15:19:00Z</time>
      </trkpt>
      <trkpt lat="45.44088" lon="4.70392">
        <ele>440</ele>
        <time>2010-08-18T15:19:07Z</time>
      </trkpt>
      <trkpt lat="45.44084" lon="4.70379">
        <ele>445</ele>
        <time>2010-08-18T15:19:15Z</time>
      </trkpt>
      <trkpt lat="45.4408" lon="4.70368">
        <ele>445</ele>
        <time>2010-08-18T15:19:22Z</time>
      </trkpt>
      <trkpt lat="45.44075" lon="4.70355">
        <ele>445</ele>
        <time>2010-08-18T15:19:30Z</time>
      </trkpt>
      <trkpt lat="45.4407" lon="4.70343">
        <ele>445</ele>
        <time>2010-08-18T15:19:38Z</time>
      </trkpt>
      <trkpt lat="45.44067" lon="4.7033">
        <ele>445</ele>
        <time>2010-08-18T15:19:46Z</time>
      </trkpt>
      <trkpt lat="45.44063" lon="4.70318">
        <ele>445</ele>
        <time>2010-08-18T15:19:53Z</time>
      </trkpt>
      <trkpt lat="45.44058" lon="4.70306">
        <ele>445</ele>
        <time>2010-08-18T15:20:01Z</time>
      </trkpt>
      <trkpt lat="45.44054" lon="4.70293">
        <ele>445</ele>
        <time>2010-08-18T15:20:09Z</time>
      </trkpt>
      <trkpt lat="45.44051" lon="4.70281">
        <ele>445</ele>
        <time>2010-08-18T15:20:16Z</time>
      </trkpt>
      <trkpt lat="45.44044" lon="4.70269">
        <ele>445</ele>
        <time>2010-08-18T15:20:24Z</time>
      </trkpt>
      <trkpt lat="45.4404" lon="4.70257">
        <ele>445</ele>
        <time>2010-08-18T15:20:31Z</time>
      </trkpt>
      <trkpt lat="45.44035" lon="4.70246">
        <ele>445</ele>
        <time>2010-08-18T15:20:38Z</time>
      </trkpt>
      <trkpt lat="45.4403" lon="4.70235">
        <ele>445</ele>
        <time>2010-08-18T15:20:45Z</time>
      </trkpt>
      <trkpt lat="45.44024" lon="4.70223">
        <ele>451</ele>
        <time>2010-08-18T15:20:53Z</time>
      </trkpt>
      <trkpt lat="45.44021" lon="4.70211">
        <ele>451</ele>
        <time>2010-08-18T15:21:01Z</time>
      </trkpt>
      <trkpt lat="45.44018" lon="4.70198">
        <ele>451</ele>
        <time>2010-08-18T15:21:31Z</time>
      </trkpt>
      <trkpt lat="45.44018" lon="4.70185">
        <ele>451</ele>
        <time>2010-08-18T15:21:39Z</time>
      </trkpt>
      <trkpt lat="45.44018" lon="4.70171">
        <ele>451</ele>
        <time>2010-08-18T15:21:47Z</time>
      </trkpt>
      <trkpt lat="45.44017" lon="4.70158">
        <ele>451</ele>
        <time>2010-08-18T15:21:54Z</time>
      </trkpt>
      <trkpt lat="45.44015" lon="4.70143">
        <ele>451</ele>
        <time>2010-08-18T15:22:02Z</time>
      </trkpt>
      <trkpt lat="45.44011" lon="4.7013">
        <ele>451</ele>
        <time>2010-08-18T15:22:10Z</time>
      </trkpt>
      <trkpt lat="45.44006" lon="4.70116">
        <ele>451</ele>
        <time>2010-08-18T15:22:18Z</time>
      </trkpt>
      <trkpt lat="45.44002" lon="4.70104">
        <ele>451</ele>
        <time>2010-08-18T15:22:26Z</time>
      </trkpt>
      <trkpt lat="45.43999" lon="4.70091">
        <ele>451</ele>
        <time>2010-08-18T15:22:33Z</time>
      </trkpt>
      <trkpt lat="45.43995" lon="4.70078">
        <ele>451</ele>
        <time>2010-08-18T15:22:41Z</time>
      </trkpt>
      <trkpt lat="45.4399" lon="4.70066">
        <ele>451</ele>
        <time>2010-08-18T15:22:53Z</time>
      </trkpt>
      <trkpt lat="45.43987" lon="4.70053">
        <ele>451</ele>
        <time>2010-08-18T15:23:02Z</time>
      </trkpt>
      <trkpt lat="45.43982" lon="4.70041">
        <ele>451</ele>
        <time>2010-08-18T15:23:10Z</time>
      </trkpt>
      <trkpt lat="45.43978" lon="4.70027">
        <ele>451</ele>
        <time>2010-08-18T15:23:18Z</time>
      </trkpt>
      <trkpt lat="45.43981" lon="4.70015">
        <ele>451</ele>
        <time>2010-08-18T15:23:33Z</time>
      </trkpt>
      <trkpt lat="45.43991" lon="4.70011">
        <ele>451</ele>
        <time>2010-08-18T15:23:43Z</time>
      </trkpt>
      <trkpt lat="45.44001" lon="4.70008">
        <ele>451</ele>
        <time>2010-08-18T15:23:54Z</time>
      </trkpt>
      <trkpt lat="45.4401" lon="4.70007">
        <ele>451</ele>
        <time>2010-08-18T15:25:03Z</time>
      </trkpt>
      <trkpt lat="45.4402" lon="4.70007">
        <ele>451</ele>
        <time>2010-08-18T15:25:13Z</time>
      </trkpt>
      <trkpt lat="45.44028" lon="4.70002">
        <ele>451</ele>
        <time>2010-08-18T15:25:20Z</time>
      </trkpt>
      <trkpt lat="45.44038" lon="4.69999">
        <ele>451</ele>
        <time>2010-08-18T15:25:29Z</time>
      </trkpt>
      <trkpt lat="45.44047" lon="4.69995">
        <ele>445</ele>
        <time>2010-08-18T15:25:37Z</time>
      </trkpt>
      <trkpt lat="45.44056" lon="4.69989">
        <ele>445</ele>
        <time>2010-08-18T15:25:45Z</time>
      </trkpt>
      <trkpt lat="45.44064" lon="4.69982">
        <ele>445</ele>
        <time>2010-08-18T15:25:54Z</time>
      </trkpt>
      <trkpt lat="45.44073" lon="4.6998">
        <ele>439</ele>
        <time>2010-08-18T15:26:05Z</time>
      </trkpt>
      <trkpt lat="45.44082" lon="4.69976">
        <ele>439</ele>
        <time>2010-08-18T15:26:17Z</time>
      </trkpt>
      <trkpt lat="45.44092" lon="4.69973">
        <ele>439</ele>
        <time>2010-08-18T15:26:25Z</time>
      </trkpt>
      <trkpt lat="45.44101" lon="4.69972">
        <ele>439</ele>
        <time>2010-08-18T15:26:31Z</time>
      </trkpt>
      <trkpt lat="45.44111" lon="4.69969">
        <ele>439</ele>
        <time>2010-08-18T15:26:38Z</time>
      </trkpt>
      <trkpt lat="45.44121" lon="4.69968">
        <ele>439</ele>
        <time>2010-08-18T15:26:47Z</time>
      </trkpt>
      <trkpt lat="45.4413" lon="4.69964">
        <ele>439</ele>
        <time>2010-08-18T15:26:54Z</time>
      </trkpt>
      <trkpt lat="45.44142" lon="4.69962">
        <ele>439</ele>
        <time>2010-08-18T15:27:04Z</time>
      </trkpt>
      <trkpt lat="45.44152" lon="4.69963">
        <ele>439</ele>
        <time>2010-08-18T15:27:11Z</time>
      </trkpt>
      <trkpt lat="45.44161" lon="4.6996">
        <ele>439</ele>
        <time>2010-08-18T15:27:18Z</time>
      </trkpt>
      <trkpt lat="45.44171" lon="4.69954">
        <ele>439</ele>
        <time>2010-08-18T15:27:25Z</time>
      </trkpt>
      <trkpt lat="45.4418" lon="4.69948">
        <ele>439</ele>
        <time>2010-08-18T15:27:33Z</time>
      </trkpt>
      <trkpt lat="45.44188" lon="4.69941">
        <ele>439</ele>
        <time>2010-08-18T15:27:40Z</time>
      </trkpt>
      <trkpt lat="45.44197" lon="4.69934">
        <ele>439</ele>
        <time>2010-08-18T15:27:48Z</time>
      </trkpt>
      <trkpt lat="45.44205" lon="4.69927">
        <ele>439</ele>
        <time>2010-08-18T15:27:55Z</time>
      </trkpt>
      <trkpt lat="45.44214" lon="4.6992">
        <ele>439</ele>
        <time>2010-08-18T15:28:01Z</time>
      </trkpt>
      <trkpt lat="45.44221" lon="4.69912">
        <ele>439</ele>
        <time>2010-08-18T15:28:09Z</time>
      </trkpt>
      <trkpt lat="45.44231" lon="4.69907">
        <ele>439</ele>
        <time>2010-08-18T15:28:16Z</time>
      </trkpt>
      <trkpt lat="45.44239" lon="4.699">
        <ele>439</ele>
        <time>2010-08-18T15:28:23Z</time>
      </trkpt>
      <trkpt lat="45.44247" lon="4.69894">
        <ele>439</ele>
        <time>2010-08-18T15:28:31Z</time>
      </trkpt>
      <trkpt lat="45.44255" lon="4.69887">
        <ele>439</ele>
        <time>2010-08-18T15:28:39Z</time>
      </trkpt>
      <trkpt lat="45.44264" lon="4.69883">
        <ele>439</ele>
        <time>2010-08-18T15:28:47Z</time>
      </trkpt>
      <trkpt lat="45.44273" lon="4.69876">
        <ele>439</ele>
        <time>2010-08-18T15:28:54Z</time>
      </trkpt>
      <trkpt lat="45.44282" lon="4.69871">
        <ele>439</ele>
        <time>2010-08-18T15:29:02Z</time>
      </trkpt>
      <trkpt lat="45.44291" lon="4.69866">
        <ele>439</ele>
        <time>2010-08-18T15:29:10Z</time>
      </trkpt>
      <trkpt lat="45.44301" lon="4.69862">
        <ele>444</ele>
        <time>2010-08-18T15:29:21Z</time>
      </trkpt>
      <trkpt lat="45.4431" lon="4.69859">
        <ele>457</ele>
        <time>2010-08-18T15:29:33Z</time>
      </trkpt>
      <trkpt lat="45.4432" lon="4.69853">
        <ele>457</ele>
        <time>2010-08-18T15:29:41Z</time>
      </trkpt>
      <trkpt lat="45.44329" lon="4.69848">
        <ele>457</ele>
        <time>2010-08-18T15:29:50Z</time>
      </trkpt>
      <trkpt lat="45.44337" lon="4.69854">
        <ele>440</ele>
        <time>2010-08-18T15:30:37Z</time>
      </trkpt>
      <trkpt lat="45.44341" lon="4.69867">
        <ele>440</ele>
        <time>2010-08-18T15:30:47Z</time>
      </trkpt>
      <trkpt lat="45.44346" lon="4.69878">
        <ele>448</ele>
        <time>2010-08-18T15:30:55Z</time>
      </trkpt>
      <trkpt lat="45.44352" lon="4.6989">
        <ele>448</ele>
        <time>2010-08-18T15:31:03Z</time>
      </trkpt>
      <trkpt lat="45.44357" lon="4.69902">
        <ele>448</ele>
        <time>2010-08-18T15:31:10Z</time>
      </trkpt>
      <trkpt lat="45.44364" lon="4.69911">
        <ele>448</ele>
        <time>2010-08-18T15:31:21Z</time>
      </trkpt>
      <trkpt lat="45.44371" lon="4.69923">
        <ele>448</ele>
        <time>2010-08-18T15:31:30Z</time>
      </trkpt>
      <trkpt lat="45.44378" lon="4.69932">
        <ele>448</ele>
        <time>2010-08-18T15:31:41Z</time>
      </trkpt>
      <trkpt lat="45.44387" lon="4.69928">
        <ele>448</ele>
        <time>2010-08-18T15:31:58Z</time>
      </trkpt>
      <trkpt lat="45.44394" lon="4.69919">
        <ele>448</ele>
        <time>2010-08-18T15:32:04Z</time>
      </trkpt>
      <trkpt lat="45.444" lon="4.69907">
        <ele>442</ele>
        <time>2010-08-18T15:32:11Z</time>
      </trkpt>
      <trkpt lat="45.44404" lon="4.69895">
        <ele>442</ele>
        <time>2010-08-18T15:32:19Z</time>
      </trkpt>
      <trkpt lat="45.44412" lon="4.69887">
        <ele>442</ele>
        <time>2010-08-18T15:32:26Z</time>
      </trkpt>
      <trkpt lat="45.4442" lon="4.69883">
        <ele>442</ele>
        <time>2010-08-18T15:32:34Z</time>
      </trkpt>
      <trkpt lat="45.44431" lon="4.69884">
        <ele>442</ele>
        <time>2010-08-18T15:32:42Z</time>
      </trkpt>
      <trkpt lat="45.44439" lon="4.69888">
        <ele>442</ele>
        <time>2010-08-18T15:32:48Z</time>
      </trkpt>
      <trkpt lat="45.44449" lon="4.69892">
        <ele>442</ele>
        <time>2010-08-18T15:32:55Z</time>
      </trkpt>
      <trkpt lat="45.44457" lon="4.69898">
        <ele>448</ele>
        <time>2010-08-18T15:33:02Z</time>
      </trkpt>
      <trkpt lat="45.44467" lon="4.69904">
        <ele>448</ele>
        <time>2010-08-18T15:33:11Z</time>
      </trkpt>
      <trkpt lat="45.44476" lon="4.69909">
        <ele>448</ele>
        <time>2010-08-18T15:33:19Z</time>
      </trkpt>
      <trkpt lat="45.44485" lon="4.69913">
        <ele>448</ele>
        <time>2010-08-18T15:33:27Z</time>
      </trkpt>
      <trkpt lat="45.44494" lon="4.69919">
        <ele>448</ele>
        <time>2010-08-18T15:33:35Z</time>
      </trkpt>
      <trkpt lat="45.44503" lon="4.6992">
        <ele>448</ele>
        <time>2010-08-18T15:33:43Z</time>
      </trkpt>
      <trkpt lat="45.44513" lon="4.6992">
        <ele>454</ele>
        <time>2010-08-18T15:33:51Z</time>
      </trkpt>
      <trkpt lat="45.44522" lon="4.69923">
        <ele>454</ele>
        <time>2010-08-18T15:33:59Z</time>
      </trkpt>
      <trkpt lat="45.44531" lon="4.69929">
        <ele>454</ele>
        <time>2010-08-18T15:34:07Z</time>
      </trkpt>
      <trkpt lat="45.44541" lon="4.69936">
        <ele>454</ele>
        <time>2010-08-18T15:34:16Z</time>
      </trkpt>
      <trkpt lat="45.44549" lon="4.69942">
        <ele>454</ele>
        <time>2010-08-18T15:34:23Z</time>
      </trkpt>
      <trkpt lat="45.44557" lon="4.69949">
        <ele>454</ele>
        <time>2010-08-18T15:34:30Z</time>
      </trkpt>
      <trkpt lat="45.44565" lon="4.69957">
        <ele>454</ele>
        <time>2010-08-18T15:34:37Z</time>
      </trkpt>
      <trkpt lat="45.44573" lon="4.69964">
        <ele>454</ele>
        <time>2010-08-18T15:34:44Z</time>
      </trkpt>
      <trkpt lat="45.44582" lon="4.69969">
        <ele>454</ele>
        <time>2010-08-18T15:34:51Z</time>
      </trkpt>
      <trkpt lat="45.44589" lon="4.6998">
        <ele>454</ele>
        <time>2010-08-18T15:35:01Z</time>
      </trkpt>
      <trkpt lat="45.44598" lon="4.69988">
        <ele>454</ele>
        <time>2010-08-18T15:35:09Z</time>
      </trkpt>
      <trkpt lat="45.44606" lon="4.69996">
        <ele>454</ele>
        <time>2010-08-18T15:35:18Z</time>
      </trkpt>
      <trkpt lat="45.44614" lon="4.70006">
        <ele>454</ele>
        <time>2010-08-18T15:35:25Z</time>
      </trkpt>
      <trkpt lat="45.44622" lon="4.70014">
        <ele>454</ele>
        <time>2010-08-18T15:35:33Z</time>
      </trkpt>
      <trkpt lat="45.4463" lon="4.70022">
        <ele>454</ele>
        <time>2010-08-18T15:35:41Z</time>
      </trkpt>
      <trkpt lat="45.44638" lon="4.70029">
        <ele>459</ele>
        <time>2010-08-18T15:35:48Z</time>
      </trkpt>
      <trkpt lat="45.44646" lon="4.70038">
        <ele>459</ele>
        <time>2010-08-18T15:35:55Z</time>
      </trkpt>
      <trkpt lat="45.44654" lon="4.70044">
        <ele>459</ele>
        <time>2010-08-18T15:36:03Z</time>
      </trkpt>
      <trkpt lat="45.44662" lon="4.70051">
        <ele>459</ele>
        <time>2010-08-18T15:36:12Z</time>
      </trkpt>
      <trkpt lat="45.44671" lon="4.70059">
        <ele>459</ele>
        <time>2010-08-18T15:36:20Z</time>
      </trkpt>
      <trkpt lat="45.4468" lon="4.70066">
        <ele>459</ele>
        <time>2010-08-18T15:36:29Z</time>
      </trkpt>
      <trkpt lat="45.44687" lon="4.70075">
        <ele>466</ele>
        <time>2010-08-18T15:36:38Z</time>
      </trkpt>
      <trkpt lat="45.44696" lon="4.70082">
        <ele>466</ele>
        <time>2010-08-18T15:36:47Z</time>
      </trkpt>
      <trkpt lat="45.44705" lon="4.70087">
        <ele>466</ele>
        <time>2010-08-18T15:36:55Z</time>
      </trkpt>
      <trkpt lat="45.44714" lon="4.70096">
        <ele>474</ele>
        <time>2010-08-18T15:37:03Z</time>
      </trkpt>
      <trkpt lat="45.44724" lon="4.70099">
        <ele>474</ele>
        <time>2010-08-18T15:37:11Z</time>
      </trkpt>
      <trkpt lat="45.44733" lon="4.70104">
        <ele>474</ele>
        <time>2010-08-18T15:37:19Z</time>
      </trkpt>
      <trkpt lat="45.44744" lon="4.70101">
        <ele>474</ele>
        <time>2010-08-18T15:37:27Z</time>
      </trkpt>
      <trkpt lat="45.44754" lon="4.70097">
        <ele>474</ele>
        <time>2010-08-18T15:37:35Z</time>
      </trkpt>
      <trkpt lat="45.44762" lon="4.70089">
        <ele>474</ele>
        <time>2010-08-18T15:37:42Z</time>
      </trkpt>
      <trkpt lat="45.4477" lon="4.70081">
        <ele>474</ele>
        <time>2010-08-18T15:37:49Z</time>
      </trkpt>
      <trkpt lat="45.44776" lon="4.70071">
        <ele>474</ele>
        <time>2010-08-18T15:37:56Z</time>
      </trkpt>
      <trkpt lat="45.44784" lon="4.70061">
        <ele>474</ele>
        <time>2010-08-18T15:38:04Z</time>
      </trkpt>
      <trkpt lat="45.44791" lon="4.70053">
        <ele>474</ele>
        <time>2010-08-18T15:38:11Z</time>
      </trkpt>
      <trkpt lat="45.44799" lon="4.70044">
        <ele>474</ele>
        <time>2010-08-18T15:38:19Z</time>
      </trkpt>
      <trkpt lat="45.44806" lon="4.70035">
        <ele>467</ele>
        <time>2010-08-18T15:38:25Z</time>
      </trkpt>
      <trkpt lat="45.44813" lon="4.70025">
        <ele>467</ele>
        <time>2010-08-18T15:38:33Z</time>
      </trkpt>
      <trkpt lat="45.4482" lon="4.70015">
        <ele>467</ele>
        <time>2010-08-18T15:38:41Z</time>
      </trkpt>
      <trkpt lat="45.44828" lon="4.70007">
        <ele>467</ele>
        <time>2010-08-18T15:38:48Z</time>
      </trkpt>
      <trkpt lat="45.44835" lon="4.69997">
        <ele>467</ele>
        <time>2010-08-18T15:38:56Z</time>
      </trkpt>
      <trkpt lat="45.44842" lon="4.69988">
        <ele>467</ele>
        <time>2010-08-18T15:39:05Z</time>
      </trkpt>
      <trkpt lat="45.44849" lon="4.69978">
        <ele>475</ele>
        <time>2010-08-18T15:39:14Z</time>
      </trkpt>
      <trkpt lat="45.44857" lon="4.6997">
        <ele>475</ele>
        <time>2010-08-18T15:39:23Z</time>
      </trkpt>
      <trkpt lat="45.44865" lon="4.69962">
        <ele>475</ele>
        <time>2010-08-18T15:39:32Z</time>
      </trkpt>
      <trkpt lat="45.44872" lon="4.69952">
        <ele>480</ele>
        <time>2010-08-18T15:39:39Z</time>
      </trkpt>
      <trkpt lat="45.4488" lon="4.69944">
        <ele>480</ele>
        <time>2010-08-18T15:39:48Z</time>
      </trkpt>
      <trkpt lat="45.44888" lon="4.69935">
        <ele>480</ele>
        <time>2010-08-18T15:39:57Z</time>
      </trkpt>
      <trkpt lat="45.44895" lon="4.69926">
        <ele>480</ele>
        <time>2010-08-18T15:40:05Z</time>
      </trkpt>
      <trkpt lat="45.44902" lon="4.69917">
        <ele>480</ele>
        <time>2010-08-18T15:40:14Z</time>
      </trkpt>
      <trkpt lat="45.4491" lon="4.69907">
        <ele>486</ele>
        <time>2010-08-18T15:40:24Z</time>
      </trkpt>
      <trkpt lat="45.44917" lon="4.69898">
        <ele>486</ele>
        <time>2010-08-18T15:40:31Z</time>
      </trkpt>
      <trkpt lat="45.44925" lon="4.69891">
        <ele>486</ele>
        <time>2010-08-18T15:40:40Z</time>
      </trkpt>
      <trkpt lat="45.44933" lon="4.69884">
        <ele>492</ele>
        <time>2010-08-18T15:40:49Z</time>
      </trkpt>
      <trkpt lat="45.4494" lon="4.69873">
        <ele>492</ele>
        <time>2010-08-18T15:42:10Z</time>
      </trkpt>
      <trkpt lat="45.44948" lon="4.69867">
        <ele>492</ele>
        <time>2010-08-18T15:42:19Z</time>
      </trkpt>
      <trkpt lat="45.44957" lon="4.69858">
        <ele>492</ele>
        <time>2010-08-18T15:42:28Z</time>
      </trkpt>
      <trkpt lat="45.44965" lon="4.6985">
        <ele>492</ele>
        <time>2010-08-18T15:42:37Z</time>
      </trkpt>
      <trkpt lat="45.44972" lon="4.69841">
        <ele>497</ele>
        <time>2010-08-18T15:42:43Z</time>
      </trkpt>
      <trkpt lat="45.44979" lon="4.69832">
        <ele>497</ele>
        <time>2010-08-18T15:42:52Z</time>
      </trkpt>
      <trkpt lat="45.44987" lon="4.69824">
        <ele>497</ele>
        <time>2010-08-18T15:43:08Z</time>
      </trkpt>
      <trkpt lat="45.44997" lon="4.6982">
        <ele>497</ele>
        <time>2010-08-18T15:43:15Z</time>
      </trkpt>
      <trkpt lat="45.45006" lon="4.69816">
        <ele>497</ele>
        <time>2010-08-18T15:43:24Z</time>
      </trkpt>
      <trkpt lat="45.45015" lon="4.69813">
        <ele>497</ele>
        <time>2010-08-18T15:43:32Z</time>
      </trkpt>
      <trkpt lat="45.45024" lon="4.69809">
        <ele>490</ele>
        <time>2010-08-18T15:43:41Z</time>
      </trkpt>
      <trkpt lat="45.45033" lon="4.69805">
        <ele>490</ele>
        <time>2010-08-18T15:43:47Z</time>
      </trkpt>
      <trkpt lat="45.45043" lon="4.69801">
        <ele>490</ele>
        <time>2010-08-18T15:43:55Z</time>
      </trkpt>
      <trkpt lat="45.45052" lon="4.69794">
        <ele>490</ele>
        <time>2010-08-18T15:44:04Z</time>
      </trkpt>
      <trkpt lat="45.45062" lon="4.69787">
        <ele>497</ele>
        <time>2010-08-18T15:44:14Z</time>
      </trkpt>
      <trkpt lat="45.45064" lon="4.69773">
        <ele>508</ele>
        <time>2010-08-18T15:44:26Z</time>
      </trkpt>
      <trkpt lat="45.4506" lon="4.6976">
        <ele>501</ele>
        <time>2010-08-18T15:44:33Z</time>
      </trkpt>
      <trkpt lat="45.45057" lon="4.69746">
        <ele>501</ele>
        <time>2010-08-18T15:44:40Z</time>
      </trkpt>
      <trkpt lat="45.45052" lon="4.69734">
        <ele>501</ele>
        <time>2010-08-18T15:44:52Z</time>
      </trkpt>
      <trkpt lat="45.45061" lon="4.69743">
        <ele>501</ele>
        <time>2010-08-18T15:45:40Z</time>
      </trkpt>
      <trkpt lat="45.4507" lon="4.69743">
        <ele>501</ele>
        <time>2010-08-18T15:45:49Z</time>
      </trkpt>
      <trkpt lat="45.45082" lon="4.69735">
        <ele>501</ele>
        <time>2010-08-18T15:46:00Z</time>
      </trkpt>
      <trkpt lat="45.45091" lon="4.69729">
        <ele>501</ele>
        <time>2010-08-18T15:46:07Z</time>
      </trkpt>
      <trkpt lat="45.451" lon="4.69723">
        <ele>501</ele>
        <time>2010-08-18T15:46:15Z</time>
      </trkpt>
      <trkpt lat="45.4511" lon="4.6972">
        <ele>501</ele>
        <time>2010-08-18T15:46:20Z</time>
      </trkpt>
      <trkpt lat="45.45121" lon="4.69713">
        <ele>501</ele>
        <time>2010-08-18T15:46:30Z</time>
      </trkpt>
      <trkpt lat="45.45131" lon="4.69708">
        <ele>501</ele>
        <time>2010-08-18T15:46:36Z</time>
      </trkpt>
      <trkpt lat="45.45139" lon="4.69703">
        <ele>501</ele>
        <time>2010-08-18T15:46:45Z</time>
      </trkpt>
      <trkpt lat="45.4515" lon="4.69697">
        <ele>501</ele>
        <time>2010-08-18T15:46:54Z</time>
      </trkpt>
      <trkpt lat="45.4516" lon="4.69692">
        <ele>501</ele>
        <time>2010-08-18T15:47:03Z</time>
      </trkpt>
      <trkpt lat="45.45168" lon="4.69684">
        <ele>501</ele>
        <time>2010-08-18T15:47:11Z</time>
      </trkpt>
      <trkpt lat="45.45176" lon="4.69677">
        <ele>501</ele>
        <time>2010-08-18T15:47:19Z</time>
      </trkpt>
      <trkpt lat="45.45187" lon="4.69673">
        <ele>501</ele>
        <time>2010-08-18T15:47:28Z</time>
      </trkpt>
      <trkpt lat="45.45195" lon="4.69665">
        <ele>496</ele>
        <time>2010-08-18T15:47:37Z</time>
      </trkpt>
      <trkpt lat="45.45203" lon="4.69659">
        <ele>496</ele>
        <time>2010-08-18T15:47:46Z</time>
      </trkpt>
      <trkpt lat="45.45213" lon="4.69657">
        <ele>496</ele>
        <time>2010-08-18T15:47:55Z</time>
      </trkpt>
      <trkpt lat="45.45223" lon="4.69655">
        <ele>496</ele>
        <time>2010-08-18T15:48:01Z</time>
      </trkpt>
      <trkpt lat="45.45229" lon="4.69645">
        <ele>496</ele>
        <time>2010-08-18T15:48:15Z</time>
      </trkpt>
      <trkpt lat="45.45234" lon="4.69633">
        <ele>496</ele>
        <time>2010-08-18T15:48:25Z</time>
      </trkpt>
      <trkpt lat="45.45237" lon="4.6962">
        <ele>490</ele>
        <time>2010-08-18T15:48:35Z</time>
      </trkpt>
      <trkpt lat="45.45244" lon="4.69611">
        <ele>490</ele>
        <time>2010-08-18T15:48:47Z</time>
      </trkpt>
      <trkpt lat="45.4525" lon="4.696">
        <ele>490</ele>
        <time>2010-08-18T15:48:57Z</time>
      </trkpt>
      <trkpt lat="45.45258" lon="4.69593">
        <ele>490</ele>
        <time>2010-08-18T15:49:07Z</time>
      </trkpt>
      <trkpt lat="45.45267" lon="4.69596">
        <ele>482</ele>
        <time>2010-08-18T15:49:34Z</time>
      </trkpt>
      <trkpt lat="45.45272" lon="4.69608">
        <ele>476</ele>
        <time>2010-08-18T15:49:45Z</time>
      </trkpt>
      <trkpt lat="45.45278" lon="4.69618">
        <ele>476</ele>
        <time>2010-08-18T15:49:52Z</time>
      </trkpt>
      <trkpt lat="45.45284" lon="4.69629">
        <ele>482</ele>
        <time>2010-08-18T15:49:59Z</time>
      </trkpt>
      <trkpt lat="45.45288" lon="4.69643">
        <ele>482</ele>
        <time>2010-08-18T15:50:09Z</time>
      </trkpt>
      <trkpt lat="45.45292" lon="4.69656">
        <ele>482</ele>
        <time>2010-08-18T15:50:17Z</time>
      </trkpt>
      <trkpt lat="45.45296" lon="4.69669">
        <ele>482</ele>
        <time>2010-08-18T15:50:25Z</time>
      </trkpt>
      <trkpt lat="45.45296" lon="4.69682">
        <ele>475</ele>
        <time>2010-08-18T15:50:35Z</time>
      </trkpt>
      <trkpt lat="45.45301" lon="4.69695">
        <ele>475</ele>
        <time>2010-08-18T15:50:45Z</time>
      </trkpt>
      <trkpt lat="45.45306" lon="4.69706">
        <ele>475</ele>
        <time>2010-08-18T15:50:52Z</time>
      </trkpt>
      <trkpt lat="45.45316" lon="4.69708">
        <ele>475</ele>
        <time>2010-08-18T15:51:03Z</time>
      </trkpt>
      <trkpt lat="45.45326" lon="4.69709">
        <ele>475</ele>
        <time>2010-08-18T15:51:15Z</time>
      </trkpt>
      <trkpt lat="45.45335" lon="4.69706">
        <ele>475</ele>
        <time>2010-08-18T15:51:25Z</time>
      </trkpt>
      <trkpt lat="45.45341" lon="4.69695">
        <ele>469</ele>
        <time>2010-08-18T15:51:32Z</time>
      </trkpt>
      <trkpt lat="45.45346" lon="4.69682">
        <ele>469</ele>
        <time>2010-08-18T15:51:41Z</time>
      </trkpt>
      <trkpt lat="45.4535" lon="4.69668">
        <ele>469</ele>
        <time>2010-08-18T15:51:49Z</time>
      </trkpt>
      <trkpt lat="45.45355" lon="4.69655">
        <ele>462</ele>
        <time>2010-08-18T15:51:59Z</time>
      </trkpt>
      <trkpt lat="45.45362" lon="4.69643">
        <ele>462</ele>
        <time>2010-08-18T15:52:07Z</time>
      </trkpt>
      <trkpt lat="45.45366" lon="4.6963">
        <ele>457</ele>
        <time>2010-08-18T15:52:15Z</time>
      </trkpt>
      <trkpt lat="45.45368" lon="4.69617">
        <ele>457</ele>
        <time>2010-08-18T15:52:25Z</time>
      </trkpt>
      <trkpt lat="45.4537" lon="4.69603">
        <ele>457</ele>
        <time>2010-08-18T15:52:33Z</time>
      </trkpt>
      <trkpt lat="45.45371" lon="4.69589">
        <ele>457</ele>
        <time>2010-08-18T15:52:43Z</time>
      </trkpt>
      <trkpt lat="45.45372" lon="4.69576">
        <ele>457</ele>
        <time>2010-08-18T15:52:51Z</time>
      </trkpt>
      <trkpt lat="45.45374" lon="4.69562">
        <ele>457</ele>
        <time>2010-08-18T15:53:00Z</time>
      </trkpt>
      <trkpt lat="45.45373" lon="4.69548">
        <ele>457</ele>
        <time>2010-08-18T15:53:09Z</time>
      </trkpt>
      <trkpt lat="45.45373" lon="4.69534">
        <ele>451</ele>
        <time>2010-08-18T15:53:18Z</time>
      </trkpt>
      <trkpt lat="45.45371" lon="4.69521">
        <ele>451</ele>
        <time>2010-08-18T15:53:27Z</time>
      </trkpt>
      <trkpt lat="45.45377" lon="4.69506">
        <ele>451</ele>
        <time>2010-08-18T15:53:39Z</time>
      </trkpt>
      <trkpt lat="45.45383" lon="4.69496">
        <ele>458</ele>
        <time>2010-08-18T15:53:48Z</time>
      </trkpt>
      <trkpt lat="45.45391" lon="4.69489">
        <ele>452</ele>
        <time>2010-08-18T15:53:58Z</time>
      </trkpt>
      <trkpt lat="45.45401" lon="4.69483">
        <ele>452</ele>
        <time>2010-08-18T15:54:06Z</time>
      </trkpt>
      <trkpt lat="45.45409" lon="4.69477">
        <ele>452</ele>
        <time>2010-08-18T15:54:14Z</time>
      </trkpt>
      <trkpt lat="45.45416" lon="4.69468">
        <ele>452</ele>
        <time>2010-08-18T15:54:23Z</time>
      </trkpt>
      <trkpt lat="45.45421" lon="4.69456">
        <ele>452</ele>
        <time>2010-08-18T15:54:29Z</time>
      </trkpt>
      <trkpt lat="45.45424" lon="4.69443">
        <ele>452</ele>
        <time>2010-08-18T15:54:36Z</time>
      </trkpt>
      <trkpt lat="45.45427" lon="4.69431">
        <ele>452</ele>
        <time>2010-08-18T15:54:45Z</time>
      </trkpt>
      <trkpt lat="45.45433" lon="4.6942">
        <ele>452</ele>
        <time>2010-08-18T15:54:55Z</time>
      </trkpt>
      <trkpt lat="45.45442" lon="4.69412">
        <ele>452</ele>
        <time>2010-08-18T15:55:04Z</time>
      </trkpt>
      <trkpt lat="45.45451" lon="4.69406">
        <ele>452</ele>
        <time>2010-08-18T15:55:12Z</time>
      </trkpt>
      <trkpt lat="45.45459" lon="4.69399">
        <ele>452</ele>
        <time>2010-08-18T15:55:19Z</time>
      </trkpt>
      <trkpt lat="45.45468" lon="4.69393">
        <ele>452</ele>
        <time>2010-08-18T15:55:26Z</time>
      </trkpt>
      <trkpt lat="45.45476" lon="4.69386">
        <ele>452</ele>
        <time>2010-08-18T15:55:33Z</time>
      </trkpt>
      <trkpt lat="45.45485" lon="4.6938">
        <ele>452</ele>
        <time>2010-08-18T15:55:40Z</time>
      </trkpt>
      <trkpt lat="45.45493" lon="4.69372">
        <ele>452</ele>
        <time>2010-08-18T15:55:48Z</time>
      </trkpt>
      <trkpt lat="45.45502" lon="4.69366">
        <ele>452</ele>
        <time>2010-08-18T15:55:56Z</time>
      </trkpt>
      <trkpt lat="45.45509" lon="4.69356">
        <ele>452</ele>
        <time>2010-08-18T15:56:05Z</time>
      </trkpt>
      <trkpt lat="45.45512" lon="4.69344">
        <ele>452</ele>
        <time>2010-08-18T15:56:15Z</time>
      </trkpt>
      <trkpt lat="45.45516" lon="4.69331">
        <ele>459</ele>
        <time>2010-08-18T15:56:23Z</time>
      </trkpt>
      <trkpt lat="45.45519" lon="4.69319">
        <ele>459</ele>
        <time>2010-08-18T15:56:30Z</time>
      </trkpt>
      <trkpt lat="45.45523" lon="4.69307">
        <ele>459</ele>
        <time>2010-08-18T15:56:38Z</time>
      </trkpt>
      <trkpt lat="45.45531" lon="4.69299">
        <ele>459</ele>
        <time>2010-08-18T15:56:46Z</time>
      </trkpt>
      <trkpt lat="45.45541" lon="4.69297">
        <ele>459</ele>
        <time>2010-08-18T15:56:54Z</time>
      </trkpt>
      <trkpt lat="45.45551" lon="4.69298">
        <ele>459</ele>
        <time>2010-08-18T15:57:02Z</time>
      </trkpt>
      <trkpt lat="45.4556" lon="4.69294">
        <ele>459</ele>
        <time>2010-08-18T15:57:09Z</time>
      </trkpt>
      <trkpt lat="45.45569" lon="4.69298">
        <ele>459</ele>
        <time>2010-08-18T15:57:19Z</time>
      </trkpt>
      <trkpt lat="45.45578" lon="4.69304">
        <ele>464</ele>
        <time>2010-08-18T15:57:30Z</time>
      </trkpt>
      <trkpt lat="45.45586" lon="4.69311">
        <ele>464</ele>
        <time>2010-08-18T15:57:40Z</time>
      </trkpt>
      <trkpt lat="45.45595" lon="4.69317">
        <ele>464</ele>
        <time>2010-08-18T15:57:50Z</time>
      </trkpt>
      <trkpt lat="45.45603" lon="4.69324">
        <ele>464</ele>
        <time>2010-08-18T15:58:06Z</time>
      </trkpt>
      <trkpt lat="45.45612" lon="4.69328">
        <ele>464</ele>
        <time>2010-08-18T15:58:15Z</time>
      </trkpt>
      <trkpt lat="45.45621" lon="4.69332">
        <ele>464</ele>
        <time>2010-08-18T15:58:22Z</time>
      </trkpt>
      <trkpt lat="45.4563" lon="4.69337">
        <ele>464</ele>
        <time>2010-08-18T15:58:30Z</time>
      </trkpt>
      <trkpt lat="45.4564" lon="4.69339">
        <ele>464</ele>
        <time>2010-08-18T15:58:38Z</time>
      </trkpt>
      <trkpt lat="45.4565" lon="4.69343">
        <ele>464</ele>
        <time>2010-08-18T15:58:47Z</time>
      </trkpt>
      <trkpt lat="45.45659" lon="4.69345">
        <ele>469</ele>
        <time>2010-08-18T15:58:55Z</time>
      </trkpt>
      <trkpt lat="45.45669" lon="4.69346">
        <ele>469</ele>
        <time>2010-08-18T15:59:02Z</time>
      </trkpt>
      <trkpt lat="45.45679" lon="4.69346">
        <ele>469</ele>
        <time>2010-08-18T15:59:11Z</time>
      </trkpt>
      <trkpt lat="45.45689" lon="4.69347">
        <ele>479</ele>
        <time>2010-08-18T15:59:21Z</time>
      </trkpt>
      <trkpt lat="45.45696" lon="4.69356">
        <ele>486</ele>
        <time>2010-08-18T15:59:36Z</time>
      </trkpt>
      <trkpt lat="45.45696" lon="4.69371">
        <ele>486</ele>
        <time>2010-08-18T15:59:53Z</time>
      </trkpt>
      <trkpt lat="45.457" lon="4.69358">
        <ele>477</ele>
        <time>2010-08-18T16:00:00Z</time>
      </trkpt>
    </trkseg>
  </trk>
</gpx>